Provisional Data: Marsh Creek near Blanchard, PA


Please select a monitoring station.
Please select start date.
Please select start date.

Toggle Unit: C/F Toggle Unit: C/F
Sample Time Temperature (C) Temperature (F) Specific Conductivity (mS/cm) pH   Turbidity (NTU+) DO (mg/L)
5/4/2021 12:00:00 AM 15.1 59.18 0.096 6.9 4.97 8.8
5/4/2021 12:15:00 AM 15.06 59.108 0.096 6.9 5.28 8.85
5/4/2021 12:30:00 AM 15.03 59.054 0.096 6.9 4.72 8.84
5/4/2021 12:45:00 AM 15 59 0.096 6.9 4.95 8.86
5/4/2021 1:00:00 AM 14.96 58.928 0.096 6.9 5.08 8.85
5/4/2021 1:15:00 AM 14.94 58.892 0.096 6.9 4.99 8.9
5/4/2021 1:30:00 AM 14.91 58.838 0.096 6.91 5.03 8.86
5/4/2021 1:45:00 AM 14.88 58.784 0.096 6.9 4.94 8.9
5/4/2021 2:00:00 AM 14.85 58.73 0.096 6.9 4.64 8.83
5/4/2021 2:15:00 AM 14.82 58.676 0.097 6.9 5.07 8.92
5/4/2021 2:30:00 AM 14.8 58.64 0.097 6.9 5.16 8.91
5/4/2021 2:45:00 AM 14.78 58.604 0.097 6.91 5.58 8.95
5/4/2021 3:00:00 AM 14.75 58.55 0.097 6.91 5.29 8.92
5/4/2021 3:15:00 AM 14.73 58.514 0.097 6.91 5.01 8.92
5/4/2021 3:30:00 AM 14.7 58.46 0.097 6.91 5.16 8.9
5/4/2021 3:45:00 AM 14.68 58.424 0.097 6.91 4.93 8.97
5/4/2021 4:00:00 AM 14.65 58.37 0.097 6.91 5.18 8.94
5/4/2021 4:15:00 AM 14.64 58.352 0.097 6.91 4.85 8.96
5/4/2021 4:30:00 AM 14.61 58.298 0.097 6.91 4.74 8.99
5/4/2021 4:45:00 AM 14.59 58.262 0.097 6.91 4.88 8.88
5/4/2021 5:00:00 AM 14.57 58.226 0.097 6.9 4.7 8.93
5/4/2021 5:15:00 AM 14.54 58.172 0.097 6.91 4.88 8.88
5/4/2021 5:30:00 AM 14.52 58.136 0.097 6.91 4.94 9
5/4/2021 5:45:00 AM 14.5 58.1 0.097 6.91 4.79 9.03
5/4/2021 6:00:00 AM 14.48 58.064 0.097 6.91 5.24 9.03
5/4/2021 6:15:00 AM 14.45 58.01 0.098 6.91 4.92 9.01
5/4/2021 6:30:00 AM 14.44 57.992 0.098 6.91 4.73 9.03
5/4/2021 6:45:00 AM 14.43 57.974 0.097 6.91 4.77 9.07
5/4/2021 7:00:00 AM 14.42 57.956 0.097 6.91 4.64 9.12
5/4/2021 7:15:00 AM 14.41 57.938 0.097 6.91 4.72 9.13
5/4/2021 7:30:00 AM 14.41 57.938 0.098 6.91 4.62 9.11
5/4/2021 7:45:00 AM 14.42 57.956 0.097 6.92 4.6 9.24
5/4/2021 8:00:00 AM 14.42 57.956 0.097 6.92 4.68 9.32
5/4/2021 8:15:00 AM 14.43 57.974 0.097 6.92 4.47 9.31
5/4/2021 8:30:00 AM 14.46 58.028 0.097 6.92 4.64 9.46
5/4/2021 8:45:00 AM 14.52 58.136 0.097 6.93 4.59 9.58
5/4/2021 9:00:00 AM 14.62 58.316 0.097 6.93 4.52 9.52
5/4/2021 9:15:00 AM 14.71 58.478 0.097 6.95 4.58 9.71
5/4/2021 9:30:00 AM 14.89 58.802 0.097 6.96 4.54 9.62
5/4/2021 9:45:00 AM 15.01 59.018 0.097 6.97 4.62 9.83
5/4/2021 10:00:00 AM 15.2 59.36 0.097 6.97 4.62 10
5/4/2021 10:15:00 AM 15.28 59.504 0.097 6.97 4.54 9.94
5/4/2021 10:30:00 AM 15.26 59.468 0.097 6.96 4.72 9.97
5/4/2021 10:45:00 AM 15.33 59.594 0.097 6.95 4.62 9.76
5/4/2021 11:00:00 AM 15.58 60.044 0.097 6.97 4.39 10.06
5/4/2021 11:15:00 AM 15.9 60.62 0.097 6.99 4.47 9.98
5/4/2021 11:30:00 AM 15.98 60.764 0.097 7 4.53 10.14
5/4/2021 11:45:00 AM 16 60.8 0.097 6.98 4.57 10.09
5/4/2021 12:00:00 PM 16.07 60.926 0.097 6.97 4.44 10.13
5/4/2021 12:15:00 PM 16.21 61.178 0.097 6.97 4.43 10.13
5/4/2021 12:30:00 PM 16.46 61.628 0.097 6.98 4.6 10.11
5/4/2021 12:45:00 PM 16.61 61.898 0.097 6.98 4.43 10.15
5/4/2021 1:00:00 PM 16.78 62.204 0.097 6.99 4.62 10.04
5/4/2021 1:15:00 PM 17.03 62.654 0.096 6.99 4.46 10.1
5/4/2021 1:30:00 PM 17.28 63.104 0.097 6.99 4.65 10.05
5/4/2021 1:45:00 PM 17.63 63.734 0.097 7 4.49 10.12
5/4/2021 2:00:00 PM 17.94 64.292 0.096 7.01 4.47 10.1
5/4/2021 2:15:00 PM 18.11 64.598 0.096 7.01 4.5 10.04
5/4/2021 2:30:00 PM 18.22 64.796 0.096 7 4.35 10.01
5/4/2021 2:45:00 PM 18.38 65.084 0.096 6.99 4.41 9.97
5/4/2021 3:00:00 PM 18.48 65.264 0.096 6.99 4.58 9.71
5/4/2021 3:15:00 PM 18.63 65.534 0.096 6.99 4.63 9.86
5/4/2021 3:30:00 PM 18.7 65.66 0.096 6.99 4.48 9.74
5/4/2021 3:45:00 PM 18.84 65.912 0.096 6.98 4.54 9.65
5/4/2021 4:00:00 PM 18.99 66.182 0.096 6.99 4.62 9.64
5/4/2021 4:15:00 PM 19.11 66.398 0.096 6.98 4.48 9.58
5/4/2021 4:30:00 PM 19.24 66.632 0.096 6.99 4.59 9.57
5/4/2021 4:45:00 PM 19.28 66.704 0.096 6.98 4.65 9.48
5/4/2021 5:00:00 PM 19.28 66.704 0.096 6.97 4.85 9.36
5/4/2021 5:15:00 PM 19.24 66.632 0.096 6.96 4.73 9.29
5/4/2021 5:30:00 PM 19.19 66.542 0.096 6.95 4.74 9.25
5/4/2021 5:45:00 PM 19.16 66.488 0.096 6.94 4.6 9.21
5/4/2021 6:00:00 PM 19.09 66.362 0.096 6.93 4.63 8.92
5/4/2021 6:15:00 PM 19.04 66.272 0.097 6.92 4.92 8.81
5/4/2021 6:30:00 PM 19.01 66.218 0.096 6.9 5.17 8.97
5/4/2021 6:45:00 PM 18.99 66.182 0.096 6.92 4.94 8.86
5/4/2021 7:00:00 PM 18.94 66.092 0.097 6.92 4.95 8.78
5/4/2021 7:15:00 PM 18.89 66.002 0.097 6.91 4.81 8.68
5/4/2021 7:30:00 PM 18.85 65.93 0.097 6.9 4.73 8.55
5/4/2021 7:45:00 PM 18.8 65.84 0.097 6.9 4.95 8.55
5/4/2021 8:00:00 PM 18.74 65.732 0.097 6.89 4.63 8.42
5/4/2021 8:15:00 PM 18.69 65.642 0.097 6.9 4.94 8.36
5/4/2021 8:30:00 PM 18.62 65.516 0.097 6.88 4.76 8.34
5/4/2021 8:45:00 PM 18.56 65.408 0.098 6.89 4.71 8.32
5/4/2021 9:00:00 PM 18.48 65.264 0.098 6.88 4.86 8.26
5/4/2021 9:15:00 PM 18.42 65.156 0.098 6.88 5.08 8.24
5/4/2021 9:30:00 PM 18.34 65.012 0.098 6.87 4.95 8.19
5/4/2021 9:45:00 PM 18.26 64.868 0.098 6.88 5.15 8.2
5/4/2021 10:00:00 PM 18.2 64.76 0.098 6.87 4.92 8.14
5/4/2021 10:15:00 PM 18.14 64.652 0.098 6.88 5.17 8.15
5/4/2021 10:30:00 PM 18.08 64.544 0.098 6.87 4.94 8.12
5/4/2021 10:45:00 PM 18.02 64.436 0.099 6.87 4.89 8.12
5/4/2021 11:00:00 PM 17.96 64.328 0.099 6.87 4.76 8.17
5/4/2021 11:15:00 PM 17.9 64.22 0.099 6.88 4.93 8.09
5/4/2021 11:30:00 PM 17.84 64.112 0.099 6.87 4.89 8.08
5/4/2021 11:45:00 PM 17.77 63.986 0.099 6.87 4.84 8.08
5/5/2021 12:00:00 AM 17.71 63.878 0.099 6.87 4.75 8.19
5/5/2021 12:15:00 AM 17.65 63.77 0.099 6.87 5.17 8.18
5/5/2021 12:30:00 AM 17.59 63.662 0.099 6.88 4.71 8.2
5/5/2021 12:45:00 AM 17.54 63.572 0.099 6.87 4.84 8.23
5/5/2021 1:00:00 AM 17.48 63.464 0.1 6.88 4.97 8.22
5/5/2021 1:15:00 AM 17.43 63.374 0.099 6.88 5.11 8.26
5/5/2021 1:30:00 AM 17.37 63.266 0.1 6.88 5.16 8.27
5/5/2021 1:45:00 AM 17.31 63.158 0.1 6.87 5.24 8.25
5/5/2021 2:00:00 AM 17.25 63.05 0.1 6.88 5.09 8.24
5/5/2021 2:15:00 AM 17.2 62.96 0.1 6.88 5.02 8.34
5/5/2021 2:30:00 AM 17.15 62.87 0.1 6.88 5.08 8.32
5/5/2021 2:45:00 AM 17.1 62.78 0.1 6.88 4.94 8.3
5/5/2021 3:00:00 AM 17.05 62.69 0.1 6.88 5.12 8.37
5/5/2021 3:15:00 AM 16.99 62.582 0.1 6.87 5.13 8.37
5/5/2021 3:30:00 AM 16.93 62.474 0.1 6.88 5.11 8.38
5/5/2021 3:45:00 AM 16.88 62.384 0.1 6.88 5.54 8.38
5/5/2021 4:00:00 AM 16.82 62.276 0.1 6.88 5.13 8.4
5/5/2021 4:15:00 AM 16.76 62.168 0.1 6.88 5.1 8.42
5/5/2021 4:30:00 AM 16.71 62.078 0.1 6.88 5.46 8.44
5/5/2021 4:45:00 AM 16.67 62.006 0.1 6.88 5.08 8.38
5/5/2021 5:00:00 AM 16.63 61.934 0.1 6.88 5.17 8.44
5/5/2021 5:15:00 AM 16.58 61.844 0.1 6.88 5.13 8.47
5/5/2021 5:30:00 AM 16.53 61.754 0.1 6.88 5.12 8.46
5/5/2021 5:45:00 AM 16.49 61.682 0.1 6.88 4.69 8.5
5/5/2021 6:00:00 AM 16.45 61.61 0.101 6.89 5.14 8.51
5/5/2021 6:15:00 AM 16.4 61.52 0.101 6.89 4.79 8.5
5/5/2021 6:30:00 AM 16.36 61.448 0.101 6.89 5.09 8.52
5/5/2021 6:45:00 AM 16.32 61.376 0.101 6.89 5.14 8.57
5/5/2021 7:00:00 AM 16.29 61.322 0.1 6.89 5.23 8.6
5/5/2021 7:15:00 AM 16.25 61.25 0.1 6.9 4.88 8.63
5/5/2021 7:30:00 AM 16.22 61.196 0.1 6.89 4.73 8.65
5/5/2021 7:45:00 AM 16.2 61.16 0.1 6.9 4.94 8.68
5/5/2021 8:00:00 AM 16.18 61.124 0.1 6.9 4.79 8.76
5/5/2021 8:15:00 AM 16.16 61.088 0.1 6.91 4.77 8.83
5/5/2021 8:30:00 AM 16.14 61.052 0.1 6.91 4.93 8.86
5/5/2021 8:45:00 AM 16.12 61.016 0.1 6.91 4.85 8.89
5/5/2021 9:00:00 AM 16.1 60.98 0.1 6.91 4.84 8.92
5/5/2021 9:15:00 AM 16.08 60.944 0.1 6.91 5.08 8.95
5/5/2021 9:30:00 AM 16.07 60.926 0.1 6.91 4.89 8.97
5/5/2021 9:45:00 AM 16.06 60.908 0.099 6.91 4.88 9.03
5/5/2021 10:00:00 AM 16.05 60.89 0.099 6.91 5.35 9.07
5/5/2021 10:15:00 AM 16.05 60.89 0.099 6.92 4.95 9.12
5/5/2021 10:30:00 AM 16.03 60.854 0.099 6.92 4.63 9.15
5/5/2021 10:45:00 AM 16.01 60.818 0.099 6.91 4.82 9.12
5/5/2021 11:00:00 AM 16.01 60.818 0.099 6.92 5.01 9.24
5/5/2021 11:15:00 AM 16.02 60.836 0.099 6.92 4.9 9.3
5/5/2021 11:30:00 AM 16.01 60.818 0.099 6.92 4.86 9.29
5/5/2021 11:45:00 AM 15.99 60.782 0.099 6.92 4.94 9.29
5/5/2021 12:00:00 PM 16 60.8 0.098 6.92 5.19 9.39
5/5/2021 12:15:00 PM 16.01 60.818 0.098 6.92 4.89 9.49
5/5/2021 12:30:00 PM 15.99 60.782 0.098 6.93 4.97 9.5
5/5/2021 12:45:00 PM 15.99 60.782 0.098 6.93 5.04 9.52
5/5/2021 1:00:00 PM 16.02 60.836 0.098 6.93 5.3 9.6
5/5/2021 1:15:00 PM 16 60.8 0.099 6.92 5.5 9.57
5/5/2021 1:30:00 PM 15.97 60.746 0.099 6.92 5.5 9.56
5/5/2021 1:45:00 PM 15.96 60.728 0.099 6.92 5.27 9.57
5/5/2021 2:00:00 PM 15.96 60.728 0.099 6.92 5.57 9.63
5/5/2021 2:15:00 PM 15.95 60.71 0.099 6.92 6.13 9.66
5/5/2021 2:30:00 PM 16.01 60.818 0.099 6.92 5.36 9.7
5/5/2021 2:45:00 PM 16.13 61.034 0.099 6.93 5.57 9.81
5/5/2021 3:00:00 PM 16.13 61.034 0.099 6.95 5.46 9.8
5/5/2021 3:15:00 PM 16.09 60.962 0.099 6.94 5.32 9.8
5/5/2021 3:30:00 PM 16.07 60.926 0.1 6.93 5.24 9.82
5/5/2021 3:45:00 PM 16.1 60.98 0.1 6.93 5.33 9.85
5/5/2021 4:00:00 PM 16.09 60.962 0.1 6.93 5.36 9.86
5/5/2021 4:15:00 PM 16.07 60.926 0.1 6.93 5.19 9.81
5/5/2021 4:30:00 PM 16.08 60.944 0.099 6.92 5.12 9.87
5/5/2021 4:45:00 PM 16.14 61.052 0.099 6.93 5.15 9.9
5/5/2021 5:00:00 PM 16.18 61.124 0.099 6.93 5.16 9.67
5/5/2021 5:15:00 PM 16.21 61.178 0.099 6.93 5.31 9.77
5/5/2021 5:30:00 PM 16.18 61.124 0.099 6.94 5.2 9.89
5/5/2021 5:45:00 PM 16.11 60.998 0.1 6.92 5.3 9.83
5/5/2021 6:00:00 PM 16.08 60.944 0.1 6.92 5.96 9.79
5/5/2021 6:15:00 PM 16.03 60.854 0.101 6.91 5.76 9.76
5/5/2021 6:30:00 PM 15.94 60.692 0.101 6.91 5.71 9.76
5/5/2021 6:45:00 PM 15.81 60.458 0.101 6.9 5.79 9.74
5/5/2021 7:00:00 PM 15.7 60.26 0.102 6.89 6.2 9.69
5/5/2021 7:15:00 PM 15.61 60.098 0.102 6.87 5.91 9.63
5/5/2021 7:30:00 PM 15.52 59.936 0.102 6.87 5.58 9.51
5/5/2021 7:45:00 PM 15.42 59.756 0.102 6.86 5.89 9.51
5/5/2021 8:00:00 PM 15.32 59.576 0.102 6.87 5.72 9.46
5/5/2021 8:15:00 PM 15.2 59.36 0.102 6.86 5.69 9.41
5/5/2021 8:30:00 PM 15.1 59.18 0.102 6.86 5.67 9.37
5/5/2021 8:45:00 PM 15 59 0.102 6.86 6.11 9.34
5/5/2021 9:00:00 PM 14.91 58.838 0.102 6.86 5.79 9.32
5/5/2021 9:15:00 PM 14.81 58.658 0.102 6.85 5.4 9.29
5/5/2021 9:30:00 PM 14.72 58.496 0.103 6.85 5.64 9.26
5/5/2021 9:45:00 PM 14.64 58.352 0.103 6.85 5.61 9.22
5/5/2021 10:00:00 PM 14.51 58.118 0.103 6.85 5.63 9.22
5/5/2021 10:15:00 PM 14.41 57.938 0.103 6.85 5.56 9.21
5/5/2021 10:30:00 PM 14.32 57.776 0.103 6.84 5.91 9.24
5/5/2021 10:45:00 PM 14.24 57.632 0.103 6.85 5.58 9.22
5/5/2021 11:00:00 PM 14.17 57.506 0.103 6.85 5.41 9.19
5/5/2021 11:15:00 PM 14.09 57.362 0.103 6.86 5.28 9.24
5/5/2021 11:30:00 PM 14.02 57.236 0.103 6.85 5.48 9.25
5/5/2021 11:45:00 PM 13.93 57.074 0.103 6.86 5.53 9.28
5/6/2021 12:00:00 AM 13.84 56.912 0.103 6.86 5.74 9.24
5/6/2021 12:15:00 AM 13.76 56.768 0.103 6.86 5.69 9.27
5/6/2021 12:30:00 AM 13.68 56.624 0.103 6.86 5.67 9.31
5/6/2021 12:45:00 AM 13.6 56.48 0.103 6.86 5.71 9.35
5/6/2021 1:00:00 AM 13.51 56.318 0.103 6.86 5.66 9.34
5/6/2021 1:15:00 AM 13.42 56.156 0.103 6.86 5.67 9.32
5/6/2021 1:30:00 AM 13.35 56.03 0.103 6.86 5.85 9.36
5/6/2021 1:45:00 AM 13.25 55.85 0.103 6.86 5.47 9.34
5/6/2021 2:00:00 AM 13.17 55.706 0.103 6.86 5.64 9.4
5/6/2021 2:15:00 AM 13.1 55.58 0.103 6.87 5.57 9.44
5/6/2021 2:30:00 AM 13.02 55.436 0.103 6.86 5.75 9.47
5/6/2021 2:45:00 AM 12.96 55.328 0.103 6.86 5.68 9.51
5/6/2021 3:00:00 AM 12.89 55.202 0.103 6.87 5.34 9.54
5/6/2021 3:15:00 AM 12.83 55.094 0.103 6.87 5.62 9.55
5/6/2021 3:30:00 AM 12.76 54.968 0.103 6.87 5.63 9.52
5/6/2021 3:45:00 AM 12.7 54.86 0.103 6.86 5.63 9.56
5/6/2021 4:00:00 AM 12.63 54.734 0.103 6.86 5.48 9.57
5/6/2021 4:15:00 AM 12.55 54.59 0.103 6.88 5.57 9.63
5/6/2021 4:30:00 AM 12.46 54.428 0.103 6.87 5.46 9.62
5/6/2021 4:45:00 AM 12.4 54.32 0.103 6.87 5.59 9.64
5/6/2021 5:00:00 AM 12.34 54.212 0.103 6.87 5.64 9.68
5/6/2021 5:15:00 AM 12.26 54.068 0.103 6.87 5.6 9.7
5/6/2021 5:30:00 AM 12.19 53.942 0.103 6.87 5.44 9.72
5/6/2021 5:45:00 AM 12.11 53.798 0.103 6.86 5.3 9.74
5/6/2021 6:00:00 AM 12.06 53.708 0.104 6.86 5.12 9.75
5/6/2021 6:15:00 AM 12 53.6 0.103 6.85 5.18 9.7
5/6/2021 6:30:00 AM 11.95 53.51 0.103 6.87 5.13 9.79
5/6/2021 6:45:00 AM 11.9 53.42 0.103 6.87 5.16 9.82
5/6/2021 7:00:00 AM 11.86 53.348 0.103 6.87 5.19 9.93
5/6/2021 7:15:00 AM 11.82 53.276 0.103 6.88 5.09 10.02
5/6/2021 7:30:00 AM 11.79 53.222 0.103 6.88 5.05 10.09
5/6/2021 7:45:00 AM 11.76 53.168 0.103 6.87 5.35 10.17
5/6/2021 8:00:00 AM 11.71 53.078 0.103 6.88 4.89 10.19
5/6/2021 8:15:00 AM 11.67 53.006 0.103 6.88 5.23 10.24
5/6/2021 8:30:00 AM 11.66 52.988 0.103 6.88 5.07 10.34
5/6/2021 8:45:00 AM 11.7 53.06 0.103 6.87 5.08 10.42
5/6/2021 9:00:00 AM 11.75 53.15 0.102 6.9 5.14 10.47
5/6/2021 9:15:00 AM 11.83 53.294 0.102 6.9 4.89 10.56
5/6/2021 9:30:00 AM 11.92 53.456 0.102 6.92 5.24 10.61
5/6/2021 9:45:00 AM 12.04 53.672 0.102 6.92 5.17 10.67
5/6/2021 10:00:00 AM 12.2 53.96 0.102 6.94 5.02 10.71
5/6/2021 10:15:00 AM 12.4 54.32 0.102 6.95 4.93 10.78
5/6/2021 10:30:00 AM 12.6 54.68 0.102 6.97 4.88 10.81
5/6/2021 10:45:00 AM 12.62 54.716 0.102 6.96 5.11 10.84
5/6/2021 11:00:00 AM 12.78 55.004 0.102 6.95 4.88 10.82
5/6/2021 11:15:00 AM 12.97 55.346 0.102 6.96 4.69 10.89
5/6/2021 11:30:00 AM 13.01 55.418 0.102 6.96 4.76 10.8
5/6/2021 11:45:00 AM 13.13 55.634 0.102 6.95 4.81 10.88
5/6/2021 12:00:00 PM 13.44 56.192 0.102 6.97 4.77 10.89
5/6/2021 12:15:00 PM 13.8 56.84 0.101 6.99 4.83 10.87
5/6/2021 12:30:00 PM 14.05 57.29 0.101 6.99 4.78 10.85
5/6/2021 12:45:00 PM 14.19 57.542 0.101 6.98 4.81 10.81
5/6/2021 1:00:00 PM 14.34 57.812 0.101 6.98 4.99 10.78
5/6/2021 1:15:00 PM 14.55 58.19 0.101 6.97 4.95 10.76
5/6/2021 1:30:00 PM 14.78 58.604 0.101 6.98 4.8 10.72
5/6/2021 1:45:00 PM 14.98 58.964 0.1 6.98 4.94 10.67
5/6/2021 2:00:00 PM 15.23 59.414 0.101 6.98 5.04 10.67
5/6/2021 2:15:00 PM 15.5 59.9 0.101 6.99 4.94 10.56
5/6/2021 2:30:00 PM 15.73 60.314 0.101 6.99 4.9 10.5
5/6/2021 2:45:00 PM 15.98 60.764 0.1 6.98 4.76 10.53
5/6/2021 3:00:00 PM 16.2 61.16 0.1 6.98 4.99 10.49
5/6/2021 3:15:00 PM 16.43 61.574 0.1 6.98 4.85 10.44
5/6/2021 3:30:00 PM 16.62 61.916 0.1 6.98 4.89 10.32
5/6/2021 3:45:00 PM 16.78 62.204 0.1 6.98 4.9 10.34
5/6/2021 4:00:00 PM 16.82 62.276 0.1 6.97 4.96 10.29
5/6/2021 4:15:00 PM 16.88 62.384 0.1 6.96 4.89 10.25
5/6/2021 4:30:00 PM 16.88 62.384 0.1 6.95 5.03 10.14
5/6/2021 4:45:00 PM 16.82 62.276 0.1 6.94 5.06 10.14
5/6/2021 5:00:00 PM 16.76 62.168 0.099 6.93 4.96 10.11
5/6/2021 5:15:00 PM 16.71 62.078 0.1 6.93 4.95 9.89
5/6/2021 5:30:00 PM 16.65 61.97 0.1 6.91 5.02 10.01
5/6/2021 5:45:00 PM 16.61 61.898 0.1 6.91 4.89 9.99
5/6/2021 6:00:00 PM 16.57 61.826 0.1 6.9 4.86 9.97
5/6/2021 6:15:00 PM 16.52 61.736 0.1 6.9 4.97 9.92
5/6/2021 6:30:00 PM 16.42 61.556 0.099 6.89 4.84 9.79
5/6/2021 6:45:00 PM 16.32 61.376 0.099 6.88 5.13 9.74
5/6/2021 7:00:00 PM 16.24 61.232 0.099 6.87 4.93 9.67
5/6/2021 7:15:00 PM 16.15 61.07 0.099 6.86 4.97 9.67
5/6/2021 7:30:00 PM 16.03 60.854 0.099 6.86 5.13 9.61
5/6/2021 7:45:00 PM 15.89 60.602 0.099 6.85 5.36 9.58
5/6/2021 8:00:00 PM 15.73 60.314 0.1 6.84 4.94 9.5
5/6/2021 8:15:00 PM 15.57 60.026 0.1 6.83 5.02 9.42
5/6/2021 8:30:00 PM 15.42 59.756 0.1 6.82 5.14 9.38
5/6/2021 8:45:00 PM 15.25 59.45 0.1 6.81 6.37 9.29
5/6/2021 9:00:00 PM 15.11 59.198 0.1 6.81 5.07 9.3
5/6/2021 9:15:00 PM 14.98 58.964 0.1 6.8 5.06 9.23
5/6/2021 9:30:00 PM 14.84 58.712 0.1 6.8 4.96 9.23
5/6/2021 9:45:00 PM 14.72 58.496 0.1 6.81 5.07 9.16
5/6/2021 10:00:00 PM 14.59 58.262 0.1 6.81 5.15 9.2
5/6/2021 10:15:00 PM 14.45 58.01 0.1 6.82 5.24 9.17
5/6/2021 10:30:00 PM 14.34 57.812 0.1 6.82 5.09 9.17
5/6/2021 10:45:00 PM 14.22 57.596 0.1 6.83 5.19 9.16
5/6/2021 11:00:00 PM 14.1 57.38 0.1 6.82 5.28 9.16
5/6/2021 11:15:00 PM 13.98 57.164 0.1 6.82 5.2 9.19
5/6/2021 11:30:00 PM 13.86 56.948 0.101 6.82 5.32 9.19
5/6/2021 11:45:00 PM 13.74 56.732 0.101 6.82 5.35 9.21
5/7/2021 12:00:00 AM 13.63 56.534 0.101 6.81 5.16 9.22
5/7/2021 12:15:00 AM 13.5 56.3 0.101 6.83 5.15 9.25
5/7/2021 12:30:00 AM 13.39 56.102 0.101 6.83 5.34 9.18
5/7/2021 12:45:00 AM 13.28 55.904 0.101 6.83 5.39 9.27
5/7/2021 1:00:00 AM 13.17 55.706 0.101 6.83 5.12 9.31
5/7/2021 1:15:00 AM 13.06 55.508 0.101 6.84 5.22 9.31
5/7/2021 1:30:00 AM 12.95 55.31 0.101 6.83 5.33 9.35
5/7/2021 1:45:00 AM 12.84 55.112 0.101 6.84 5.09 9.36
5/7/2021 2:00:00 AM 12.73 54.914 0.101 6.84 5.2 9.37
5/7/2021 2:15:00 AM 12.63 54.734 0.101 6.84 5.11 9.45
5/7/2021 2:30:00 AM 12.52 54.536 0.101 6.84 5.23 9.48
5/7/2021 2:45:00 AM 12.41 54.338 0.101 6.84 5.13 9.52
5/7/2021 3:00:00 AM 12.3 54.14 0.102 6.84 5.38 9.56
5/7/2021 3:15:00 AM 12.18 53.924 0.102 6.85 5.38 9.57
5/7/2021 3:30:00 AM 12.08 53.744 0.101 6.84 5.27 9.62
5/7/2021 3:45:00 AM 11.96 53.528 0.102 6.83 5.03 9.63
5/7/2021 4:00:00 AM 11.85 53.33 0.101 6.83 5.2 9.69
5/7/2021 4:15:00 AM 11.72 53.096 0.102 6.83 5.23 9.71
5/7/2021 4:30:00 AM 11.61 52.898 0.102 6.84 5.04 9.75
5/7/2021 4:45:00 AM 11.5 52.7 0.102 6.84 5.16 9.78
5/7/2021 5:00:00 AM 11.4 52.52 0.101 6.84 5.09 9.81
5/7/2021 5:15:00 AM 11.3 52.34 0.102 6.84 5.24 9.85
5/7/2021 5:30:00 AM 11.18 52.124 0.102 6.83 5.02 9.85
5/7/2021 5:45:00 AM 11.07 51.926 0.102 6.84 5.22 9.9
5/7/2021 6:00:00 AM 10.97 51.746 0.102 6.84 5.07 9.93
5/7/2021 6:15:00 AM 10.87 51.566 0.102 6.84 5.23 9.98
5/7/2021 6:30:00 AM 10.79 51.422 0.102 6.84 4.91 10.04
5/7/2021 6:45:00 AM 10.72 51.296 0.102 6.84 4.89 10.11
5/7/2021 7:00:00 AM 10.65 51.17 0.102 6.83 4.98 10.17
5/7/2021 7:15:00 AM 10.59 51.062 0.102 6.85 4.88 10.22
5/7/2021 7:30:00 AM 10.54 50.972 0.102 6.85 5.11 10.3
5/7/2021 7:45:00 AM 10.49 50.882 0.102 6.86 4.87 10.37
5/7/2021 8:00:00 AM 10.45 50.81 0.101 6.85 4.66 10.47
5/7/2021 8:15:00 AM 10.42 50.756 0.101 6.86 4.75 10.55
5/7/2021 8:30:00 AM 10.43 50.774 0.101 6.87 4.75 10.68
5/7/2021 8:45:00 AM 10.46 50.828 0.101 6.88 4.94 10.79
5/7/2021 9:00:00 AM 10.48 50.864 0.101 6.9 4.79 10.85
5/7/2021 9:15:00 AM 10.51 50.918 0.101 6.91 4.79 10.91
5/7/2021 9:30:00 AM 10.59 51.062 0.101 6.9 4.74 11.01
5/7/2021 9:45:00 AM 10.69 51.242 0.101 6.92 4.68 11.07
5/7/2021 10:00:00 AM 10.82 51.476 0.1 6.92 5.13 11.12
5/7/2021 10:15:00 AM 10.96 51.728 0.1 6.94 4.17 11.16
5/7/2021 10:30:00 AM 11.21 52.178 0.1 6.95 4.26 11.21
5/7/2021 10:45:00 AM 11.38 52.484 0.1 6.96 4.32 11.23
5/7/2021 11:00:00 AM 11.44 52.592 0.1 6.96 4.25 11.24
5/7/2021 11:15:00 AM 11.51 52.718 0.1 6.95 4.19 11.24
5/7/2021 11:30:00 AM 11.62 52.916 0.1 6.95 4.06 11.2
5/7/2021 11:45:00 AM 11.71 53.078 0.1 6.95 4.05 11.24
5/7/2021 12:00:00 PM 11.76 53.168 0.099 6.94 4.23 11.21
5/7/2021 12:15:00 PM 11.85 53.33 0.1 6.95 4.13 11.21
5/7/2021 12:30:00 PM 11.92 53.456 0.1 6.94 4.19 11.15
5/7/2021 12:45:00 PM 11.93 53.474 0.1 6.94 4.32 11.1
5/7/2021 1:00:00 PM 11.96 53.528 0.099 6.94 4.27 11.06
5/7/2021 1:15:00 PM 12 53.6 0.099 6.93 4.13 11.05
5/7/2021 1:30:00 PM 12.05 53.69 0.099 6.93 3.93 11.01
5/7/2021 1:45:00 PM 12.12 53.816 0.099 6.93 4.07 10.95
5/7/2021 2:00:00 PM 12.28 54.104 0.099 6.93 4.14 10.96
5/7/2021 2:15:00 PM 12.52 54.536 0.099 6.96 3.99 10.96
5/7/2021 2:30:00 PM 12.61 54.698 0.099 6.96 4.06 10.94
5/7/2021 2:45:00 PM 12.64 54.752 0.099 6.95 4.04 10.9
5/7/2021 3:00:00 PM 12.63 54.734 0.099 6.94 4.16 10.84
5/7/2021 3:15:00 PM 12.62 54.716 0.098 6.94 4.21 10.8
5/7/2021 3:30:00 PM 12.59 54.662 0.098 6.93 4.18 10.72
5/7/2021 3:45:00 PM 12.55 54.59 0.099 6.92 4.07 10.62
5/7/2021 4:00:00 PM 12.52 54.536 0.099 6.92 4.25 10.58
5/7/2021 4:15:00 PM 12.48 54.464 0.099 6.91 4.03 10.52
5/7/2021 4:30:00 PM 12.43 54.374 0.098 6.91 4.22 10.49
5/7/2021 4:45:00 PM 12.36 54.248 0.098 6.9 4.13 10.4
5/7/2021 5:00:00 PM 12.31 54.158 0.098 6.88 4.36 10.41
5/7/2021 5:15:00 PM 12.27 54.086 0.098 6.89 4.15 10.4
5/7/2021 5:30:00 PM 12.21 53.978 0.098 6.89 4.3 10.36
5/7/2021 5:45:00 PM 12.15 53.87 0.098 6.88 4.14 10.31
5/7/2021 6:00:00 PM 12.1 53.78 0.098 6.88 4.28 10.25
5/7/2021 6:15:00 PM 12.04 53.672 0.097 6.88 4.43 10.23
5/7/2021 6:30:00 PM 11.99 53.582 0.097 6.88 4.39 10.23
5/7/2021 6:45:00 PM 11.93 53.474 0.097 6.87 4.32 10.19
5/7/2021 7:00:00 PM 11.87 53.366 0.097 6.88 4.27 10.19
5/7/2021 7:15:00 PM 11.81 53.258 0.097 6.87 4.48 10.16
5/7/2021 7:30:00 PM 11.76 53.168 0.098 6.87 4.33 10.15
5/7/2021 7:45:00 PM 11.7 53.06 0.098 6.86 4.87 10.11
5/7/2021 8:00:00 PM 11.64 52.952 0.098 6.86 4.9 10.05
5/7/2021 8:15:00 PM 11.59 52.862 0.098 6.86 4.54 10.07
5/7/2021 8:30:00 PM 11.52 52.736 0.098 6.86 4.47 10.04
5/7/2021 8:45:00 PM 11.46 52.628 0.098 6.86 5.22 10.04
5/7/2021 9:00:00 PM 11.41 52.538 0.099 6.85 4.75 10.02
5/7/2021 9:15:00 PM 11.35 52.43 0.099 6.87 4.79 9.95
5/7/2021 9:30:00 PM 11.31 52.358 0.099 6.87 4.96 9.97
5/7/2021 9:45:00 PM 11.26 52.268 0.1 6.86 5.02 9.99
5/7/2021 10:00:00 PM 11.21 52.178 0.1 6.86 5.11 10.02
5/7/2021 10:15:00 PM 11.17 52.106 0.101 6.86 4.91 9.92
5/7/2021 10:30:00 PM 11.13 52.034 0.101 6.87 4.87 10
5/7/2021 10:45:00 PM 11.09 51.962 0.101 6.87 5.33 9.97
5/7/2021 11:00:00 PM 11.05 51.89 0.101 6.88 5.3 10.04
5/7/2021 11:15:00 PM 11 51.8 0.101 6.88 5.05 10
5/7/2021 11:30:00 PM 10.96 51.728 0.101 6.87 4.91 9.99
5/7/2021 11:45:00 PM 10.92 51.656 0.101 6.87 4.85 10.06
5/8/2021 12:00:00 AM 10.88 51.584 0.102 6.87 4.82 10.07
5/8/2021 12:15:00 AM 10.82 51.476 0.102 6.87 4.87 10.08
5/8/2021 12:30:00 AM 10.76 51.368 0.102 6.87 4.8 10.07
5/8/2021 12:45:00 AM 10.7 51.26 0.101 6.87 4.7 10.11
5/8/2021 1:00:00 AM 10.65 51.17 0.101 6.86 4.81 10.14
5/8/2021 1:15:00 AM 10.59 51.062 0.101 6.86 4.95 10.15
5/8/2021 1:30:00 AM 10.53 50.954 0.101 6.86 4.78 10.15
5/8/2021 1:45:00 AM 10.46 50.828 0.101 6.87 4.88 10.18
5/8/2021 2:00:00 AM 10.39 50.702 0.101 6.87 4.91 10.2
5/8/2021 2:15:00 AM 10.32 50.576 0.102 6.87 4.77 10.23
5/8/2021 2:30:00 AM 10.24 50.432 0.102 6.86 4.8 10.25
5/8/2021 2:45:00 AM 10.15 50.27 0.102 6.85 4.8 10.25
5/8/2021 3:00:00 AM 10.08 50.144 0.103 6.85 4.91 10.29
5/8/2021 3:15:00 AM 10 50 0.103 6.84 4.91 10.31
5/8/2021 3:30:00 AM 9.92 49.856 0.103 6.84 5.02 10.34
5/8/2021 3:45:00 AM 9.85 49.73 0.103 6.85 5.08 10.35
5/8/2021 4:00:00 AM 9.78 49.604 0.104 6.84 5.03 10.38
5/8/2021 4:15:00 AM 9.7 49.46 0.104 6.84 4.98 10.41
5/8/2021 4:30:00 AM 9.64 49.352 0.104 6.84 5.02 10.42
5/8/2021 4:45:00 AM 9.59 49.262 0.104 6.85 5.01 10.44
5/8/2021 5:00:00 AM 9.52 49.136 0.104 6.86 5.06 10.46
5/8/2021 5:15:00 AM 9.46 49.028 0.104 6.85 4.84 10.46
5/8/2021 5:30:00 AM 9.39 48.902 0.103 6.85 4.73 10.49
5/8/2021 5:45:00 AM 9.33 48.794 0.103 6.84 4.57 10.52
5/8/2021 6:00:00 AM 9.27 48.686 0.103 6.84 4.5 10.54
5/8/2021 6:15:00 AM 9.23 48.614 0.103 6.85 4.57 10.56
5/8/2021 6:30:00 AM 9.19 48.542 0.103 6.85 4.47 10.55
5/8/2021 6:45:00 AM 9.15 48.47 0.103 6.86 4.46 10.65
5/8/2021 7:00:00 AM 9.11 48.398 0.103 6.86 4.4 10.67
5/8/2021 7:15:00 AM 9.08 48.344 0.103 6.86 4.3 10.76
5/8/2021 7:30:00 AM 9.07 48.326 0.103 6.86 4.22 10.78
5/8/2021 7:45:00 AM 9.07 48.326 0.103 6.86 4.31 10.92
5/8/2021 8:00:00 AM 9.05 48.29 0.103 6.88 4.06 10.98
5/8/2021 8:15:00 AM 9.04 48.272 0.103 6.88 4.21 11.04
5/8/2021 8:30:00 AM 9.04 48.272 0.103 6.88 4.22 11.09
5/8/2021 8:45:00 AM 9.04 48.272 0.103 6.88 4.3 11.14
5/8/2021 9:00:00 AM 9.05 48.29 0.103 6.88 4.2 11.17
5/8/2021 9:15:00 AM 9.09 48.362 0.102 6.89 4.36 11.26
5/8/2021 9:30:00 AM 9.18 48.524 0.102 6.9 4.09 11.32
5/8/2021 9:45:00 AM 9.31 48.758 0.102 6.9 4.24 11.34
5/8/2021 10:00:00 AM 9.4 48.92 0.102 6.92 4.25 11.45
5/8/2021 10:15:00 AM 9.5 49.1 0.102 6.92 4.08 11.52
5/8/2021 10:30:00 AM 9.58 49.244 0.102 6.92 3.96 11.52
5/8/2021 10:45:00 AM 9.58 49.244 0.102 6.92 4.03 11.53
5/8/2021 11:00:00 AM 9.67 49.406 0.102 6.92 4.04 11.56
5/8/2021 11:15:00 AM 10.05 50.09 0.101 6.94 4 11.59
5/8/2021 11:30:00 AM 10.08 50.144 0.101 6.95 3.97 11.54
5/8/2021 11:45:00 AM 10.04 50.072 0.101 6.94 4.01 11.47
5/8/2021 12:00:00 PM 9.99 49.982 0.101 6.93 3.94 11.45
5/8/2021 12:15:00 PM 9.99 49.982 0.101 6.91 3.88 11.4
5/8/2021 12:30:00 PM 10.02 50.036 0.101 6.91 3.85 11.37
5/8/2021 12:45:00 PM 10.05 50.09 0.101 6.91 3.89 11.37
5/8/2021 1:00:00 PM 10.09 50.162 0.101 6.91 3.97 11.36
5/8/2021 1:15:00 PM 10.18 50.324 0.101 6.92 4.01 11.37
5/8/2021 1:30:00 PM 10.31 50.558 0.101 6.92 3.97 11.35
5/8/2021 1:45:00 PM 10.74 51.332 0.1 6.95 3.97 11.33
5/8/2021 2:00:00 PM 10.94 51.692 0.1 6.98 3.94 11.36
5/8/2021 2:15:00 PM 10.92 51.656 0.1 6.95 3.95 11.36
5/8/2021 2:30:00 PM 10.85 51.53 0.1 6.93 3.95 11.35
5/8/2021 2:45:00 PM 10.84 51.512 0.1 6.92 4.1 11.3
5/8/2021 3:00:00 PM 10.88 51.584 0.1 6.92 3.94 11.33
5/8/2021 3:15:00 PM 10.97 51.746 0.1 6.91 3.93 11.31
5/8/2021 3:30:00 PM 11.05 51.89 0.1 6.93 4.07 11.29
5/8/2021 3:45:00 PM 10.78 51.404 0.099 6.92 4.19 11.17
5/8/2021 4:00:00 PM 10.82 51.476 0.099 6.9 4.15 11.11
5/8/2021 4:15:00 PM 10.94 51.692 0.099 6.9 4.37 11.04
5/8/2021 4:30:00 PM 11.15 52.07 0.099 6.92 4.1 11.16
5/8/2021 4:45:00 PM 11.18 52.124 0.099 6.92 4.07 11.12
5/8/2021 5:00:00 PM 11.19 52.142 0.099 6.92 4.4 11.03
5/8/2021 5:15:00 PM 11.17 52.106 0.099 6.92 4.67 10.99
5/8/2021 5:30:00 PM 11.09 51.962 0.099 6.91 4.61 10.9
5/8/2021 5:45:00 PM 11.02 51.836 0.099 6.9 4.69 10.86
5/8/2021 6:00:00 PM 11.02 51.836 0.099 6.9 4.42 10.9
5/8/2021 6:15:00 PM 10.99 51.782 0.099 6.9 4.69 10.89
5/8/2021 6:30:00 PM 11 51.8 0.099 6.9 4.98 10.88
5/8/2021 6:45:00 PM 10.97 51.746 0.1 6.9 5 10.87
5/8/2021 7:00:00 PM 10.91 51.638 0.1 6.9 5.29 10.83
5/8/2021 7:15:00 PM 10.88 51.584 0.1 6.89 5.58 10.79
5/8/2021 7:30:00 PM 10.84 51.512 0.101 6.88 5.14 10.74
5/8/2021 7:45:00 PM 10.79 51.422 0.101 6.88 5.3 10.73
5/8/2021 8:00:00 PM 10.73 51.314 0.101 6.88 5.32 10.67
5/8/2021 8:15:00 PM 10.68 51.224 0.101 6.87 5.31 10.61
5/8/2021 8:30:00 PM 10.63 51.134 0.101 6.86 5.68 10.58
5/8/2021 8:45:00 PM 10.59 51.062 0.101 6.86 5.96 10.55
5/8/2021 9:00:00 PM 10.55 50.99 0.102 6.86 5.72 10.49
5/8/2021 9:15:00 PM 10.54 50.972 0.101 6.87 5.7 10.48
5/8/2021 9:30:00 PM 10.51 50.918 0.102 6.88 7.74 10.4
5/8/2021 9:45:00 PM 10.49 50.882 0.102 6.88 8.53 10.4
5/8/2021 10:00:00 PM 10.45 50.81 0.102 6.87 5.71 10.38
5/8/2021 10:15:00 PM 10.41 50.738 0.102 6.88 5.8 10.36
5/8/2021 10:30:00 PM 10.36 50.648 0.102 6.87 5.31 10.35
5/8/2021 10:45:00 PM 10.3 50.54 0.102 6.87 5.47 10.36
5/8/2021 11:00:00 PM 10.24 50.432 0.102 6.87 5.38 10.35
5/8/2021 11:15:00 PM 10.18 50.324 0.103 6.86 5.32 10.36
5/8/2021 11:30:00 PM 10.12 50.216 0.103 6.86 5.42 10.35
5/8/2021 11:45:00 PM 10.07 50.126 0.103 6.86 5.45 10.36
5/9/2021 12:00:00 AM 10 50 0.103 6.86 5.4 10.35
5/9/2021 12:15:00 AM 9.94 49.892 0.103 6.84 5.5 10.35
5/9/2021 12:30:00 AM 9.89 49.802 0.103 6.86 5.61 10.4
5/9/2021 12:45:00 AM 9.82 49.676 0.103 6.86 5.7 10.41
5/9/2021 1:00:00 AM 9.74 49.532 0.104 6.85 5.89 10.41
5/9/2021 1:15:00 AM 9.67 49.406 0.104 6.85 5.96 10.37
5/9/2021 1:30:00 AM 9.59 49.262 0.104 6.85 6.05 10.46
5/9/2021 1:45:00 AM 9.5 49.1 0.105 6.84 5.85 10.45
5/9/2021 2:00:00 AM 9.42 48.956 0.105 6.85 6.15 10.53
5/9/2021 2:15:00 AM 9.32 48.776 0.105 6.85 6.17 10.57
5/9/2021 2:30:00 AM 9.23 48.614 0.105 6.86 6.16 10.58
5/9/2021 2:45:00 AM 9.14 48.452 0.105 6.85 6.01 10.62
5/9/2021 3:00:00 AM 9.06 48.308 0.105 6.83 5.79 10.63
5/9/2021 3:15:00 AM 8.99 48.182 0.105 6.83 5.64 10.64
5/9/2021 3:30:00 AM 8.91 48.038 0.105 6.83 5.62 10.66
5/9/2021 3:45:00 AM 8.83 47.894 0.105 6.83 5.3 10.73
5/9/2021 4:00:00 AM 8.76 47.768 0.104 6.84 5.07 10.75
5/9/2021 4:15:00 AM 8.68 47.624 0.105 6.85 5.12 10.77
5/9/2021 4:30:00 AM 8.62 47.516 0.105 6.86 4.78 10.79
5/9/2021 4:45:00 AM 8.55 47.39 0.105 6.86 5.18 10.81
5/9/2021 5:00:00 AM 8.48 47.264 0.105 6.85 5.12 10.84
5/9/2021 5:15:00 AM 8.42 47.156 0.105 6.85 4.67 10.85
5/9/2021 5:30:00 AM 8.35 47.03 0.105 6.82 4.55 10.85
5/9/2021 5:45:00 AM 8.28 46.904 0.105 6.84 4.77 10.88
5/9/2021 6:00:00 AM 8.22 46.796 0.105 6.85 4.4 10.94
5/9/2021 6:15:00 AM 8.16 46.688 0.105 6.85 4.58 10.94
5/9/2021 6:30:00 AM 8.11 46.598 0.105 6.85 7.79 11.02
5/9/2021 6:45:00 AM 8.08 46.544 0.105 6.85 4.87 11.06
5/9/2021 7:00:00 AM 8.05 46.49 0.105 6.84 4.52 11.15
5/9/2021 7:15:00 AM 8.01 46.418 0.105 6.86 4.31 11.18
5/9/2021 7:30:00 AM 8 46.4 0.105 6.87 4.34 11.29
5/9/2021 7:45:00 AM 7.98 46.364 0.105 6.85 4.35 11.37
5/9/2021 8:00:00 AM 7.99 46.382 0.105 6.86 4.32 11.44
5/9/2021 8:15:00 AM 7.99 46.382 0.105 6.87 4.39 11.5
5/9/2021 8:30:00 AM 8.02 46.436 0.105 6.87 4.47 11.57
5/9/2021 8:45:00 AM 8.06 46.508 0.105 6.89 4.32 11.63
5/9/2021 9:00:00 AM 8.09 46.562 0.105 6.9 10.14 11.71
5/9/2021 9:15:00 AM 8.16 46.688 0.104 6.9 4.26 11.76
5/9/2021 9:30:00 AM 8.23 46.814 0.104 6.9 4.39 11.8
5/9/2021 9:45:00 AM 8.28 46.904 0.104 6.91 4.23 11.87
5/9/2021 10:00:00 AM 8.33 46.994 0.104 6.91 4.52 11.88
5/9/2021 10:15:00 AM 8.39 47.102 0.104 6.91 4.6 11.9
5/9/2021 10:30:00 AM 8.43 47.174 0.103 6.91 4.28 11.89
5/9/2021 10:45:00 AM 8.48 47.264 0.103 6.9 4.11 11.91
5/9/2021 11:00:00 AM 8.54 47.372 0.103 6.9 3.96 11.89
5/9/2021 11:15:00 AM 8.59 47.462 0.103 6.91 4.33 11.87
5/9/2021 11:30:00 AM 8.65 47.57 0.103 6.9 3.98 11.87
5/9/2021 11:45:00 AM 8.7 47.66 0.103 6.91 4.15 11.86
5/9/2021 12:00:00 PM 8.72 47.696 0.103 6.91 3.95 11.82
5/9/2021 12:15:00 PM 8.74 47.732 0.103 6.9 3.94 11.78
5/9/2021 12:30:00 PM 8.76 47.768 0.102 6.9 3.93 11.78
5/9/2021 12:45:00 PM 8.79 47.822 0.102 6.9 3.97 11.77
5/9/2021 1:00:00 PM 8.81 47.858 0.102 6.9 4.03 11.73
5/9/2021 1:15:00 PM 8.82 47.876 0.102 6.9 3.98 11.67
5/9/2021 1:30:00 PM 8.82 47.876 0.102 6.91 3.91 11.61
5/9/2021 1:45:00 PM 8.81 47.858 0.102 6.9 4.04 11.61
5/9/2021 2:00:00 PM 8.8 47.84 0.102 6.89 4.06 11.59
5/9/2021 2:15:00 PM 8.8 47.84 0.101 6.89 4.34 11.59
5/9/2021 2:30:00 PM 8.81 47.858 0.102 6.89 4.48 11.61
5/9/2021 2:45:00 PM 8.81 47.858 0.102 6.89 4.39 11.59
5/9/2021 3:00:00 PM 8.83 47.894 0.102 6.88 4.7 11.57
5/9/2021 3:15:00 PM 8.82 47.876 0.102 6.88 5.1 11.57
5/9/2021 3:30:00 PM 8.79 47.822 0.103 6.89 5.52 11.53
5/9/2021 3:45:00 PM 8.76 47.768 0.103 6.88 5.55 11.49
5/9/2021 4:00:00 PM 8.73 47.714 0.104 6.88 5.69 11.45
5/9/2021 4:15:00 PM 8.7 47.66 0.104 6.87 6.03 11.43
5/9/2021 4:30:00 PM 8.68 47.624 0.105 6.87 7.52 11.39
5/9/2021 4:45:00 PM 8.67 47.606 0.106 6.88 8.61 11.38
5/9/2021 5:00:00 PM 8.66 47.588 0.109 6.88 13.65 11.33
5/9/2021 5:15:00 PM 8.65 47.57 0.113 6.88 17.83 11.3
5/9/2021 5:30:00 PM 8.63 47.534 0.115 6.88 19.78 11.24
5/9/2021 5:45:00 PM 8.62 47.516 0.118 6.89 26.24 11.22
5/9/2021 6:00:00 PM 8.6 47.48 0.122 6.87 26.09 11.17
5/9/2021 6:15:00 PM 8.59 47.462 0.126 6.87 33.81 11.11
5/9/2021 6:30:00 PM 8.58 47.444 0.126 6.88 45.74 11.07
5/9/2021 6:45:00 PM 8.56 47.408 0.124 6.87 51.11 11.03
5/9/2021 7:00:00 PM 8.53 47.354 0.122 6.87 58.26 11
5/9/2021 7:15:00 PM 8.51 47.318 0.119 6.83 73.25 10.96
5/9/2021 7:30:00 PM 8.48 47.264 0.113 6.87 75.67 10.93
5/9/2021 7:45:00 PM 8.46 47.228 0.109 6.83 114.39 10.9
5/9/2021 8:00:00 PM 8.43 47.174 0.108 6.8 66.6 10.9
5/9/2021 8:15:00 PM 8.39 47.102 0.105 6.8 74.25 10.93
5/9/2021 8:30:00 PM 8.37 47.066 0.104 6.8 79.11 10.93
5/9/2021 8:45:00 PM 8.34 47.012 0.103 6.78 76.52 10.94
5/9/2021 9:00:00 PM 8.32 46.976 0.103 6.78 80.27 10.93
5/9/2021 9:15:00 PM 8.3 46.94 0.101 6.78 104.19 10.94
5/9/2021 9:30:00 PM 8.29 46.922 0.101 6.78 77.23 10.93
5/9/2021 9:45:00 PM 8.28 46.904 0.099 6.75 95.74 10.93
5/9/2021 10:00:00 PM 8.27 46.886 0.096 6.76 110.74 10.93
5/9/2021 10:15:00 PM 8.26 46.868 0.094 6.77 72.9 10.93
5/9/2021 10:30:00 PM 8.25 46.85 0.091 6.76 85.24 10.94
5/9/2021 10:45:00 PM 8.25 46.85 0.089 6.76 93.58 10.95
5/9/2021 11:00:00 PM 8.24 46.832 0.088 6.77 85.74 10.96
5/9/2021 11:15:00 PM 8.24 46.832 0.087 6.76 86.33 10.96
5/9/2021 11:30:00 PM 8.23 46.814 0.085 6.77 80.03 10.97
5/9/2021 11:45:00 PM 8.23 46.814 0.085 6.77 88.46 10.97
5/10/2021 12:00:00 AM 8.22 46.796 0.084 6.77 77.97 10.97
5/10/2021 12:15:00 AM 8.22 46.796 0.083 6.77 82.97 10.97
5/10/2021 12:30:00 AM 8.21 46.778 0.083 6.77 83.45 10.98
5/10/2021 12:45:00 AM 8.21 46.778 0.082 6.77 96.23 10.98
5/10/2021 1:00:00 AM 8.21 46.778 0.081 6.77 80.59 11
5/10/2021 1:15:00 AM 8.21 46.778 0.08 6.77 72.71 11
5/10/2021 1:30:00 AM 8.21 46.778 0.079 6.77 74.9 11.01
5/10/2021 1:45:00 AM 8.21 46.778 0.079 6.77 78.5 11.02
5/10/2021 2:00:00 AM 8.21 46.778 0.079 6.79 83 11.02
5/10/2021 2:15:00 AM 8.2 46.76 0.08 6.79 63.81 11.03
5/10/2021 2:30:00 AM 8.2 46.76 0.08 6.78 72.66 11.03
5/10/2021 2:45:00 AM 8.2 46.76 0.08 6.79 86.22 11.03
5/10/2021 3:00:00 AM 8.2 46.76 0.08 6.79 87.62 11.04
5/10/2021 3:15:00 AM 8.2 46.76 0.08 6.79 99.64 11.04
5/10/2021 3:30:00 AM 8.2 46.76 0.08 6.79 70.3 11.04
5/10/2021 3:45:00 AM 8.2 46.76 0.081 6.78 72.41 11.05
5/10/2021 4:00:00 AM 8.2 46.76 0.081 6.79 63.37 11.05
5/10/2021 4:15:00 AM 8.2 46.76 0.081 6.79 68.33 11.06
5/10/2021 4:30:00 AM 8.2 46.76 0.081 6.79 62.13 11.07
5/10/2021 4:45:00 AM 8.19 46.742 0.08 6.79 80.43 11.08
5/10/2021 5:00:00 AM 8.19 46.742 0.08 6.8 56.81 11.08
5/10/2021 5:15:00 AM 8.19 46.742 0.08 6.79 57.15 11.09
5/10/2021 5:30:00 AM 8.19 46.742 0.079 6.79 48.75 11.1
5/10/2021 5:45:00 AM 8.19 46.742 0.079 6.81 52.97 11.1
5/10/2021 6:00:00 AM 8.19 46.742 0.078 6.81 50.57 11.11
5/10/2021 6:15:00 AM 8.19 46.742 0.078 6.8 48 11.11
5/10/2021 6:30:00 AM 8.19 46.742 0.078 6.82 41.58 11.12
5/10/2021 6:45:00 AM 8.19 46.742 0.077 6.8 44.03 11.13
5/10/2021 7:00:00 AM 8.19 46.742 0.077 6.81 39.36 11.13
5/10/2021 7:15:00 AM 8.2 46.76 0.076 6.8 36.49 11.15
5/10/2021 7:30:00 AM 8.21 46.778 0.076 6.81 38.48 11.15
5/10/2021 7:45:00 AM 8.22 46.796 0.075 6.8 36.58 11.17
5/10/2021 8:00:00 AM 8.24 46.832 0.075 6.81 50.3 11.18
5/10/2021 8:15:00 AM 8.27 46.886 0.075 6.82 33.36 11.2
5/10/2021 8:30:00 AM 8.3 46.94 0.074 6.82 31.38 11.21
5/10/2021 8:45:00 AM 8.34 47.012 0.074 6.83 31.23 11.22
5/10/2021 9:00:00 AM 8.41 47.138 0.073 6.84 34.81 11.24
5/10/2021 9:15:00 AM 8.49 47.282 0.074 6.85 28.9 11.25
5/10/2021 9:30:00 AM 8.55 47.39 0.073 6.85 27.18 11.25
5/10/2021 9:45:00 AM 8.57 47.426 0.073 6.84 25.99 11.26
5/10/2021 10:00:00 AM 8.64 47.552 0.073 6.84 25.95 11.27
5/10/2021 10:15:00 AM 8.75 47.75 0.073 6.85 21.28 11.28
5/10/2021 10:30:00 AM 8.89 48.002 0.073 6.87 27.36 11.28
5/10/2021 10:45:00 AM 9.01 48.218 0.072 6.87 24.44 11.28
5/10/2021 11:00:00 AM 9.11 48.398 0.072 6.88 23.33 11.27
5/10/2021 11:15:00 AM 9.26 48.668 0.072 6.88 22.99 11.26
5/10/2021 11:30:00 AM 9.47 49.046 0.072 6.9 22.56 11.25
5/10/2021 11:45:00 AM 9.68 49.424 0.072 6.91 21.48 11.24
5/10/2021 12:00:00 PM 9.77 49.586 0.072 6.9 19.37 11.19
5/10/2021 12:15:00 PM 9.92 49.856 0.072 6.9 21.47 11.17
5/10/2021 12:30:00 PM 10.07 50.126 0.072 6.9 20.48 11.15
5/10/2021 12:45:00 PM 10.25 50.45 0.072 6.91 20.49 11.13
5/10/2021 1:00:00 PM 10.35 50.63 0.072 6.9 17.55 11.08
5/10/2021 1:15:00 PM 10.46 50.828 0.071 6.89 19.46 11.06
5/10/2021 1:30:00 PM 10.67 51.206 0.072 6.9 18.72 11.03
5/10/2021 1:45:00 PM 10.85 51.53 0.071 6.91 19.19 10.99
5/10/2021 2:00:00 PM 11.05 51.89 0.071 6.91 18.73 10.95
5/10/2021 2:15:00 PM 11.16 52.088 0.071 6.91 19.96 10.92
5/10/2021 2:30:00 PM 11.21 52.178 0.071 6.91 18.69 10.9
5/10/2021 2:45:00 PM 11.34 52.412 0.071 6.89 22.26 10.86
5/10/2021 3:00:00 PM 11.47 52.646 0.071 6.9 18.1 10.84
5/10/2021 3:15:00 PM 11.56 52.808 0.071 6.89 16.81 10.81
5/10/2021 3:30:00 PM 11.7 53.06 0.071 6.9 17.15 10.77
5/10/2021 3:45:00 PM 11.86 53.348 0.071 6.9 18.1 10.73
5/10/2021 4:00:00 PM 11.93 53.474 0.071 6.9 20.59 10.69
5/10/2021 4:15:00 PM 11.97 53.546 0.071 6.88 16.94 10.67
5/10/2021 4:30:00 PM 11.93 53.474 0.071 6.87 16.89 10.63
5/10/2021 4:45:00 PM 11.89 53.402 0.071 6.86 17.22 10.61
5/10/2021 5:00:00 PM 11.86 53.348 0.071 6.84 17.2 10.6
5/10/2021 5:15:00 PM 11.83 53.294 0.07 6.84 16.64 10.59
5/10/2021 5:30:00 PM 11.91 53.438 0.07 6.84 18.49 10.58
5/10/2021 5:45:00 PM 11.96 53.528 0.07 6.83 16.32 10.56
5/10/2021 6:00:00 PM 11.96 53.528 0.07 6.84 16.21 10.54
5/10/2021 6:15:00 PM 11.93 53.474 0.07 6.82 16.44 10.52
5/10/2021 6:30:00 PM 11.91 53.438 0.07 6.82 16.37 10.49
5/10/2021 6:45:00 PM 11.89 53.402 0.07 6.82 15.85 10.47
5/10/2021 7:00:00 PM 11.85 53.33 0.07 6.82 15.65 10.46
5/10/2021 7:15:00 PM 11.81 53.258 0.07 6.81 16.05 10.44
5/10/2021 7:30:00 PM 11.75 53.15 0.07 6.8 15.81 10.43
5/10/2021 7:45:00 PM 11.66 52.988 0.07 6.79 15.84 10.42
5/10/2021 8:00:00 PM 11.58 52.844 0.07 6.79 16.02 10.41
5/10/2021 8:15:00 PM 11.51 52.718 0.07 6.77 15.73 10.41
5/10/2021 8:30:00 PM 11.43 52.574 0.07 6.77 15.72 10.4
5/10/2021 8:45:00 PM 11.36 52.448 0.07 6.75 15.82 10.39
5/10/2021 9:00:00 PM 11.29 52.322 0.07 6.76 15.94 10.39
5/10/2021 9:15:00 PM 11.21 52.178 0.07 6.74 15.65 10.4
5/10/2021 9:30:00 PM 11.13 52.034 0.07 6.75 15.93 10.41
5/10/2021 9:45:00 PM 11.04 51.872 0.07 6.74 16.01 10.43
5/10/2021 10:00:00 PM 10.95 51.71 0.07 6.75 16.1 10.44
5/10/2021 10:15:00 PM 10.86 51.548 0.07 6.74 16.32 10.47
5/10/2021 10:30:00 PM 10.78 51.404 0.07 6.74 15.96 10.48
5/10/2021 10:45:00 PM 10.69 51.242 0.07 6.74 15.83 10.51
5/10/2021 11:00:00 PM 10.61 51.098 0.07 6.73 15.4 10.53
5/10/2021 11:15:00 PM 10.53 50.954 0.07 6.73 15.64 10.55
5/10/2021 11:30:00 PM 10.45 50.81 0.07 6.73 15.82 10.56
5/10/2021 11:45:00 PM 10.36 50.648 0.07 6.73 15.34 10.59
5/11/2021 12:00:00 AM 10.29 50.522 0.07 6.74 15.54 10.62
5/11/2021 12:15:00 AM 10.21 50.378 0.07 6.72 15.5 10.64
5/11/2021 12:30:00 AM 10.12 50.216 0.07 6.73 15.2 10.66
5/11/2021 12:45:00 AM 10.05 50.09 0.07 6.73 15.21 10.68
5/11/2021 1:00:00 AM 9.97 49.946 0.07 6.73 14.74 10.71
5/11/2021 1:15:00 AM 9.89 49.802 0.07 6.73 14.72 10.73
5/11/2021 1:30:00 AM 9.82 49.676 0.07 6.73 14.74 10.75
5/11/2021 1:45:00 AM 9.76 49.568 0.07 6.74 14.36 10.77
5/11/2021 2:00:00 AM 9.7 49.46 0.069 6.73 14.2 10.79
5/11/2021 2:15:00 AM 9.64 49.352 0.069 6.75 14.57 10.81
5/11/2021 2:30:00 AM 9.59 49.262 0.069 6.75 13.84 10.83
5/11/2021 2:45:00 AM 9.53 49.154 0.069 6.76 13.89 10.84
5/11/2021 3:00:00 AM 9.48 49.064 0.069 6.76 13.9 10.86
5/11/2021 3:15:00 AM 9.43 48.974 0.069 6.77 13.9 10.88
5/11/2021 3:30:00 AM 9.37 48.866 0.069 6.76 13.81 10.89
5/11/2021 3:45:00 AM 9.32 48.776 0.069 6.77 13.48 10.91
5/11/2021 4:00:00 AM 9.28 48.704 0.069 6.77 13.49 10.92
5/11/2021 4:15:00 AM 9.23 48.614 0.069 6.77 13.6 10.94
5/11/2021 4:30:00 AM 9.18 48.524 0.069 6.77 13.15 10.96
5/11/2021 4:45:00 AM 9.14 48.452 0.069 6.77 13.13 10.97
5/11/2021 5:00:00 AM 9.09 48.362 0.069 6.77 13.27 10.98
5/11/2021 5:15:00 AM 9.04 48.272 0.069 6.76 13.6 11
5/11/2021 5:30:00 AM 8.98 48.164 0.069 6.77 13.06 11.01
5/11/2021 5:45:00 AM 8.93 48.074 0.069 6.77 13.16 11.02
5/11/2021 6:00:00 AM 8.87 47.966 0.069 6.76 12.96 11.04
5/11/2021 6:15:00 AM 8.81 47.858 0.07 6.77 12.53 11.06
5/11/2021 6:30:00 AM 8.76 47.768 0.07 6.77 12.27 11.09
5/11/2021 6:45:00 AM 8.71 47.678 0.069 6.77 12.41 11.11
5/11/2021 7:00:00 AM 8.67 47.606 0.069 6.77 11.71 11.13
5/11/2021 7:15:00 AM 8.64 47.552 0.069 6.78 12.01 11.17
5/11/2021 7:30:00 AM 8.62 47.516 0.069 6.77 11.63 11.21
5/11/2021 7:45:00 AM 8.61 47.498 0.069 6.79 11.63 11.24
5/11/2021 8:00:00 AM 8.61 47.498 0.069 6.79 11.46 11.28
5/11/2021 8:15:00 AM 8.62 47.516 0.069 6.81 11.06 11.31
5/11/2021 8:30:00 AM 8.65 47.57 0.069 6.81 10.88 11.34
5/11/2021 8:45:00 AM 8.69 47.642 0.069 6.82 11.1 11.37
5/11/2021 9:00:00 AM 8.73 47.714 0.069 6.83 10.91 11.39
5/11/2021 9:15:00 AM 8.8 47.84 0.069 6.84 10.45 11.4
5/11/2021 9:30:00 AM 8.87 47.966 0.069 6.84 10.26 11.42
5/11/2021 9:45:00 AM 8.99 48.182 0.069 6.86 9.83 11.43
5/11/2021 10:00:00 AM 9.09 48.362 0.069 6.88 10.12 11.42
5/11/2021 10:15:00 AM 9.19 48.542 0.069 6.88 9.76 11.42
5/11/2021 10:30:00 AM 9.3 48.74 0.069 6.87 9.73 11.4
5/11/2021 10:45:00 AM 9.33 48.794 0.068 6.88 9.54 11.39
5/11/2021 11:00:00 AM 9.36 48.848 0.068 6.87 9.49 11.38
5/11/2021 11:15:00 AM 9.45 49.01 0.068 6.87 9.6 11.38
5/11/2021 11:30:00 AM 9.55 49.19 0.068 6.89 9.41 11.36
5/11/2021 11:45:00 AM 9.62 49.316 0.068 6.87 9.07 11.34
5/11/2021 12:00:00 PM 9.73 49.514 0.068 6.88 9.3 11.34
5/11/2021 12:15:00 PM 9.94 49.892 0.068 6.9 9.44 11.31
5/11/2021 12:30:00 PM 10.19 50.342 0.068 6.93 9.42 11.29
5/11/2021 12:45:00 PM 10.38 50.684 0.068 6.94 8.9 11.25
5/11/2021 1:00:00 PM 10.43 50.774 0.068 6.91 9.2 11.17
5/11/2021 1:15:00 PM 10.43 50.774 0.068 6.9 9.15 11.14
5/11/2021 1:30:00 PM 10.51 50.918 0.068 6.89 9.22 11.13
5/11/2021 1:45:00 PM 10.49 50.882 0.068 6.88 9.07 11.09
5/11/2021 2:00:00 PM 10.51 50.918 0.068 6.86 8.77 11.06
5/11/2021 2:15:00 PM 10.53 50.954 0.068 6.86 8.86 11.02
5/11/2021 2:30:00 PM 10.61 51.098 0.068 6.86 8.87 11.02
5/11/2021 2:45:00 PM 10.67 51.206 0.068 6.87 8.76 11.02
5/11/2021 3:00:00 PM 10.7 51.26 0.068 6.86 8.46 11
5/11/2021 3:15:00 PM 10.86 51.548 0.068 6.88 8.48 10.99
5/11/2021 3:30:00 PM 10.9 51.62 0.068 6.87 9.13 10.95
5/11/2021 3:45:00 PM 10.95 51.71 0.068 6.87 8.72 10.94
5/11/2021 4:00:00 PM 11.05 51.89 0.068 6.87 8.75 10.92
5/11/2021 4:15:00 PM 11.13 52.034 0.068 6.88 8.5 10.91
5/11/2021 4:30:00 PM 11.2 52.16 0.068 6.88 8.82 10.89
5/11/2021 4:45:00 PM 11.27 52.286 0.068 6.88 8.97 10.87
5/11/2021 5:00:00 PM 11.32 52.376 0.068 6.88 8.76 10.86
5/11/2021 5:15:00 PM 11.36 52.448 0.068 6.88 8.72 10.85
5/11/2021 5:30:00 PM 11.32 52.376 0.068 6.85 8.72 10.81
5/11/2021 5:45:00 PM 11.28 52.304 0.068 6.85 9.09 10.79
5/11/2021 6:00:00 PM 11.22 52.196 0.068 6.84 8.99 10.76
5/11/2021 6:15:00 PM 11.2 52.16 0.068 6.84 9.09 10.75
5/11/2021 6:30:00 PM 11.19 52.142 0.068 6.83 8.76 10.74
5/11/2021 6:45:00 PM 11.17 52.106 0.068 6.83 8.66 10.73
5/11/2021 7:00:00 PM 11.13 52.034 0.068 6.82 8.9 10.72
5/11/2021 7:15:00 PM 11.08 51.944 0.068 6.82 9.38 10.71
5/11/2021 7:30:00 PM 11.01 51.818 0.069 6.81 9.2 10.71
5/11/2021 7:45:00 PM 10.93 51.674 0.069 6.8 9.19 10.7
5/11/2021 8:00:00 PM 10.83 51.494 0.069 6.79 8.9 10.7
5/11/2021 8:15:00 PM 10.73 51.314 0.069 6.78 9.25 10.69
5/11/2021 8:30:00 PM 10.64 51.152 0.069 6.76 9.17 10.68
5/11/2021 8:45:00 PM 10.56 51.008 0.069 6.76 9.51 10.67
5/11/2021 9:00:00 PM 10.49 50.882 0.069 6.75 9.48 10.67
5/11/2021 9:15:00 PM 10.41 50.738 0.069 6.75 9.44 10.67
5/11/2021 9:30:00 PM 10.34 50.612 0.069 6.76 9.58 10.68
5/11/2021 9:45:00 PM 10.26 50.468 0.069 6.75 9.57 10.69
5/11/2021 10:00:00 PM 10.18 50.324 0.069 6.75 9.38 10.71
5/11/2021 10:15:00 PM 10.1 50.18 0.069 6.74 9.51 10.72
5/11/2021 10:30:00 PM 10.01 50.018 0.069 6.75 9.75 10.75
5/11/2021 10:45:00 PM 9.93 49.874 0.069 6.75 9.44 10.76
5/11/2021 11:00:00 PM 9.84 49.712 0.069 6.75 9.67 10.78
5/11/2021 11:15:00 PM 9.76 49.568 0.069 6.75 9.64 10.8
5/11/2021 11:30:00 PM 9.68 49.424 0.069 6.75 9.71 10.83
5/11/2021 11:45:00 PM 9.59 49.262 0.069 6.75 9.58 10.85
5/12/2021 12:00:00 AM 9.51 49.118 0.069 6.75 10 10.87
5/12/2021 12:15:00 AM 9.42 48.956 0.069 6.75 9.5 10.9
5/12/2021 12:30:00 AM 9.34 48.812 0.069 6.75 9.48 10.92
5/12/2021 12:45:00 AM 9.25 48.65 0.069 6.75 9.51 10.95
5/12/2021 1:00:00 AM 9.17 48.506 0.069 6.75 9.53 10.98
5/12/2021 1:15:00 AM 9.09 48.362 0.069 6.75 9.27 11
5/12/2021 1:30:00 AM 9.01 48.218 0.069 6.74 9.28 11.02
5/12/2021 1:45:00 AM 8.93 48.074 0.069 6.74 9.39 11.04
5/12/2021 2:00:00 AM 8.84 47.912 0.069 6.75 9.38 11.07
5/12/2021 2:15:00 AM 8.76 47.768 0.069 6.75 9.67 11.09
5/12/2021 2:30:00 AM 8.68 47.624 0.069 6.75 10.11 11.11
5/12/2021 2:45:00 AM 8.6 47.48 0.069 6.75 8.94 11.14
5/12/2021 3:00:00 AM 8.52 47.336 0.069 6.75 9.04 11.16
5/12/2021 3:15:00 AM 8.44 47.192 0.069 6.75 9.21 11.18
5/12/2021 3:30:00 AM 8.36 47.048 0.069 6.76 9.23 11.2
5/12/2021 3:45:00 AM 8.29 46.922 0.069 6.76 8.81 11.23
5/12/2021 4:00:00 AM 8.22 46.796 0.069 6.76 8.96 11.25
5/12/2021 4:15:00 AM 8.16 46.688 0.07 6.75 8.62 11.27
5/12/2021 4:30:00 AM 8.1 46.58 0.07 6.77 8.93 11.29
5/12/2021 4:45:00 AM 8.04 46.472 0.069 6.76 8.81 11.31
5/12/2021 5:00:00 AM 7.98 46.364 0.07 6.77 8.79 11.33
5/12/2021 5:15:00 AM 7.91 46.238 0.07 6.76 8.73 11.35
5/12/2021 5:30:00 AM 7.85 46.13 0.07 6.77 8.63 11.37
5/12/2021 5:45:00 AM 7.8 46.04 0.07 6.77 8.7 11.39
5/12/2021 6:00:00 AM 7.75 45.95 0.07 6.78 8.6 11.4
5/12/2021 6:15:00 AM 7.71 45.878 0.07 6.77 8.62 11.42
5/12/2021 6:30:00 AM 7.66 45.788 0.07 6.79 8.39 11.46
5/12/2021 6:45:00 AM 7.63 45.734 0.07 6.78 8.34 11.48
5/12/2021 7:00:00 AM 7.59 45.662 0.07 6.79 8.24 11.52
5/12/2021 7:15:00 AM 7.57 45.626 0.07 6.79 8.47 11.55
5/12/2021 7:30:00 AM 7.55 45.59 0.069 6.8 8.06 11.58
5/12/2021 7:45:00 AM 7.54 45.572 0.07 6.79 8.11 11.62
5/12/2021 8:00:00 AM 7.55 45.59 0.07 6.81 7.99 11.65
5/12/2021 8:15:00 AM 7.57 45.626 0.07 6.83 7.55 11.69
5/12/2021 8:30:00 AM 7.61 45.698 0.07 6.83 7.64 11.72
5/12/2021 8:45:00 AM 7.66 45.788 0.07 6.84 7.54 11.75
5/12/2021 9:00:00 AM 7.73 45.914 0.07 6.86 7.14 11.77
5/12/2021 9:15:00 AM 7.82 46.076 0.07 6.87 7.2 11.79
5/12/2021 9:30:00 AM 7.92 46.256 0.069 6.87 7.14 11.8
5/12/2021 9:45:00 AM 8.04 46.472 0.069 6.89 7.28 11.8
5/12/2021 10:00:00 AM 8.19 46.742 0.069 6.9 7.01 11.8
5/12/2021 10:15:00 AM 8.36 47.048 0.069 6.91 7.06 11.78
5/12/2021 10:30:00 AM 8.53 47.354 0.069 6.92 6.9 11.77
5/12/2021 10:45:00 AM 8.71 47.678 0.069 6.93 7.12 11.75
5/12/2021 11:00:00 AM 8.92 48.056 0.069 6.93 6.68 11.72
5/12/2021 11:15:00 AM 9.12 48.416 0.069 6.94 6.66 11.69
5/12/2021 11:30:00 AM 9.31 48.758 0.069 6.95 6.66 11.65
5/12/2021 11:45:00 AM 9.54 49.172 0.07 6.96 6.32 11.62
5/12/2021 12:00:00 PM 9.77 49.586 0.069 6.97 6.45 11.58
5/12/2021 12:15:00 PM 9.99 49.982 0.069 6.96 6.42 11.54
5/12/2021 12:30:00 PM 10.22 50.396 0.07 6.98 6.24 11.49
5/12/2021 12:45:00 PM 10.44 50.792 0.07 6.97 6.46 11.44
5/12/2021 1:00:00 PM 10.65 51.17 0.069 6.97 6.4 11.39
5/12/2021 1:15:00 PM 10.81 51.458 0.069 6.96 6.35 11.34
5/12/2021 1:30:00 PM 10.92 51.656 0.07 6.94 6.6 11.28
5/12/2021 1:45:00 PM 11.18 52.124 0.069 6.96 6.17 11.24
5/12/2021 2:00:00 PM 11.31 52.358 0.07 6.95 6.29 11.18
5/12/2021 2:15:00 PM 11.34 52.412 0.07 6.94 6.62 11.14
5/12/2021 2:30:00 PM 11.29 52.322 0.07 6.92 6.71 11.09
5/12/2021 2:45:00 PM 11.46 52.628 0.07 6.91 6.38 11.07
5/12/2021 3:00:00 PM 11.58 52.844 0.07 6.92 6.52 11.02
5/12/2021 3:15:00 PM 11.78 53.204 0.069 6.93 6.48 10.99
5/12/2021 3:30:00 PM 11.81 53.258 0.07 6.93 6.41 10.94
5/12/2021 3:45:00 PM 11.9 53.42 0.07 6.92 6.19 10.89
5/12/2021 4:00:00 PM 11.96 53.528 0.07 6.92 6.25 10.88
5/12/2021 4:15:00 PM 11.95 53.51 0.07 6.9 6.71 10.88
5/12/2021 4:30:00 PM 11.86 53.348 0.07 6.9 6.51 10.84
5/12/2021 4:45:00 PM 11.88 53.384 0.07 6.87 6.53 10.81
5/12/2021 5:00:00 PM 11.94 53.492 0.07 6.89 6.7 10.77
5/12/2021 5:15:00 PM 11.99 53.582 0.07 6.89 6.61 10.73
5/12/2021 5:30:00 PM 12.01 53.618 0.07 6.88 6.61 10.69
5/12/2021 5:45:00 PM 12.02 53.636 0.07 6.89 6.88 10.68
5/12/2021 6:00:00 PM 12.07 53.726 0.07 6.89 6.53 10.64
5/12/2021 6:15:00 PM 12.17 53.906 0.07 6.88 6.62 10.61
5/12/2021 6:30:00 PM 12.22 53.996 0.07 6.9 6.66 10.56
5/12/2021 6:45:00 PM 12.21 53.978 0.07 6.9 6.72 10.54
5/12/2021 7:00:00 PM 12.16 53.888 0.07 6.87 6.96 10.51
5/12/2021 7:15:00 PM 12.13 53.834 0.07 6.89 6.98 10.49
5/12/2021 7:30:00 PM 12.11 53.798 0.07 6.89 6.86 10.46
5/12/2021 7:45:00 PM 12.1 53.78 0.07 6.87 7 10.44
5/12/2021 8:00:00 PM 12.08 53.744 0.07 6.88 6.97 10.41
5/12/2021 8:15:00 PM 12.04 53.672 0.07 6.87 6.97 10.39
5/12/2021 8:30:00 PM 11.99 53.582 0.07 6.85 7.29 10.36
5/12/2021 8:45:00 PM 11.93 53.474 0.07 6.86 7.06 10.33
5/12/2021 9:00:00 PM 11.85 53.33 0.071 6.84 7.11 10.32
5/12/2021 9:15:00 PM 11.77 53.186 0.071 6.84 7.61 10.32
5/12/2021 9:30:00 PM 11.67 53.006 0.071 6.83 7.77 10.33
5/12/2021 9:45:00 PM 11.56 52.808 0.071 6.82 7.81 10.33
5/12/2021 10:00:00 PM 11.46 52.628 0.071 6.8 7.63 10.35
5/12/2021 10:15:00 PM 11.36 52.448 0.071 6.79 7.96 10.37
5/12/2021 10:30:00 PM 11.26 52.268 0.071 6.79 7.47 10.39
5/12/2021 10:45:00 PM 11.16 52.088 0.071 6.78 8.03 10.43
5/12/2021 11:00:00 PM 11.06 51.908 0.071 6.8 7.43 10.45
5/12/2021 11:15:00 PM 10.96 51.728 0.071 6.78 7.76 10.47
5/12/2021 11:30:00 PM 10.86 51.548 0.071 6.78 7.42 10.49
5/12/2021 11:45:00 PM 10.77 51.386 0.071 6.79 7.62 10.52
5/13/2021 12:00:00 AM 10.67 51.206 0.071 6.77 8.34 10.54
5/13/2021 12:15:00 AM 10.56 51.008 0.071 6.79 7.87 10.57
5/13/2021 12:30:00 AM 10.46 50.828 0.071 6.77 7.61 10.6
5/13/2021 12:45:00 AM 10.36 50.648 0.071 6.78 7.84 10.63
5/13/2021 1:00:00 AM 10.25 50.45 0.072 6.77 7.62 10.66
5/13/2021 1:15:00 AM 10.14 50.252 0.071 6.78 7.87 10.69
5/13/2021 1:30:00 AM 10.03 50.054 0.071 6.79 7.7 10.71
5/13/2021 1:45:00 AM 9.94 49.892 0.072 6.76 7.71 10.74
5/13/2021 2:00:00 AM 9.83 49.694 0.072 6.77 7.72 10.77
5/13/2021 2:15:00 AM 9.73 49.514 0.072 6.78 7.64 10.8
5/13/2021 2:30:00 AM 9.64 49.352 0.072 6.78 7.4 10.83
5/13/2021 2:45:00 AM 9.54 49.172 0.072 6.77 7.99 10.85
5/13/2021 3:00:00 AM 9.45 49.01 0.072 6.77 7.14 10.88
5/13/2021 3:15:00 AM 9.35 48.83 0.072 6.79 7.1 10.91
5/13/2021 3:30:00 AM 9.26 48.668 0.072 6.8 7.62 10.94
5/13/2021 3:45:00 AM 9.17 48.506 0.072 6.78 8.99 10.97
5/13/2021 4:00:00 AM 9.08 48.344 0.072 6.81 7.72 10.99
5/13/2021 4:15:00 AM 8.99 48.182 0.072 6.79 7.09 11.02
5/13/2021 4:30:00 AM 8.9 48.02 0.072 6.81 6.93 11.04
5/13/2021 4:45:00 AM 8.82 47.876 0.072 6.81 7.28 11.06
5/13/2021 5:00:00 AM 8.73 47.714 0.072 6.8 7.77 11.1
5/13/2021 5:15:00 AM 8.65 47.57 0.072 6.81 7.24 11.11
5/13/2021 5:30:00 AM 8.57 47.426 0.072 6.81 7.36 11.13
5/13/2021 5:45:00 AM 8.49 47.282 0.072 6.8 6.6 11.18
5/13/2021 6:00:00 AM 8.41 47.138 0.072 6.79 6.72 11.19
5/13/2021 6:15:00 AM 8.33 46.994 0.072 6.83 6.79 11.23
5/13/2021 6:30:00 AM 8.27 46.886 0.072 6.8 6.79 11.26
5/13/2021 6:45:00 AM 8.2 46.76 0.072 6.82 6.67 11.3
5/13/2021 7:00:00 AM 8.15 46.67 0.072 6.82 6.56 11.35
5/13/2021 7:15:00 AM 8.11 46.598 0.072 6.83 6.31 11.39
5/13/2021 7:30:00 AM 8.07 46.526 0.072 6.84 6.81 11.43
5/13/2021 7:45:00 AM 8.05 46.49 0.072 6.84 6.15 11.48
5/13/2021 8:00:00 AM 8.03 46.454 0.072 6.87 6.38 11.52
5/13/2021 8:15:00 AM 8.04 46.472 0.072 6.87 6.59 11.57
5/13/2021 8:30:00 AM 8.06 46.508 0.072 6.87 5.91 11.6
5/13/2021 8:45:00 AM 8.11 46.598 0.072 6.88 6.28 11.65
5/13/2021 9:00:00 AM 8.17 46.706 0.072 6.9 6.07 11.68
5/13/2021 9:15:00 AM 8.26 46.868 0.072 6.93 5.55 11.69
5/13/2021 9:30:00 AM 8.36 47.048 0.072 6.92 6.07 11.71
5/13/2021 9:45:00 AM 8.48 47.264 0.072 6.93 5.81 11.72
5/13/2021 10:00:00 AM 8.62 47.516 0.072 6.95 5.77 11.74
5/13/2021 10:15:00 AM 8.78 47.804 0.072 6.96 5.8 11.73
5/13/2021 10:30:00 AM 8.97 48.146 0.072 6.99 5.87 11.72
5/13/2021 10:45:00 AM 9.17 48.506 0.072 6.97 5.48 11.69
5/13/2021 11:00:00 AM 9.38 48.884 0.072 6.99 5.71 11.68
5/13/2021 11:15:00 AM 9.62 49.316 0.072 6.99 5.3 11.65
5/13/2021 11:30:00 AM 9.7 49.46 0.072 6.98 5.49 11.59
5/13/2021 11:45:00 AM 9.78 49.604 0.072 6.99 5.29 11.54
5/13/2021 12:00:00 PM 9.92 49.856 0.072 6.99 5.24 11.52
5/13/2021 12:15:00 PM 10.11 50.198 0.072 6.97 5.32 11.49
5/13/2021 12:30:00 PM 10.17 50.306 0.072 6.99 5.23 11.47
5/13/2021 12:45:00 PM 10.29 50.522 0.072 6.98 5.28 11.44
5/13/2021 1:00:00 PM 10.37 50.666 0.072 6.99 5.44 11.43
5/13/2021 1:15:00 PM 10.47 50.846 0.072 6.99 5.24 11.42
5/13/2021 1:30:00 PM 10.57 51.026 0.072 6.99 5.35 11.41
5/13/2021 1:45:00 PM 10.68 51.224 0.072 6.99 5.5 11.38
5/13/2021 2:00:00 PM 10.78 51.404 0.072 7 5.03 11.32
5/13/2021 2:15:00 PM 10.89 51.602 0.072 6.98 5.03 11.29
5/13/2021 2:30:00 PM 10.9 51.62 0.072 6.97 5.54 11.25
5/13/2021 2:45:00 PM 10.98 51.764 0.072 6.98 5.1 11.23
5/13/2021 3:00:00 PM 11.16 52.088 0.072 6.97 5.52 11.23
5/13/2021 3:15:00 PM 11.25 52.25 0.072 6.99 5.33 11.17
5/13/2021 3:30:00 PM 11.47 52.646 0.072 6.97 5.02 11.12
5/13/2021 3:45:00 PM 11.72 53.096 0.072 7.01 5.5 11.07
5/13/2021 4:00:00 PM 11.74 53.132 0.072 7.01 5.09 11.02
5/13/2021 4:15:00 PM 11.77 53.186 0.072 7 5.39 10.96
5/13/2021 4:30:00 PM 11.84 53.312 0.072 7.01 5.15 10.93
5/13/2021 4:45:00 PM 11.85 53.33 0.072 7.03 5.17 10.91
5/13/2021 5:00:00 PM 11.93 53.474 0.072 7.02 5.19 10.89
5/13/2021 5:15:00 PM 11.9 53.42 0.072 7.03 5.49 10.84
5/13/2021 5:30:00 PM 11.91 53.438 0.072 7 5.34 10.82
5/13/2021 5:45:00 PM 11.99 53.582 0.072 7.01 5.29 10.81
5/13/2021 6:00:00 PM 12.03 53.654 0.072 6.96 5.43 10.79
5/13/2021 6:15:00 PM 12.05 53.69 0.072 6.94 5.56 10.77
5/13/2021 6:30:00 PM 12.06 53.708 0.072 6.95 7.09 10.73
5/13/2021 6:45:00 PM 12.06 53.708 0.072 6.94 5.5 10.7
5/13/2021 7:00:00 PM 12.05 53.69 0.072 6.96 5.92 10.66
5/13/2021 7:15:00 PM 12.03 53.654 0.072 6.97 5.46 10.61
5/13/2021 7:30:00 PM 12.01 53.618 0.072 6.95 5.57 10.57
5/13/2021 7:45:00 PM 11.99 53.582 0.072 6.96 5.47 10.52
5/13/2021 8:00:00 PM 11.94 53.492 0.072 6.95 6.58 10.5
5/13/2021 8:15:00 PM 11.9 53.42 0.073 6.94 5.35 10.46
5/13/2021 8:30:00 PM 11.85 53.33 0.072 6.95 5.63 10.43
5/13/2021 8:45:00 PM 11.79 53.222 0.073 6.93 6.33 10.39
5/13/2021 9:00:00 PM 11.72 53.096 0.073 6.91 5.55 10.38
5/13/2021 9:15:00 PM 11.65 52.97 0.073 6.92 5.79 10.36
5/13/2021 9:30:00 PM 11.57 52.826 0.073 6.92 6.05 10.36
5/13/2021 9:45:00 PM 11.49 52.682 0.073 6.93 6.1 10.36
5/13/2021 10:00:00 PM 11.41 52.538 0.073 6.91 7.38 10.37
5/13/2021 10:15:00 PM 11.33 52.394 0.073 6.91 6.03 10.36
5/13/2021 10:30:00 PM 11.26 52.268 0.073 6.87 6.25 10.39
5/13/2021 10:45:00 PM 11.18 52.124 0.073 6.88 6.18 10.4
5/13/2021 11:00:00 PM 11.1 51.98 0.073 6.88 6.33 10.42
5/13/2021 11:15:00 PM 11.02 51.836 0.073 6.9 6.01 10.43
5/13/2021 11:30:00 PM 10.94 51.692 0.073 6.92 5.93 10.45
5/13/2021 11:45:00 PM 10.86 51.548 0.073 6.92 5.88 10.47
5/14/2021 12:00:00 AM 10.77 51.386 0.073 6.92 5.91 10.49
5/14/2021 12:15:00 AM 10.69 51.242 0.073 6.91 6.07 10.51
5/14/2021 12:30:00 AM 10.6 51.08 0.074 6.89 5.77 10.53
5/14/2021 12:45:00 AM 10.51 50.918 0.074 6.87 6.45 10.55
5/14/2021 1:00:00 AM 10.42 50.756 0.074 6.89 7.32 10.57
5/14/2021 1:15:00 AM 10.34 50.612 0.074 6.88 6.03 10.6
5/14/2021 1:30:00 AM 10.26 50.468 0.074 6.88 6.28 10.62
5/14/2021 1:45:00 AM 10.18 50.324 0.074 6.83 6.21 10.65
5/14/2021 2:00:00 AM 10.1 50.18 0.074 6.86 6.91 10.66
5/14/2021 2:15:00 AM 10.02 50.036 0.074 6.88 6.65 10.7
5/14/2021 2:30:00 AM 9.94 49.892 0.074 6.9 6.24 10.71
5/14/2021 2:45:00 AM 9.86 49.748 0.074 6.9 6.33 10.74
5/14/2021 3:00:00 AM 9.77 49.586 0.074 6.9 6.09 10.76
5/14/2021 3:15:00 AM 9.7 49.46 0.074 6.88 5.89 10.78
5/14/2021 3:30:00 AM 9.61 49.298 0.074 6.82 6.01 10.8
5/14/2021 3:45:00 AM 9.54 49.172 0.074 6.87 5.93 10.83
5/14/2021 4:00:00 AM 9.46 49.028 0.074 6.88 5.7 10.85
5/14/2021 4:15:00 AM 9.38 48.884 0.074 6.9 6.67 10.88
5/14/2021 4:30:00 AM 9.31 48.758 0.074 6.89 7.25 10.9
5/14/2021 4:45:00 AM 9.23 48.614 0.074 6.91 6.12 10.91
5/14/2021 5:00:00 AM 9.15 48.47 0.074 6.92 5.69 10.95
5/14/2021 5:15:00 AM 9.08 48.344 0.074 6.92 5.53 10.96
5/14/2021 5:30:00 AM 9 48.2 0.074 6.88 5.71 11
5/14/2021 5:45:00 AM 8.93 48.074 0.075 6.88 5.6 11.02
5/14/2021 6:00:00 AM 8.86 47.948 0.075 6.9 5.56 11.05
5/14/2021 6:15:00 AM 8.79 47.822 0.075 6.89 5.81 11.07
5/14/2021 6:30:00 AM 8.73 47.714 0.075 6.89 6.19 11.1
5/14/2021 6:45:00 AM 8.67 47.606 0.075 6.9 5.56 11.15
5/14/2021 7:00:00 AM 8.62 47.516 0.075 6.9 5.57 11.19
5/14/2021 7:15:00 AM 8.58 47.444 0.075 6.92 5.42 11.25
5/14/2021 7:30:00 AM 8.55 47.39 0.074 6.93 5.56 11.29
5/14/2021 7:45:00 AM 8.53 47.354 0.075 6.94 5.59 11.34
5/14/2021 8:00:00 AM 8.52 47.336 0.074 6.95 5.32 11.39
5/14/2021 8:15:00 AM 8.52 47.336 0.074 6.96 5.37 11.44
5/14/2021 8:30:00 AM 8.55 47.39 0.074 6.97 5.29 11.47
5/14/2021 8:45:00 AM 8.59 47.462 0.074 6.97 5.58 11.52
5/14/2021 9:00:00 AM 8.65 47.57 0.074 6.98 5.44 11.56
5/14/2021 9:15:00 AM 8.74 47.732 0.074 6.99 5.16 11.58
5/14/2021 9:30:00 AM 8.85 47.93 0.074 6.99 5.28 11.61
5/14/2021 9:45:00 AM 8.97 48.146 0.074 7 4.88 11.62
5/14/2021 10:00:00 AM 9.11 48.398 0.074 7.01 5.23 11.63
5/14/2021 10:15:00 AM 9.29 48.722 0.074 7.02 4.9 11.63
5/14/2021 10:30:00 AM 9.48 49.064 0.074 7.02 5.2 11.62
5/14/2021 10:45:00 AM 9.69 49.442 0.074 7.03 4.7 11.61
5/14/2021 11:00:00 AM 9.92 49.856 0.074 7.04 4.94 11.58
5/14/2021 11:15:00 AM 10.17 50.306 0.074 7.04 4.83 11.57
5/14/2021 11:30:00 AM 10.42 50.756 0.074 7.05 5.2 11.51
5/14/2021 11:45:00 AM 10.68 51.224 0.074 7.05 5.28 11.48
5/14/2021 12:00:00 PM 10.94 51.692 0.074 7.05 4.82 11.42
5/14/2021 12:15:00 PM 11.21 52.178 0.074 7.04 4.71 11.38
5/14/2021 12:30:00 PM 11.47 52.646 0.074 7.05 4.91 11.34
5/14/2021 12:45:00 PM 11.73 53.114 0.074 7.06 5.04 11.28
5/14/2021 1:00:00 PM 11.98 53.564 0.074 7.05 4.76 11.24
5/14/2021 1:15:00 PM 12.25 54.05 0.074 7.05 4.74 11.18
5/14/2021 1:30:00 PM 12.45 54.41 0.074 7.05 4.69 11.14
5/14/2021 1:45:00 PM 12.58 54.644 0.074 7.04 4.74 11.08
5/14/2021 2:00:00 PM 12.81 55.058 0.074 7.03 4.87 11.03
5/14/2021 2:15:00 PM 13.06 55.508 0.074 7.04 4.78 10.97
5/14/2021 2:30:00 PM 13.29 55.922 0.074 7.04 4.56 10.93
5/14/2021 2:45:00 PM 13.52 56.336 0.074 7.05 4.84 10.86
5/14/2021 3:00:00 PM 13.62 56.516 0.074 7.04 4.94 10.8
5/14/2021 3:15:00 PM 13.73 56.714 0.074 7.03 4.82 10.76
5/14/2021 3:30:00 PM 13.88 56.984 0.074 7.02 5.5 10.71
5/14/2021 3:45:00 PM 14.03 57.254 0.074 7.02 4.7 10.69
5/14/2021 4:00:00 PM 14.1 57.38 0.074 7.02 4.86 10.64
5/14/2021 4:15:00 PM 14.15 57.47 0.074 7.02 4.76 10.61
5/14/2021 4:30:00 PM 14.04 57.272 0.074 7.01 6.04 10.57
5/14/2021 4:45:00 PM 13.95 57.11 0.074 6.99 4.59 10.49
5/14/2021 5:00:00 PM 13.92 57.056 0.074 6.99 4.97 10.42
5/14/2021 5:15:00 PM 13.8 56.84 0.074 6.98 4.75 10.38
5/14/2021 5:30:00 PM 13.64 56.552 0.074 6.96 5.06 10.37
5/14/2021 5:45:00 PM 13.55 56.39 0.074 6.94 5.1 10.35
5/14/2021 6:00:00 PM 13.47 56.246 0.074 6.94 6.3 10.35
5/14/2021 6:15:00 PM 13.43 56.174 0.074 6.94 4.78 10.33
5/14/2021 6:30:00 PM 13.46 56.228 0.074 6.94 4.99 10.29
5/14/2021 6:45:00 PM 13.5 56.3 0.074 6.94 5.01 10.24
5/14/2021 7:00:00 PM 13.5 56.3 0.074 6.96 5.1 10.19
5/14/2021 7:15:00 PM 13.49 56.282 0.074 6.95 4.72 10.16
5/14/2021 7:30:00 PM 13.47 56.246 0.074 6.95 4.89 10.12
5/14/2021 7:45:00 PM 13.46 56.228 0.074 6.94 5.23 10.08
5/14/2021 8:00:00 PM 13.46 56.228 0.075 6.95 5.02 10.03
5/14/2021 8:15:00 PM 13.46 56.228 0.075 6.94 5.03 9.98
5/14/2021 8:30:00 PM 13.45 56.21 0.075 6.95 5.56 9.95
5/14/2021 8:45:00 PM 13.42 56.156 0.075 6.94 5.2 9.92
5/14/2021 9:00:00 PM 13.39 56.102 0.075 6.94 5.08 9.89
5/14/2021 9:15:00 PM 13.36 56.048 0.075 6.95 5.09 9.88
5/14/2021 9:30:00 PM 13.32 55.976 0.075 6.95 5.29 9.86
5/14/2021 9:45:00 PM 13.28 55.904 0.075 6.95 5.32 9.86
5/14/2021 10:00:00 PM 13.22 55.796 0.075 6.95 5.53 9.85
5/14/2021 10:15:00 PM 13.15 55.67 0.075 6.95 5.91 9.86
5/14/2021 10:30:00 PM 13.07 55.526 0.076 6.94 5.7 9.87
5/14/2021 10:45:00 PM 12.98 55.364 0.076 6.93 5.88 9.88
5/14/2021 11:00:00 PM 12.88 55.184 0.076 6.93 5.23 9.89
5/14/2021 11:15:00 PM 12.78 55.004 0.076 6.91 5.62 9.93
5/14/2021 11:30:00 PM 12.68 54.824 0.076 6.91 5.86 9.96
5/14/2021 11:45:00 PM 12.58 54.644 0.076 6.9 6.76 9.97
5/15/2021 12:00:00 AM 12.47 54.446 0.076 6.89 5.57 9.99
5/15/2021 12:15:00 AM 12.37 54.266 0.076 6.89 6.06 10.03
5/15/2021 12:30:00 AM 12.26 54.068 0.076 6.86 6.13 10.06
5/15/2021 12:45:00 AM 12.16 53.888 0.076 6.87 5.99 10.08
5/15/2021 1:00:00 AM 12.06 53.708 0.076 6.86 6.13 10.11
5/15/2021 1:15:00 AM 11.96 53.528 0.076 6.89 5.65 10.14
5/15/2021 1:30:00 AM 11.87 53.366 0.076 6.89 5.89 10.14
5/15/2021 1:45:00 AM 11.77 53.186 0.076 6.88 5.83 10.18
5/15/2021 2:00:00 AM 11.67 53.006 0.076 6.87 5.94 10.21
5/15/2021 2:15:00 AM 11.58 52.844 0.076 6.88 6.48 10.23
5/15/2021 2:30:00 AM 11.49 52.682 0.076 6.87 6.21 10.25
5/15/2021 2:45:00 AM 11.4 52.52 0.076 6.89 5.79 10.28
5/15/2021 3:00:00 AM 11.32 52.376 0.076 6.89 6.2 10.29
5/15/2021 3:15:00 AM 11.22 52.196 0.076 6.9 6.49 10.33
5/15/2021 3:30:00 AM 11.13 52.034 0.076 6.9 6.17 10.35
5/15/2021 3:45:00 AM 11.03 51.854 0.076 6.89 6.03 10.38
5/15/2021 4:00:00 AM 10.93 51.674 0.076 6.89 6.2 10.4
5/15/2021 4:15:00 AM 10.84 51.512 0.076 6.88 5.56 10.43
5/15/2021 4:30:00 AM 10.74 51.332 0.076 6.87 6.07 10.46
5/15/2021 4:45:00 AM 10.65 51.17 0.076 6.86 5.66 10.49
5/15/2021 5:00:00 AM 10.56 51.008 0.076 6.87 5.76 10.51
5/15/2021 5:15:00 AM 10.47 50.846 0.076 6.86 6.04 10.53
5/15/2021 5:30:00 AM 10.39 50.702 0.076 6.87 5.74 10.57
5/15/2021 5:45:00 AM 10.3 50.54 0.076 6.89 5.74 10.6
5/15/2021 6:00:00 AM 10.21 50.378 0.076 6.89 5.72 10.62
5/15/2021 6:15:00 AM 10.13 50.234 0.076 6.89 5.11 10.65
5/15/2021 6:30:00 AM 10.05 50.09 0.076 6.89 5.71 10.7
5/15/2021 6:45:00 AM 9.98 49.964 0.076 6.91 5.65 10.75
5/15/2021 7:00:00 AM 9.92 49.856 0.076 6.91 5.35 10.79
5/15/2021 7:15:00 AM 9.87 49.766 0.076 6.91 5.06 10.85
5/15/2021 7:30:00 AM 9.83 49.694 0.076 6.93 5.45 10.91
5/15/2021 7:45:00 AM 9.79 49.622 0.076 6.93 5.12 10.97
5/15/2021 8:00:00 AM 9.77 49.586 0.076 6.93 5 11.02
5/15/2021 8:15:00 AM 9.77 49.586 0.076 6.92 5.02 11.08
5/15/2021 8:30:00 AM 9.78 49.604 0.076 6.92 5.22 11.14
5/15/2021 8:45:00 AM 9.81 49.658 0.076 6.91 4.8 11.19
5/15/2021 9:00:00 AM 9.86 49.748 0.076 6.93 4.93 11.24
5/15/2021 9:15:00 AM 9.94 49.892 0.076 6.96 4.98 11.28
5/15/2021 9:30:00 AM 10.04 50.072 0.076 6.98 4.84 11.32
5/15/2021 9:45:00 AM 10.15 50.27 0.076 6.98 5.64 11.33
5/15/2021 10:00:00 AM 10.29 50.522 0.076 6.96 5.13 11.34
5/15/2021 10:15:00 AM 10.44 50.792 0.076 6.99 5.11 11.36
5/15/2021 10:30:00 AM 10.64 51.152 0.076 7 5.06 11.36
5/15/2021 10:45:00 AM 10.84 51.512 0.076 7.02 4.71 11.36
5/15/2021 11:00:00 AM 11.07 51.926 0.076 7.03 4.94 11.35
5/15/2021 11:15:00 AM 11.3 52.34 0.076 7.04 4.94 11.33
5/15/2021 11:30:00 AM 11.55 52.79 0.076 7.04 6.62 11.3
5/15/2021 11:45:00 AM 11.81 53.258 0.076 7.04 4.69 11.26
5/15/2021 12:00:00 PM 12.08 53.744 0.075 7.04 5.03 11.22
5/15/2021 12:15:00 PM 12.37 54.266 0.075 7.05 5.08 11.19
5/15/2021 12:30:00 PM 12.68 54.824 0.076 7.04 5.47 11.15
5/15/2021 12:45:00 PM 12.98 55.364 0.076 7.05 4.72 11.11
5/15/2021 1:00:00 PM 13.17 55.706 0.076 7.04 4.88 11.06
5/15/2021 1:15:00 PM 13.4 56.12 0.075 7.03 4.59 11.03
5/15/2021 1:30:00 PM 13.43 56.174 0.076 7.03 4.69 10.97
5/15/2021 1:45:00 PM 13.44 56.192 0.076 7.02 4.66 10.94
5/15/2021 2:00:00 PM 13.49 56.282 0.076 6.99 4.69 10.93
5/15/2021 2:15:00 PM 13.54 56.372 0.076 7.01 4.81 10.92
5/15/2021 2:30:00 PM 13.45 56.21 0.075 7 4.6 10.92
5/15/2021 2:45:00 PM 13.32 55.976 0.076 7 4.63 10.89
5/15/2021 3:00:00 PM 13.36 56.048 0.075 6.97 4.65 10.9
5/15/2021 3:15:00 PM 13.52 56.336 0.075 6.98 4.96 10.89
5/15/2021 3:30:00 PM 13.68 56.624 0.075 6.99 4.7 10.85
5/15/2021 3:45:00 PM 13.76 56.768 0.075 6.99 4.83 10.81
5/15/2021 4:00:00 PM 13.74 56.732 0.076 7 4.92 10.79
5/15/2021 4:15:00 PM 13.72 56.696 0.076 7 4.83 10.77
5/15/2021 4:30:00 PM 13.77 56.786 0.075 7 4.92 10.76
5/15/2021 4:45:00 PM 13.81 56.858 0.075 6.98 4.75 10.73
5/15/2021 5:00:00 PM 13.89 57.002 0.075 6.97 4.73 10.7
5/15/2021 5:15:00 PM 13.95 57.11 0.075 6.97 4.61 10.66
5/15/2021 5:30:00 PM 14.02 57.236 0.075 6.97 4.76 10.61
5/15/2021 5:45:00 PM 14.05 57.29 0.075 6.98 5.28 10.53
5/15/2021 6:00:00 PM 14.08 57.344 0.075 6.97 5.35 10.45
5/15/2021 6:15:00 PM 14.09 57.362 0.076 6.98 4.9 10.4
5/15/2021 6:30:00 PM 14.05 57.29 0.075 6.98 4.49 10.34
5/15/2021 6:45:00 PM 13.98 57.164 0.076 6.91 4.7 10.31
5/15/2021 7:00:00 PM 13.92 57.056 0.076 6.9 4.7 10.28
5/15/2021 7:15:00 PM 13.87 56.966 0.075 6.9 4.74 10.25
5/15/2021 7:30:00 PM 13.79 56.822 0.076 6.89 4.73 10.22
5/15/2021 7:45:00 PM 13.73 56.714 0.076 6.91 5.15 10.17
5/15/2021 8:00:00 PM 13.66 56.588 0.076 6.92 5.67 10.13
5/15/2021 8:15:00 PM 13.58 56.444 0.076 6.9 4.76 10.07
5/15/2021 8:30:00 PM 13.5 56.3 0.076 6.88 4.83 10.04
5/15/2021 8:45:00 PM 13.44 56.192 0.076 6.87 4.81 9.99
5/15/2021 9:00:00 PM 13.37 56.066 0.076 6.85 4.84 9.96
5/15/2021 9:15:00 PM 13.3 55.94 0.076 6.85 5.19 9.93
5/15/2021 9:30:00 PM 13.23 55.814 0.077 6.86 4.92 9.91
5/15/2021 9:45:00 PM 13.17 55.706 0.076 6.87 4.94 9.89
5/15/2021 10:00:00 PM 13.11 55.598 0.076 6.85 5.25 9.89
5/15/2021 10:15:00 PM 13.04 55.472 0.077 6.87 5.18 9.89
5/15/2021 10:30:00 PM 12.97 55.346 0.077 6.84 5.29 9.89
5/15/2021 10:45:00 PM 12.89 55.202 0.077 6.87 5.24 9.91
5/15/2021 11:00:00 PM 12.81 55.058 0.077 6.83 5.23 9.91
5/15/2021 11:15:00 PM 12.73 54.914 0.077 6.85 5.15 9.92
5/15/2021 11:30:00 PM 12.65 54.77 0.077 6.87 5.36 9.93
5/15/2021 11:45:00 PM 12.57 54.626 0.077 6.84 5.02 9.95
5/16/2021 12:00:00 AM 12.51 54.518 0.077 6.85 5.15 9.97
5/16/2021 12:15:00 AM 12.43 54.374 0.077 6.84 5.37 10
5/16/2021 12:30:00 AM 12.37 54.266 0.077 6.85 5.36 10.01
5/16/2021 12:45:00 AM 12.31 54.158 0.077 6.87 5.28 10.03
5/16/2021 1:00:00 AM 12.24 54.032 0.077 6.87 5.27 10.04
5/16/2021 1:15:00 AM 12.16 53.888 0.077 6.85 5.27 10.07
5/16/2021 1:30:00 AM 12.09 53.762 0.077 6.86 5 10.09
5/16/2021 1:45:00 AM 12.01 53.618 0.077 6.87 5.2 10.09
5/16/2021 2:00:00 AM 11.93 53.474 0.077 6.85 5.2 10.12
5/16/2021 2:15:00 AM 11.85 53.33 0.077 6.86 5.35 10.15
5/16/2021 2:30:00 AM 11.77 53.186 0.077 6.83 4.71 10.17
5/16/2021 2:45:00 AM 11.68 53.024 0.078 6.83 5.17 10.19
5/16/2021 3:00:00 AM 11.6 52.88 0.078 6.86 4.95 10.21
5/16/2021 3:15:00 AM 11.51 52.718 0.077 6.85 5.52 10.22
5/16/2021 3:30:00 AM 11.43 52.574 0.078 6.86 4.95 10.25
5/16/2021 3:45:00 AM 11.35 52.43 0.078 6.85 5.04 10.27
5/16/2021 4:00:00 AM 11.26 52.268 0.078 6.83 5.3 10.3
5/16/2021 4:15:00 AM 11.19 52.142 0.078 6.85 4.98 10.32
5/16/2021 4:30:00 AM 11.11 51.998 0.078 6.86 4.97 10.34
5/16/2021 4:45:00 AM 11.05 51.89 0.078 6.83 5.24 10.36
5/16/2021 5:00:00 AM 10.97 51.746 0.078 6.84 5.24 10.39
5/16/2021 5:15:00 AM 10.9 51.62 0.078 6.86 5.63 10.41
5/16/2021 5:30:00 AM 10.84 51.512 0.078 6.89 5.11 10.43
5/16/2021 5:45:00 AM 10.77 51.386 0.078 6.88 5.27 10.45
5/16/2021 6:00:00 AM 10.72 51.296 0.078 6.86 5.02 10.46
5/16/2021 6:15:00 AM 10.66 51.188 0.078 6.86 4.9 10.48
5/16/2021 6:30:00 AM 10.61 51.098 0.078 6.87 5.15 10.51
5/16/2021 6:45:00 AM 10.57 51.026 0.078 6.86 4.93 10.56
5/16/2021 7:00:00 AM 10.53 50.954 0.078 6.9 4.84 10.59
5/16/2021 7:15:00 AM 10.5 50.9 0.078 6.88 4.58 10.63
5/16/2021 7:30:00 AM 10.47 50.846 0.078 6.87 5.1 10.68
5/16/2021 7:45:00 AM 10.46 50.828 0.078 6.87 4.88 10.74
5/16/2021 8:00:00 AM 10.45 50.81 0.078 6.88 4.81 10.8
5/16/2021 8:15:00 AM 10.44 50.792 0.078 6.9 4.69 10.86
5/16/2021 8:30:00 AM 10.43 50.774 0.078 6.91 4.79 10.9
5/16/2021 8:45:00 AM 10.44 50.792 0.077 6.9 4.61 10.97
5/16/2021 9:00:00 AM 10.45 50.81 0.078 6.92 4.55 11.02
5/16/2021 9:15:00 AM 10.47 50.846 0.077 6.92 4.7 11.08
5/16/2021 9:30:00 AM 10.49 50.882 0.077 6.92 4.44 11.12
5/16/2021 9:45:00 AM 10.52 50.936 0.077 6.94 4.59 11.16
5/16/2021 10:00:00 AM 10.55 50.99 0.077 6.9 4.67 11.21
5/16/2021 10:15:00 AM 10.59 51.062 0.077 6.92 4.31 11.25
5/16/2021 10:30:00 AM 10.65 51.17 0.077 6.92 4.45 11.29
5/16/2021 10:45:00 AM 10.71 51.278 0.077 6.97 4.31 11.31
5/16/2021 11:00:00 AM 10.76 51.368 0.077 6.94 4.27 11.33
5/16/2021 11:15:00 AM 10.81 51.458 0.077 6.96 4.31 11.33
5/16/2021 11:30:00 AM 10.87 51.566 0.077 6.95 4.39 11.34
5/16/2021 11:45:00 AM 10.95 51.71 0.077 6.95 4.33 11.35
5/16/2021 12:00:00 PM 11.03 51.854 0.077 6.95 4.51 11.35
5/16/2021 12:15:00 PM 11.1 51.98 0.077 6.96 4.34 11.35
5/16/2021 12:30:00 PM 11.19 52.142 0.077 6.96 4.37 11.35
5/16/2021 12:45:00 PM 11.29 52.322 0.077 6.96 4.44 11.36
5/16/2021 1:00:00 PM 11.39 52.502 0.077 6.97 4.27 11.34
5/16/2021 1:15:00 PM 11.49 52.682 0.076 6.98 4.08 11.35
5/16/2021 1:30:00 PM 11.67 53.006 0.076 6.97 4.29 11.36
5/16/2021 1:45:00 PM 11.86 53.348 0.076 6.99 4.19 11.34
5/16/2021 2:00:00 PM 12 53.6 0.076 6.99 4.24 11.31
5/16/2021 2:15:00 PM 12.13 53.834 0.076 6.98 4.16 11.3
5/16/2021 2:30:00 PM 12.26 54.068 0.076 6.99 4.36 11.27
5/16/2021 2:45:00 PM 12.42 54.356 0.076 7 4.22 11.25
5/16/2021 3:00:00 PM 12.58 54.644 0.076 6.98 4.28 11.22
5/16/2021 3:15:00 PM 12.78 55.004 0.076 6.99 4.13 11.18
5/16/2021 3:30:00 PM 12.98 55.364 0.076 6.99 4.28 11.14
5/16/2021 3:45:00 PM 13.15 55.67 0.076 7 4.09 11.1
5/16/2021 4:00:00 PM 13.25 55.85 0.076 7 4.3 11.04
5/16/2021 4:15:00 PM 13.38 56.084 0.076 6.99 4.18 11
5/16/2021 4:30:00 PM 13.52 56.336 0.076 6.99 4.29 10.96
5/16/2021 4:45:00 PM 13.61 56.498 0.076 7.01 4.28 10.9
5/16/2021 5:00:00 PM 13.65 56.57 0.076 6.98 4.11 10.83
5/16/2021 5:15:00 PM 13.71 56.678 0.076 6.96 4.38 10.78
5/16/2021 5:30:00 PM 13.73 56.714 0.076 6.97 4.14 10.72
5/16/2021 5:45:00 PM 13.69 56.642 0.076 6.96 4.4 10.67
5/16/2021 6:00:00 PM 13.68 56.624 0.076 6.96 4.24 10.61
5/16/2021 6:15:00 PM 13.68 56.624 0.076 6.92 4.29 10.57
5/16/2021 6:30:00 PM 13.67 56.606 0.076 6.94 4.37 10.5
5/16/2021 6:45:00 PM 13.66 56.588 0.076 6.92 4.24 10.46
5/16/2021 7:00:00 PM 13.63 56.534 0.076 6.91 4.57 10.42
5/16/2021 7:15:00 PM 13.56 56.408 0.077 6.92 4.31 10.38
5/16/2021 7:30:00 PM 13.51 56.318 0.076 6.93 4.13 10.33
5/16/2021 7:45:00 PM 13.47 56.246 0.077 6.91 4.28 10.29
5/16/2021 8:00:00 PM 13.45 56.21 0.077 6.91 4.23 10.24
5/16/2021 8:15:00 PM 13.41 56.138 0.077 6.89 4.3 10.18
5/16/2021 8:30:00 PM 13.36 56.048 0.077 6.91 4.24 10.11
5/16/2021 8:45:00 PM 13.3 55.94 0.077 6.87 4.23 10.06
5/16/2021 9:00:00 PM 13.23 55.814 0.077 6.88 4.42 10.02
5/16/2021 9:15:00 PM 13.17 55.706 0.077 6.9 4.21 9.98
5/16/2021 9:30:00 PM 13.1 55.58 0.077 6.88 4.58 9.95
5/16/2021 9:45:00 PM 13.04 55.472 0.077 6.87 4.81 9.93
5/16/2021 10:00:00 PM 12.97 55.346 0.078 6.86 4.72 9.91
5/16/2021 10:15:00 PM 12.91 55.238 0.078 6.87 4.75 9.92
5/16/2021 10:30:00 PM 12.83 55.094 0.078 6.87 4.77 9.92
5/16/2021 10:45:00 PM 12.76 54.968 0.078 6.85 4.87 9.93
5/16/2021 11:00:00 PM 12.68 54.824 0.078 6.87 4.77 9.93
5/16/2021 11:15:00 PM 12.6 54.68 0.078 6.88 4.64 9.94
5/16/2021 11:30:00 PM 12.52 54.536 0.078 6.85 4.72 9.97
5/16/2021 11:45:00 PM 12.43 54.374 0.078 6.86 4.76 9.99
5/17/2021 12:00:00 AM 12.35 54.23 0.078 6.84 4.81 10
5/17/2021 12:15:00 AM 12.28 54.104 0.078 6.84 4.82 10.02
5/17/2021 12:30:00 AM 12.19 53.942 0.078 6.86 4.65 10.04
5/17/2021 12:45:00 AM 12.11 53.798 0.078 6.84 4.7 10.06
5/17/2021 1:00:00 AM 12.02 53.636 0.078 6.83 4.58 10.09
5/17/2021 1:15:00 AM 11.93 53.474 0.078 6.84 4.65 10.11
5/17/2021 1:30:00 AM 11.85 53.33 0.078 6.82 4.69 10.13
5/17/2021 1:45:00 AM 11.75 53.15 0.078 6.82 4.65 10.16
5/17/2021 2:00:00 AM 11.67 53.006 0.078 6.84 4.74 10.19
5/17/2021 2:15:00 AM 11.57 52.826 0.078 6.84 4.62 10.21
5/17/2021 2:30:00 AM 11.48 52.664 0.078 6.85 4.82 10.23
5/17/2021 2:45:00 AM 11.4 52.52 0.078 6.83 4.54 10.26
5/17/2021 3:00:00 AM 11.3 52.34 0.079 6.83 4.85 10.29
5/17/2021 3:15:00 AM 11.21 52.178 0.079 6.82 4.86 10.32
5/17/2021 3:30:00 AM 11.13 52.034 0.079 6.83 4.51 10.34
5/17/2021 3:45:00 AM 11.05 51.89 0.079 6.85 4.56 10.36
5/17/2021 4:00:00 AM 10.98 51.764 0.079 6.86 4.67 10.39
5/17/2021 4:15:00 AM 10.89 51.602 0.079 6.85 4.44 10.41
5/17/2021 4:30:00 AM 10.81 51.458 0.079 6.85 4.57 10.43
5/17/2021 4:45:00 AM 10.73 51.314 0.079 6.84 4.47 10.45
5/17/2021 5:00:00 AM 10.65 51.17 0.079 6.84 4.54 10.48
5/17/2021 5:15:00 AM 10.56 51.008 0.079 6.85 4.63 10.51
5/17/2021 5:30:00 AM 10.48 50.864 0.079 6.82 4.54 10.52
5/17/2021 5:45:00 AM 10.38 50.684 0.079 6.84 4.54 10.55
5/17/2021 6:00:00 AM 10.3 50.54 0.079 6.84 4.46 10.57
5/17/2021 6:15:00 AM 10.22 50.396 0.079 6.84 4.67 10.63
5/17/2021 6:30:00 AM 10.16 50.288 0.079 6.84 4.58 10.67
5/17/2021 6:45:00 AM 10.11 50.198 0.079 6.86 4.29 10.71
5/17/2021 7:00:00 AM 10.07 50.126 0.079 6.85 4.43 10.78
5/17/2021 7:15:00 AM 10.03 50.054 0.079 6.86 4.19 10.83
5/17/2021 7:30:00 AM 10.01 50.018 0.079 6.85 4.26 10.92
5/17/2021 7:45:00 AM 9.99 49.982 0.079 6.87 4.24 10.98
5/17/2021 8:00:00 AM 9.99 49.982 0.079 6.89 4.42 11.07
5/17/2021 8:15:00 AM 9.99 49.982 0.078 6.89 4.28 11.16
5/17/2021 8:30:00 AM 9.97 49.946 0.078 6.89 4.42 11.23
5/17/2021 8:45:00 AM 10.01 50.018 0.078 6.92 4.23 11.28
5/17/2021 9:00:00 AM 10.05 50.09 0.078 6.91 4.1 11.34
5/17/2021 9:15:00 AM 10.08 50.144 0.078 6.93 4.05 11.38
5/17/2021 9:30:00 AM 10.16 50.288 0.078 6.92 4.11 11.42
5/17/2021 9:45:00 AM 10.28 50.504 0.078 6.94 4.09 11.46
5/17/2021 10:00:00 AM 10.43 50.774 0.078 6.95 4.27 11.5
5/17/2021 10:15:00 AM 10.59 51.062 0.078 6.97 4.1 11.51
5/17/2021 10:30:00 AM 10.78 51.404 0.078 6.99 4.14 11.51
5/17/2021 10:45:00 AM 10.97 51.746 0.078 6.98 4.3 11.51
5/17/2021 11:00:00 AM 11.2 52.16 0.078 7 4.22 11.5
5/17/2021 11:15:00 AM 11.44 52.592 0.077 7.01 3.93 11.48
5/17/2021 11:30:00 AM 11.71 53.078 0.078 7.02 3.93 11.46
5/17/2021 11:45:00 AM 11.99 53.582 0.078 7.03 3.99 11.42
5/17/2021 12:00:00 PM 12.28 54.104 0.077 7.02 3.84 11.38
5/17/2021 12:15:00 PM 12.6 54.68 0.077 7.03 3.96 11.34
5/17/2021 12:30:00 PM 12.86 55.148 0.077 7.02 4.49 11.28
5/17/2021 12:45:00 PM 13.17 55.706 0.077 7.03 3.94 11.22
5/17/2021 1:00:00 PM 13.44 56.192 0.077 7.03 4.02 11.17
5/17/2021 1:15:00 PM 13.74 56.732 0.077 7.03 3.85 11.1
5/17/2021 1:30:00 PM 14.03 57.254 0.077 7.03 4.07 11.07
5/17/2021 1:45:00 PM 14.27 57.686 0.077 7.04 4.19 11.01
5/17/2021 2:00:00 PM 14.53 58.154 0.077 7.03 4.06 10.96
5/17/2021 2:15:00 PM 14.72 58.496 0.078 7.02 3.92 10.9
5/17/2021 2:30:00 PM 14.96 58.928 0.077 7.02 4.18 10.85
5/17/2021 2:45:00 PM 15.11 59.198 0.077 7.02 3.97 10.78
5/17/2021 3:00:00 PM 15.26 59.468 0.077 7.02 4.02 10.75
5/17/2021 3:15:00 PM 15.41 59.738 0.078 7.01 4.06 10.7
5/17/2021 3:30:00 PM 15.55 59.99 0.077 7.01 3.94 10.67
5/17/2021 3:45:00 PM 15.66 60.188 0.077 7.01 4.22 10.62
5/17/2021 4:00:00 PM 15.75 60.35 0.077 6.99 4.04 10.58
5/17/2021 4:15:00 PM 15.82 60.476 0.077 7 4.14 10.5
5/17/2021 4:30:00 PM 15.9 60.62 0.077 6.99 4.13 10.48
5/17/2021 4:45:00 PM 15.95 60.71 0.077 6.98 4.06 10.43
5/17/2021 5:00:00 PM 15.97 60.746 0.077 6.96 4.13 10.37
5/17/2021 5:15:00 PM 15.97 60.746 0.077 6.96 4.09 10.31
5/17/2021 5:30:00 PM 15.95 60.71 0.077 6.96 3.9 10.22
5/17/2021 5:45:00 PM 15.93 60.674 0.077 6.92 3.9 10.2
5/17/2021 6:00:00 PM 15.88 60.584 0.077 6.95 3.93 10.12
5/17/2021 6:15:00 PM 15.78 60.404 0.077 6.91 4.22 10.11
5/17/2021 6:30:00 PM 15.69 60.242 0.078 6.91 4.13 10.05
5/17/2021 6:45:00 PM 15.61 60.098 0.077 6.89 4.26 10
5/17/2021 7:00:00 PM 15.55 59.99 0.078 6.88 4.53 9.93
5/17/2021 7:15:00 PM 15.53 59.954 0.078 6.88 4.18 9.86
5/17/2021 7:30:00 PM 15.52 59.936 0.078 6.87 4.18 9.79
5/17/2021 7:45:00 PM 15.49 59.882 0.078 6.87 3.97 9.74
5/17/2021 8:00:00 PM 15.44 59.792 0.078 6.86 4.12 9.68
5/17/2021 8:15:00 PM 15.37 59.666 0.078 6.87 4.19 9.63
5/17/2021 8:30:00 PM 15.28 59.504 0.078 6.87 4.16 9.59
5/17/2021 8:45:00 PM 15.18 59.324 0.078 6.88 4.19 9.55
5/17/2021 9:00:00 PM 15.07 59.126 0.078 6.84 4.37 9.52
5/17/2021 9:15:00 PM 14.97 58.946 0.079 6.85 4.12 9.51
5/17/2021 9:30:00 PM 14.88 58.784 0.079 6.82 4.27 9.48
5/17/2021 9:45:00 PM 14.78 58.604 0.079 6.83 4.22 9.48
5/17/2021 10:00:00 PM 14.69 58.442 0.079 6.83 4.1 9.46
5/17/2021 10:15:00 PM 14.59 58.262 0.079 6.82 3.91 9.47
5/17/2021 10:30:00 PM 14.49 58.082 0.079 6.83 4.39 9.48
5/17/2021 10:45:00 PM 14.4 57.92 0.079 6.81 3.9 9.48
5/17/2021 11:00:00 PM 14.31 57.758 0.079 6.82 4.21 9.5
5/17/2021 11:15:00 PM 14.22 57.596 0.08 6.84 4.19 9.51
5/17/2021 11:30:00 PM 14.12 57.416 0.079 6.83 4.37 9.53
5/17/2021 11:45:00 PM 14.02 57.236 0.08 6.81 4.02 9.55
5/18/2021 12:00:00 AM 13.93 57.074 0.08 6.81 3.96 9.58
5/18/2021 12:15:00 AM 13.83 56.894 0.08 6.82 4.47 9.6
5/18/2021 12:30:00 AM 13.75 56.75 0.08 6.83 4.28 9.61
5/18/2021 12:45:00 AM 13.66 56.588 0.08 6.85 4.06 9.62
5/18/2021 1:00:00 AM 13.56 56.408 0.08 6.83 4.2 9.65
5/18/2021 1:15:00 AM 13.47 56.246 0.08 6.82 4.09 9.68
5/18/2021 1:30:00 AM 13.39 56.102 0.08 6.83 3.95 9.71
5/18/2021 1:45:00 AM 13.3 55.94 0.08 6.84 4.33 9.74
5/18/2021 2:00:00 AM 13.21 55.778 0.08 6.83 4.55 9.76
5/18/2021 2:15:00 AM 13.12 55.616 0.08 6.83 4.44 9.78
5/18/2021 2:30:00 AM 13.04 55.472 0.08 6.86 4.35 9.78
5/18/2021 2:45:00 AM 12.94 55.292 0.08 6.83 4.06 9.82
5/18/2021 3:00:00 AM 12.85 55.13 0.08 6.82 4.15 9.85
5/18/2021 3:15:00 AM 12.75 54.95 0.08 6.8 4.05 9.88
5/18/2021 3:30:00 AM 12.65 54.77 0.08 6.83 3.96 9.9
5/18/2021 3:45:00 AM 12.56 54.608 0.08 6.84 4.07 9.93
5/18/2021 4:00:00 AM 12.46 54.428 0.08 6.82 4.08 9.96
5/18/2021 4:15:00 AM 12.36 54.248 0.08 6.82 4.1 9.99
5/18/2021 4:30:00 AM 12.27 54.086 0.08 6.84 4.41 10
5/18/2021 4:45:00 AM 12.17 53.906 0.081 6.83 3.96 10.04
5/18/2021 5:00:00 AM 12.07 53.726 0.08 6.84 3.99 10.07
5/18/2021 5:15:00 AM 11.98 53.564 0.08 6.83 4.22 10.09
5/18/2021 5:30:00 AM 11.9 53.42 0.08 6.83 4.28 10.12
5/18/2021 5:45:00 AM 11.81 53.258 0.081 6.86 3.95 10.14
5/18/2021 6:00:00 AM 11.74 53.132 0.081 6.83 3.99 10.17
5/18/2021 6:15:00 AM 11.66 52.988 0.081 6.83 4.04 10.22
5/18/2021 6:30:00 AM 11.6 52.88 0.08 6.85 4.19 10.26
5/18/2021 6:45:00 AM 11.53 52.754 0.081 6.85 4.26 10.31
5/18/2021 7:00:00 AM 11.48 52.664 0.08 6.86 3.8 10.38
5/18/2021 7:15:00 AM 11.42 52.556 0.081 6.87 3.68 10.44
5/18/2021 7:30:00 AM 11.37 52.466 0.08 6.86 3.72 10.52
5/18/2021 7:45:00 AM 11.33 52.394 0.08 6.87 3.61 10.6
5/18/2021 8:00:00 AM 11.3 52.34 0.08 6.87 3.85 10.68
5/18/2021 8:15:00 AM 11.29 52.322 0.08 6.88 3.69 10.75
5/18/2021 8:30:00 AM 11.29 52.322 0.08 6.89 3.76 10.81
5/18/2021 8:45:00 AM 11.31 52.358 0.08 6.9 3.67 10.88
5/18/2021 9:00:00 AM 11.35 52.43 0.08 6.92 3.58 10.95
5/18/2021 9:15:00 AM 11.41 52.538 0.08 6.92 3.63 11.01
5/18/2021 9:30:00 AM 11.49 52.682 0.08 6.95 3.59 11.06
5/18/2021 9:45:00 AM 11.61 52.898 0.08 6.95 3.71 11.12
5/18/2021 10:00:00 AM 11.75 53.15 0.079 6.97 3.59 11.16
5/18/2021 10:15:00 AM 11.91 53.438 0.079 6.98 3.56 11.18
5/18/2021 10:30:00 AM 12.1 53.78 0.079 6.99 3.64 11.21
5/18/2021 10:45:00 AM 12.31 54.158 0.079 7.01 3.63 11.22
5/18/2021 11:00:00 AM 12.54 54.572 0.079 7.01 3.68 11.22
5/18/2021 11:15:00 AM 12.79 55.022 0.079 7.02 3.59 11.21
5/18/2021 11:30:00 AM 13.06 55.508 0.079 7.02 3.57 11.21
5/18/2021 11:45:00 AM 13.35 56.03 0.079 7.03 3.45 11.18
5/18/2021 12:00:00 PM 13.64 56.552 0.079 7.02 3.63 11.16
5/18/2021 12:15:00 PM 13.96 57.128 0.079 7.02 3.6 11.11
5/18/2021 12:30:00 PM 14.26 57.668 0.079 7.05 3.48 11.07
5/18/2021 12:45:00 PM 14.58 58.244 0.079 7.04 3.49 11.02
5/18/2021 1:00:00 PM 14.88 58.784 0.079 7.05 3.4 10.97
5/18/2021 1:15:00 PM 15.19 59.342 0.079 7.05 3.54 10.93
5/18/2021 1:30:00 PM 15.48 59.864 0.079 7.04 3.56 10.89
5/18/2021 1:45:00 PM 15.78 60.404 0.079 7.05 3.52 10.85
5/18/2021 2:00:00 PM 16.05 60.89 0.079 7.03 3.46 10.81
5/18/2021 2:15:00 PM 16.3 61.34 0.079 7.06 3.36 10.74
5/18/2021 2:30:00 PM 16.5 61.7 0.079 7.04 3.53 10.68
5/18/2021 2:45:00 PM 16.7 62.06 0.079 7.04 3.57 10.64
5/18/2021 3:00:00 PM 16.87 62.366 0.079 7.05 3.49 10.58
5/18/2021 3:15:00 PM 17 62.6 0.079 7.03 3.59 10.53
5/18/2021 3:30:00 PM 17.05 62.69 0.079 7.02 3.53 10.47
5/18/2021 3:45:00 PM 17.06 62.708 0.079 7.01 3.47 10.43
5/18/2021 4:00:00 PM 17.06 62.708 0.079 6.99 3.69 10.38
5/18/2021 4:15:00 PM 17.05 62.69 0.079 6.98 3.6 10.37
5/18/2021 4:30:00 PM 17.07 62.726 0.079 6.95 3.63 10.33
5/18/2021 4:45:00 PM 17.14 62.852 0.079 6.95 3.64 10.27
5/18/2021 5:00:00 PM 17.21 62.978 0.079 6.97 3.47 10.2
5/18/2021 5:15:00 PM 17.28 63.104 0.079 6.96 3.83 10.1
5/18/2021 5:30:00 PM 17.33 63.194 0.079 6.96 3.57 10.03
5/18/2021 5:45:00 PM 17.37 63.266 0.079 6.97 3.59 9.93
5/18/2021 6:00:00 PM 17.4 63.32 0.079 6.94 3.59 9.88
5/18/2021 6:15:00 PM 17.4 63.32 0.079 6.95 3.64 9.8
5/18/2021 6:30:00 PM 17.38 63.284 0.079 6.95 3.5 9.73
5/18/2021 6:45:00 PM 17.33 63.194 0.079 6.92 3.73 9.67
5/18/2021 7:00:00 PM 17.29 63.122 0.079 6.93 3.6 9.59
5/18/2021 7:15:00 PM 17.26 63.068 0.079 6.91 3.65 9.51
5/18/2021 7:30:00 PM 17.23 63.014 0.079 6.9 3.85 9.44
5/18/2021 7:45:00 PM 17.19 62.942 0.08 6.91 3.88 9.38
5/18/2021 8:00:00 PM 17.14 62.852 0.08 6.88 3.78 9.31
5/18/2021 8:15:00 PM 17.06 62.708 0.08 6.89 3.84 9.23
5/18/2021 8:30:00 PM 16.97 62.546 0.08 6.88 3.77 9.15
5/18/2021 8:45:00 PM 16.87 62.366 0.08 6.87 3.82 9.13
5/18/2021 9:00:00 PM 16.76 62.168 0.08 6.85 3.59 9.12
5/18/2021 9:15:00 PM 16.65 61.97 0.081 6.84 4.01 9.1
5/18/2021 9:30:00 PM 16.52 61.736 0.081 6.82 4.11 9.08
5/18/2021 9:45:00 PM 16.37 61.466 0.081 6.81 3.97 9.08
5/18/2021 10:00:00 PM 16.24 61.232 0.081 6.8 3.93 9.08
5/18/2021 10:15:00 PM 16.12 61.016 0.081 6.81 3.93 9.06
5/18/2021 10:30:00 PM 16.01 60.818 0.081 6.81 3.84 9.07
5/18/2021 10:45:00 PM 15.89 60.602 0.081 6.78 4.08 9.08
5/18/2021 11:00:00 PM 15.77 60.386 0.081 6.81 4.1 9.09
5/18/2021 11:15:00 PM 15.65 60.17 0.082 6.79 3.92 9.11
5/18/2021 11:30:00 PM 15.54 59.972 0.081 6.79 4.22 9.15
5/18/2021 11:45:00 PM 15.44 59.792 0.082 6.8 3.98 9.16
5/19/2021 12:00:00 AM 15.35 59.63 0.082 6.8 4.11 9.19
5/19/2021 12:15:00 AM 15.25 59.45 0.082 6.84 3.89 9.2
5/19/2021 12:30:00 AM 15.17 59.306 0.082 6.83 3.82 9.22
5/19/2021 12:45:00 AM 15.07 59.126 0.082 6.82 4.09 9.23
5/19/2021 1:00:00 AM 14.99 58.982 0.082 6.81 4.09 9.26
5/19/2021 1:15:00 AM 14.92 58.856 0.082 6.81 4.13 9.29
5/19/2021 1:30:00 AM 14.84 58.712 0.082 6.85 3.85 9.3
5/19/2021 1:45:00 AM 14.76 58.568 0.082 6.84 4.16 9.33
5/19/2021 2:00:00 AM 14.66 58.388 0.082 6.83 4.07 9.35
5/19/2021 2:15:00 AM 14.57 58.226 0.082 6.82 4.04 9.37
5/19/2021 2:30:00 AM 14.49 58.082 0.082 6.86 3.88 9.39
5/19/2021 2:45:00 AM 14.4 57.92 0.082 6.84 4.07 9.42
5/19/2021 3:00:00 AM 14.3 57.74 0.082 6.85 6.89 9.45
5/19/2021 3:15:00 AM 14.2 57.56 0.082 6.86 4.21 9.47
5/19/2021 3:30:00 AM 14.1 57.38 0.082 6.85 4.04 9.5
5/19/2021 3:45:00 AM 14.01 57.218 0.082 6.84 4.12 9.52
5/19/2021 4:00:00 AM 13.91 57.038 0.083 6.85 4.03 9.55
5/19/2021 4:15:00 AM 13.81 56.858 0.083 6.82 4 9.58
5/19/2021 4:30:00 AM 13.7 56.66 0.083 6.84 3.83 9.59
5/19/2021 4:45:00 AM 13.61 56.498 0.083 6.84 4.15 9.63
5/19/2021 5:00:00 AM 13.5 56.3 0.083 6.82 3.94 9.66
5/19/2021 5:15:00 AM 13.4 56.12 0.083 6.82 3.88 9.65
5/19/2021 5:30:00 AM 13.3 55.94 0.083 6.84 3.97 9.7
5/19/2021 5:45:00 AM 13.2 55.76 0.083 6.84 4 9.73
5/19/2021 6:00:00 AM 13.11 55.598 0.083 6.82 3.95 9.78
5/19/2021 6:15:00 AM 13.03 55.454 0.083 6.84 3.83 9.81
5/19/2021 6:30:00 AM 12.95 55.31 0.082 6.86 3.82 9.84
5/19/2021 6:45:00 AM 12.87 55.166 0.083 6.84 3.98 9.91
5/19/2021 7:00:00 AM 12.8 55.04 0.083 6.86 3.82 9.98
5/19/2021 7:15:00 AM 12.74 54.932 0.083 6.88 3.69 10.05
5/19/2021 7:30:00 AM 12.7 54.86 0.083 6.88 3.77 10.16
5/19/2021 7:45:00 AM 12.66 54.788 0.083 6.87 3.84 10.24
5/19/2021 8:00:00 AM 12.64 54.752 0.083 6.9 3.77 10.3
5/19/2021 8:15:00 AM 12.62 54.716 0.083 6.88 3.63 10.38
5/19/2021 8:30:00 AM 12.63 54.734 0.083 6.9 3.72 10.47
5/19/2021 8:45:00 AM 12.64 54.752 0.083 6.91 3.71 10.55
5/19/2021 9:00:00 AM 12.68 54.824 0.082 6.92 3.95 10.59
5/19/2021 9:15:00 AM 12.74 54.932 0.082 6.93 3.81 10.68
5/19/2021 9:30:00 AM 12.82 55.076 0.082 6.93 3.68 10.76
5/19/2021 9:45:00 AM 12.92 55.256 0.082 6.95 3.66 10.79
5/19/2021 10:00:00 AM 13.04 55.472 0.082 6.98 3.68 10.86
5/19/2021 10:15:00 AM 13.2 55.76 0.081 6.99 3.65 10.92
5/19/2021 10:30:00 AM 13.38 56.084 0.081 7 3.73 10.93
5/19/2021 10:45:00 AM 13.58 56.444 0.081 6.99 3.68 10.97
5/19/2021 11:00:00 AM 13.78 56.804 0.081 7.01 3.62 10.99
5/19/2021 11:15:00 AM 14.02 57.236 0.081 7.02 3.51 11.01
5/19/2021 11:30:00 AM 14.27 57.686 0.081 7.04 3.55 10.97
5/19/2021 11:45:00 AM 14.57 58.226 0.081 7.03 3.6 11
5/19/2021 12:00:00 PM 14.85 58.73 0.081 7.05 3.45 10.95
5/19/2021 12:15:00 PM 15.14 59.252 0.081 7.04 3.51 10.92
5/19/2021 12:30:00 PM 15.46 59.828 0.081 7.05 3.46 10.91
5/19/2021 12:45:00 PM 15.78 60.404 0.081 7.04 3.59 10.86
5/19/2021 1:00:00 PM 16.09 60.962 0.08 7.06 3.58 10.78
5/19/2021 1:15:00 PM 16.4 61.52 0.08 7.06 3.38 10.72
5/19/2021 1:30:00 PM 16.69 62.042 0.08 7.07 3.54 10.71
5/19/2021 1:45:00 PM 16.99 62.582 0.08 7.05 3.68 10.67
5/19/2021 2:00:00 PM 17.25 63.05 0.08 7.05 3.61 10.62
5/19/2021 2:15:00 PM 17.5 63.5 0.08 7.06 3.56 10.56
5/19/2021 2:30:00 PM 17.74 63.932 0.08 7.05 3.44 10.49
5/19/2021 2:45:00 PM 17.95 64.31 0.08 7.06 3.53 10.47
5/19/2021 3:00:00 PM 18.08 64.544 0.081 7.03 3.61 10.4
5/19/2021 3:15:00 PM 18.21 64.778 0.081 7.04 3.61 10.36
5/19/2021 3:30:00 PM 18.35 65.03 0.08 7.02 3.54 10.33
5/19/2021 3:45:00 PM 18.46 65.228 0.081 7.02 3.55 10.28
5/19/2021 4:00:00 PM 18.55 65.39 0.08 7.01 3.49 10.21
5/19/2021 4:15:00 PM 18.63 65.534 0.08 7.01 3.45 10.16
5/19/2021 4:30:00 PM 18.7 65.66 0.08 6.99 3.49 10.15
5/19/2021 4:45:00 PM 18.74 65.732 0.08 6.98 3.49 10.13
5/19/2021 5:00:00 PM 18.73 65.714 0.08 6.98 3.58 10.02
5/19/2021 5:15:00 PM 18.73 65.714 0.08 6.96 3.64 9.98
5/19/2021 5:30:00 PM 18.74 65.732 0.08 6.96 3.45 9.87
5/19/2021 5:45:00 PM 18.73 65.714 0.08 6.95 3.47 9.81
5/19/2021 6:00:00 PM 18.75 65.75 0.08 6.95 3.44 9.75
5/19/2021 6:15:00 PM 18.76 65.768 0.08 6.95 3.85 9.7
5/19/2021 6:30:00 PM 18.75 65.75 0.08 6.94 3.65 9.61
5/19/2021 6:45:00 PM 18.74 65.732 0.08 6.94 3.58 9.54
5/19/2021 7:00:00 PM 18.74 65.732 0.08 6.93 3.61 9.49
5/19/2021 7:15:00 PM 18.72 65.696 0.081 6.93 3.73 9.42
5/19/2021 7:30:00 PM 18.68 65.624 0.081 6.93 3.74 9.29
5/19/2021 7:45:00 PM 18.63 65.534 0.081 6.93 3.67 9.25
5/19/2021 8:00:00 PM 18.57 65.426 0.081 6.91 3.63 9.13
5/19/2021 8:15:00 PM 18.5 65.3 0.081 6.91 3.59 9.09
5/19/2021 8:30:00 PM 18.42 65.156 0.081 6.9 5.26 8.99
5/19/2021 8:45:00 PM 18.34 65.012 0.081 6.88 3.75 8.91
5/19/2021 9:00:00 PM 18.27 64.886 0.082 6.88 3.84 8.87
5/19/2021 9:15:00 PM 18.2 64.76 0.082 6.87 3.76 8.8
5/19/2021 9:30:00 PM 18.11 64.598 0.082 6.87 3.76 8.79
5/19/2021 9:45:00 PM 18.03 64.454 0.082 6.87 3.54 8.74
5/19/2021 10:00:00 PM 17.94 64.292 0.082 6.88 3.67 8.71
5/19/2021 10:15:00 PM 17.83 64.094 0.082 6.85 4.04 8.69
5/19/2021 10:30:00 PM 17.73 63.914 0.082 6.85 3.82 8.68
5/19/2021 10:45:00 PM 17.62 63.716 0.083 6.86 3.84 8.67
5/19/2021 11:00:00 PM 17.51 63.518 0.083 6.85 3.95 8.69
5/19/2021 11:15:00 PM 17.4 63.32 0.083 6.83 4.11 8.7
5/19/2021 11:30:00 PM 17.3 63.14 0.083 6.84 4.08 8.71
5/19/2021 11:45:00 PM 17.19 62.942 0.083 6.85 3.89 8.72
5/20/2021 12:00:00 AM 17.08 62.744 0.083 6.85 3.93 8.74
5/20/2021 12:15:00 AM 16.97 62.546 0.083 6.84 4.12 8.76
5/20/2021 12:30:00 AM 16.87 62.366 0.083 6.84 3.83 8.79
5/20/2021 12:45:00 AM 16.75 62.15 0.084 6.84 4.19 8.8
5/20/2021 1:00:00 AM 16.65 61.97 0.084 6.84 3.99 8.85
5/20/2021 1:15:00 AM 16.54 61.772 0.084 6.83 4.23 8.86
5/20/2021 1:30:00 AM 16.43 61.574 0.084 6.83 4.18 8.88
5/20/2021 1:45:00 AM 16.32 61.376 0.084 6.86 3.92 8.92
5/20/2021 2:00:00 AM 16.22 61.196 0.084 6.83 4.14 8.94
5/20/2021 2:15:00 AM 16.12 61.016 0.084 6.84 3.72 8.96
5/20/2021 2:30:00 AM 16.02 60.836 0.084 6.85 3.84 8.99
5/20/2021 2:45:00 AM 15.92 60.656 0.084 6.85 4.04 9.01
5/20/2021 3:00:00 AM 15.83 60.494 0.084 6.86 4 9.03
5/20/2021 3:15:00 AM 15.73 60.314 0.084 6.85 4.06 9.06
5/20/2021 3:30:00 AM 15.63 60.134 0.084 6.86 3.89 9.09
5/20/2021 3:45:00 AM 15.53 59.954 0.085 6.86 3.94 9.11
5/20/2021 4:00:00 AM 15.43 59.774 0.085 6.88 3.94 9.14
5/20/2021 4:15:00 AM 15.33 59.594 0.085 6.86 4.13 9.16
5/20/2021 4:30:00 AM 15.23 59.414 0.085 6.87 3.82 9.19
5/20/2021 4:45:00 AM 15.13 59.234 0.085 6.84 3.97 9.23
5/20/2021 5:00:00 AM 15.04 59.072 0.084 6.86 3.82 9.26
5/20/2021 5:15:00 AM 14.95 58.91 0.085 6.86 4.05 9.27
5/20/2021 5:30:00 AM 14.86 58.748 0.085 6.86 3.83 9.29
5/20/2021 5:45:00 AM 14.78 58.604 0.085 6.86 3.96 9.31
5/20/2021 6:00:00 AM 14.69 58.442 0.085 6.87 4.14 9.34
5/20/2021 6:15:00 AM 14.61 58.298 0.085 6.88 4.18 9.37
5/20/2021 6:30:00 AM 14.53 58.154 0.085 6.87 4.03 9.44
5/20/2021 6:45:00 AM 14.46 58.028 0.085 6.87 3.87 9.51
5/20/2021 7:00:00 AM 14.4 57.92 0.085 6.87 3.83 9.59
5/20/2021 7:15:00 AM 14.35 57.83 0.085 6.9 3.82 9.69
5/20/2021 7:30:00 AM 14.32 57.776 0.085 6.91 3.79 9.78
5/20/2021 7:45:00 AM 14.29 57.722 0.084 6.89 3.72 9.89
5/20/2021 8:00:00 AM 14.27 57.686 0.084 6.9 3.8 9.97
5/20/2021 8:15:00 AM 14.25 57.65 0.084 6.91 3.72 10.06
5/20/2021 8:30:00 AM 14.26 57.668 0.084 6.93 3.99 10.15
5/20/2021 8:45:00 AM 14.29 57.722 0.084 6.93 3.76 10.22
5/20/2021 9:00:00 AM 14.32 57.776 0.084 6.94 3.89 10.36
5/20/2021 9:15:00 AM 14.37 57.866 0.084 6.96 3.66 10.44
5/20/2021 9:30:00 AM 14.44 57.992 0.083 6.96 3.78 10.48
5/20/2021 9:45:00 AM 14.51 58.118 0.083 6.96 3.68 10.58
5/20/2021 10:00:00 AM 14.58 58.244 0.083 6.97 3.78 10.66
5/20/2021 10:15:00 AM 14.74 58.532 0.083 6.99 3.67 10.74
5/20/2021 10:30:00 AM 14.91 58.838 0.083 7 3.62 10.81
5/20/2021 10:45:00 AM 15.1 59.18 0.083 7 3.62 10.85
5/20/2021 11:00:00 AM 15.25 59.45 0.083 7 3.74 10.86
5/20/2021 11:15:00 AM 15.46 59.828 0.082 7.02 3.52 10.87
5/20/2021 11:30:00 AM 15.7 60.26 0.082 7.03 3.64 10.88
5/20/2021 11:45:00 AM 15.98 60.764 0.082 7.04 3.47 10.86
5/20/2021 12:00:00 PM 16.27 61.286 0.082 7.04 3.53 10.84
5/20/2021 12:15:00 PM 16.56 61.808 0.082 7.04 3.47 10.81
5/20/2021 12:30:00 PM 16.84 62.312 0.082 7.05 3.64 10.77
5/20/2021 12:45:00 PM 17.13 62.834 0.082 7.05 3.61 10.73
5/20/2021 1:00:00 PM 17.43 63.374 0.082 7.05 3.7 10.72
5/20/2021 1:15:00 PM 17.72 63.896 0.082 7.07 3.65 10.64
5/20/2021 1:30:00 PM 18.02 64.436 0.082 7.07 3.57 10.6
5/20/2021 1:45:00 PM 18.26 64.868 0.082 7.06 3.52 10.55
5/20/2021 2:00:00 PM 18.53 65.354 0.082 7.06 3.48 10.52
5/20/2021 2:15:00 PM 18.79 65.82201 0.082 7.08 3.54 10.46
5/20/2021 2:30:00 PM 18.98 66.164 0.082 7.07 3.52 10.38
5/20/2021 2:45:00 PM 19.25 66.65 0.082 7.06 3.61 10.37
5/20/2021 3:00:00 PM 19.49 67.082 0.082 7.07 3.52 10.32
5/20/2021 3:15:00 PM 19.69 67.442 0.082 7.07 3.51 10.26
5/20/2021 3:30:00 PM 19.85 67.73 0.082 7.06 3.52 10.21
5/20/2021 3:45:00 PM 19.98 67.964 0.082 7.08 3.59 10.14
5/20/2021 4:00:00 PM 20.03 68.054 0.082 7.08 3.66 9.99
5/20/2021 4:15:00 PM 20.11 68.198 0.082 7.06 3.51 9.97
5/20/2021 4:30:00 PM 20.16 68.288 0.082 7.06 3.6 9.96
5/20/2021 4:45:00 PM 20.18 68.324 0.082 7.05 3.41 9.85
5/20/2021 5:00:00 PM 20.21 68.378 0.082 7.05 3.52 9.82
5/20/2021 5:15:00 PM 20.19 68.342 0.082 7.04 3.57 9.73
5/20/2021 5:30:00 PM 20.21 68.378 0.082 7.04 3.48 9.63
5/20/2021 5:45:00 PM 20.21 68.378 0.082 7.03 3.62 9.57
5/20/2021 6:00:00 PM 20.21 68.378 0.082 7.02 3.51 9.47
5/20/2021 6:15:00 PM 20.2 68.36 0.082 7.03 3.59 9.39
5/20/2021 6:30:00 PM 20.17 68.306 0.082 7.02 3.65 9.3
5/20/2021 6:45:00 PM 20.14 68.252 0.082 7 3.61 9.21
5/20/2021 7:00:00 PM 20.09 68.162 0.082 7.01 3.51 9.11
5/20/2021 7:15:00 PM 20.06 68.108 0.082 6.98 3.72 9.01
5/20/2021 7:30:00 PM 20.01 68.018 0.082 7 3.76 8.92
5/20/2021 7:45:00 PM 19.97 67.946 0.082 7 3.58 8.85
5/20/2021 8:00:00 PM 19.9 67.82 0.083 6.99 12.26 8.78
5/20/2021 8:15:00 PM 19.81 67.658 0.083 6.98 3.81 8.67
5/20/2021 8:30:00 PM 19.73 67.514 0.083 6.97 3.63 8.62
5/20/2021 8:45:00 PM 19.62 67.316 0.083 6.97 4.11 8.54
5/20/2021 9:00:00 PM 19.53 67.154 0.083 6.97 3.7 8.51
5/20/2021 9:15:00 PM 19.43 66.974 0.084 6.95 3.83 8.45
5/20/2021 9:30:00 PM 19.34 66.812 0.084 6.94 4.16 8.43
5/20/2021 9:45:00 PM 19.26 66.668 0.084 6.93 3.95 8.38
5/20/2021 10:00:00 PM 19.17 66.506 0.084 6.92 3.97 8.37
5/20/2021 10:15:00 PM 19.08 66.344 0.084 6.92 3.91 8.35
5/20/2021 10:30:00 PM 18.99 66.182 0.084 6.89 3.9 8.33
5/20/2021 10:45:00 PM 18.89 66.002 0.084 6.88 3.81 8.35
5/20/2021 11:00:00 PM 18.79 65.82201 0.084 6.87 3.99 8.35
5/20/2021 11:15:00 PM 18.7 65.66 0.085 6.87 3.68 8.32
5/20/2021 11:30:00 PM 18.6 65.48 0.085 6.87 3.94 8.35
5/20/2021 11:45:00 PM 18.51 65.318 0.085 6.88 4.02 8.35
5/21/2021 12:00:00 AM 18.41 65.138 0.085 6.89 3.88 8.38
5/21/2021 12:15:00 AM 18.32 64.976 0.085 6.89 4.14 8.42
5/21/2021 12:30:00 AM 18.21 64.778 0.085 6.92 3.91 8.42
5/21/2021 12:45:00 AM 18.12 64.616 0.085 6.91 4.03 8.47
5/21/2021 1:00:00 AM 18.02 64.436 0.085 6.92 3.84 8.47
5/21/2021 1:15:00 AM 17.91 64.238 0.085 6.91 4 8.49
5/21/2021 1:30:00 AM 17.81 64.058 0.085 6.91 3.83 8.54
5/21/2021 1:45:00 AM 17.71 63.878 0.086 6.9 3.86 8.55
5/21/2021 2:00:00 AM 17.61 63.698 0.086 6.9 4.04 8.57
5/21/2021 2:15:00 AM 17.5 63.5 0.086 6.88 3.95 8.6
5/21/2021 2:30:00 AM 17.4 63.32 0.086 6.89 3.95 8.63
5/21/2021 2:45:00 AM 17.31 63.158 0.086 6.89 4.17 8.66
5/21/2021 3:00:00 AM 17.21 62.978 0.086 6.9 4.11 8.69
5/21/2021 3:15:00 AM 17.1 62.78 0.086 6.87 4.13 8.69
5/21/2021 3:30:00 AM 17.01 62.618 0.086 6.87 3.83 8.72
5/21/2021 3:45:00 AM 16.92 62.456 0.086 6.87 3.9 8.75
5/21/2021 4:00:00 AM 16.81 62.258 0.086 6.89 4.07 8.75
5/21/2021 4:15:00 AM 16.71 62.078 0.087 6.88 4.01 8.78
5/21/2021 4:30:00 AM 16.62 61.916 0.087 6.89 3.96 8.83
5/21/2021 4:45:00 AM 16.5 61.7 0.087 6.87 3.8 8.86
5/21/2021 5:00:00 AM 16.39 61.502 0.087 6.88 3.75 8.88
5/21/2021 5:15:00 AM 16.3 61.34 0.087 6.88 3.83 8.91
5/21/2021 5:30:00 AM 16.2 61.16 0.087 6.9 3.93 8.95
5/21/2021 5:45:00 AM 16.09 60.962 0.087 6.91 4.36 8.98
5/21/2021 6:00:00 AM 15.99 60.782 0.087 6.92 3.99 9
5/21/2021 6:15:00 AM 15.9 60.62 0.087 6.92 3.95 9.01
5/21/2021 6:30:00 AM 15.81 60.458 0.087 6.93 3.83 9.1
5/21/2021 6:45:00 AM 15.73 60.314 0.087 6.92 4.26 9.17
5/21/2021 7:00:00 AM 15.66 60.188 0.087 6.91 3.87 9.26
5/21/2021 7:15:00 AM 15.6 60.08 0.087 6.92 4.14 9.33
5/21/2021 7:30:00 AM 15.55 59.99 0.087 6.91 3.83 9.43
5/21/2021 7:45:00 AM 15.51 59.918 0.087 6.92 3.97 9.53
5/21/2021 8:00:00 AM 15.48 59.864 0.087 6.92 3.91 9.63
5/21/2021 8:15:00 AM 15.46 59.828 0.087 6.92 3.88 9.72
5/21/2021 8:30:00 AM 15.45 59.81 0.087 6.96 3.97 9.8
5/21/2021 8:45:00 AM 15.46 59.828 0.086 6.94 3.93 9.89
5/21/2021 9:00:00 AM 15.49 59.882 0.086 6.96 3.84 9.99
5/21/2021 9:15:00 AM 15.53 59.954 0.086 6.97 3.85 10.09
5/21/2021 9:30:00 AM 15.6 60.08 0.086 6.98 3.84 10.17
5/21/2021 9:45:00 AM 15.68 60.224 0.086 6.98 3.83 10.26
5/21/2021 10:00:00 AM 15.79 60.422 0.086 7 3.66 10.35
5/21/2021 10:15:00 AM 15.94 60.692 0.086 7.01 3.82 10.4
5/21/2021 10:30:00 AM 16.1 60.98 0.086 7.04 3.7 10.47
5/21/2021 10:45:00 AM 16.29 61.322 0.085 7.05 3.82 10.52
5/21/2021 11:00:00 AM 16.49 61.682 0.085 7.07 3.86 10.57
5/21/2021 11:15:00 AM 16.73 62.114 0.085 7.06 3.72 10.59
5/21/2021 11:30:00 AM 16.96 62.528 0.085 7.07 3.84 10.6
5/21/2021 11:45:00 AM 17.23 63.014 0.085 7.07 4.09 10.63
5/21/2021 12:00:00 PM 17.5 63.5 0.085 7.08 3.77 10.61
5/21/2021 12:15:00 PM 17.8 64.04 0.084 7.06 3.78 10.62
5/21/2021 12:30:00 PM 18.11 64.598 0.084 7.08 3.77 10.59
5/21/2021 12:45:00 PM 18.41 65.138 0.084 7.08 3.68 10.56
5/21/2021 1:00:00 PM 18.71 65.67799 0.084 7.09 3.69 10.53
5/21/2021 1:15:00 PM 19.04 66.272 0.084 7.08 3.8 10.49
5/21/2021 1:30:00 PM 19.34 66.812 0.084 7.09 3.74 10.49
5/21/2021 1:45:00 PM 19.62 67.316 0.084 7.09 3.74 10.44
5/21/2021 2:00:00 PM 19.9 67.82 0.084 7.08 3.63 10.38
5/21/2021 2:15:00 PM 20.12 68.216 0.084 7.08 3.81 10.37
5/21/2021 2:30:00 PM 20.32 68.576 0.084 7.08 3.69 10.29
5/21/2021 2:45:00 PM 20.54 68.972 0.084 7.08 3.49 10.18
5/21/2021 3:00:00 PM 20.72 69.296 0.084 7.08 3.64 10.13
5/21/2021 3:15:00 PM 20.83 69.494 0.084 7.07 3.62 10.05
5/21/2021 3:30:00 PM 21.01 69.818 0.083 7.07 3.6 10
5/21/2021 3:45:00 PM 21.14 70.052 0.084 7.06 3.66 9.95
5/21/2021 4:00:00 PM 21.25 70.25 0.083 7.06 3.61 9.9
5/21/2021 4:15:00 PM 21.3 70.34 0.083 7.05 3.77 9.81
5/21/2021 4:30:00 PM 21.35 70.43 0.083 7.05 3.7 9.76
5/21/2021 4:45:00 PM 21.37 70.466 0.084 7.04 3.59 9.69
5/21/2021 5:00:00 PM 21.38 70.484 0.084 7.02 3.67 9.62
5/21/2021 5:15:00 PM 21.38 70.484 0.084 7.02 3.58 9.52
5/21/2021 5:30:00 PM 21.4 70.52 0.083 7.02 3.57 9.45
5/21/2021 5:45:00 PM 21.4 70.52 0.084 7.02 3.71 9.38
5/21/2021 6:00:00 PM 21.39 70.502 0.084 7.01 4 9.31
5/21/2021 6:15:00 PM 21.38 70.484 0.084 7 3.84 9.24
5/21/2021 6:30:00 PM 21.34 70.412 0.084 7 3.69 9.1
5/21/2021 6:45:00 PM 21.3 70.34 0.084 6.98 3.86 9
5/21/2021 7:00:00 PM 21.25 70.25 0.084 6.99 3.97 8.88
5/21/2021 7:15:00 PM 21.19 70.142 0.084 6.98 3.86 8.77
5/21/2021 7:30:00 PM 21.13 70.034 0.084 6.97 3.52 8.61
5/21/2021 7:45:00 PM 21.06 69.908 0.084 6.97 4.26 8.55
5/21/2021 8:00:00 PM 20.98 69.764 0.084 6.97 3.81 8.47
5/21/2021 8:15:00 PM 20.87 69.566 0.085 6.95 3.77 8.37
5/21/2021 8:30:00 PM 20.77 69.386 0.085 6.95 3.73 8.33
5/21/2021 8:45:00 PM 20.63 69.134 0.085 6.94 3.83 8.25
5/21/2021 9:00:00 PM 20.52 68.936 0.085 6.92 4.06 8.21
5/21/2021 9:15:00 PM 20.39 68.702 0.085 6.93 3.81 8.18
5/21/2021 9:30:00 PM 20.28 68.504 0.085 6.92 4.01 8.15
5/21/2021 9:45:00 PM 20.17 68.306 0.086 6.92 3.84 8.14
5/21/2021 10:00:00 PM 20.08 68.144 0.086 6.92 4.01 8.07
5/21/2021 10:15:00 PM 19.97 67.946 0.086 6.92 3.97 8.09
5/21/2021 10:30:00 PM 19.86 67.748 0.086 6.93 3.92 8.11
5/21/2021 10:45:00 PM 19.77 67.586 0.086 6.93 4.14 8.11
5/21/2021 11:00:00 PM 19.66 67.388 0.087 6.93 3.88 8.11
5/21/2021 11:15:00 PM 19.56 67.208 0.087 6.91 3.96 8.1
5/21/2021 11:30:00 PM 19.46 67.028 0.087 6.93 4.2 8.13
5/21/2021 11:45:00 PM 19.37 66.866 0.087 6.93 4.2 8.14
5/22/2021 12:00:00 AM 19.27 66.686 0.087 6.94 3.95 8.11
5/22/2021 12:15:00 AM 19.18 66.524 0.087 6.94 3.95 8.18
5/22/2021 12:30:00 AM 19.1 66.38 0.087 6.94 3.75 8.14
5/22/2021 12:45:00 AM 19 66.2 0.087 6.93 3.95 8.17
5/22/2021 1:00:00 AM 18.91 66.038 0.088 6.94 4.01 8.18
5/22/2021 1:15:00 AM 18.81 65.858 0.087 6.95 4.18 8.23
5/22/2021 1:30:00 AM 18.7 65.66 0.088 6.95 3.85 8.23
5/22/2021 1:45:00 AM 18.59 65.462 0.088 6.95 3.78 8.23
5/22/2021 2:00:00 AM 18.49 65.282 0.088 6.95 4.21 8.26
5/22/2021 2:15:00 AM 18.39 65.102 0.088 6.95 4.26 8.32
5/22/2021 2:30:00 AM 18.29 64.922 0.088 6.94 4.17 8.36
5/22/2021 2:45:00 AM 18.21 64.778 0.088 6.94 4.05 8.31
5/22/2021 3:00:00 AM 18.09 64.562 0.088 6.94 3.91 8.4
5/22/2021 3:15:00 AM 18 64.4 0.088 6.95 3.97 8.44
5/22/2021 3:30:00 AM 17.9 64.22 0.088 6.96 4.01 8.46
5/22/2021 3:45:00 AM 17.82 64.076 0.088 6.95 3.97 8.46
5/22/2021 4:00:00 AM 17.72 63.896 0.088 6.95 4.12 8.48
5/22/2021 4:15:00 AM 17.64 63.752 0.089 6.95 4.16 8.51
5/22/2021 4:30:00 AM 17.56 63.608 0.089 6.95 3.92 8.48
5/22/2021 4:45:00 AM 17.49 63.482 0.089 6.96 3.87 8.49
5/22/2021 5:00:00 AM 17.4 63.32 0.089 6.96 4.03 8.59
5/22/2021 5:15:00 AM 17.31 63.158 0.089 6.95 3.98 8.6
5/22/2021 5:30:00 AM 17.23 63.014 0.089 6.93 3.99 8.61
5/22/2021 5:45:00 AM 17.15 62.87 0.089 6.95 4.37 8.62
5/22/2021 6:00:00 AM 17.06 62.708 0.089 6.96 4.31 8.65
5/22/2021 6:15:00 AM 16.99 62.582 0.089 6.95 4.18 8.68
5/22/2021 6:30:00 AM 16.92 62.456 0.089 6.96 3.91 8.73
5/22/2021 6:45:00 AM 16.85 62.33 0.089 6.96 3.91 8.76
5/22/2021 7:00:00 AM 16.78 62.204 0.089 6.97 3.97 8.88
5/22/2021 7:15:00 AM 16.73 62.114 0.089 6.97 3.97 8.92
5/22/2021 7:30:00 AM 16.67 62.006 0.089 6.98 3.96 9.04
5/22/2021 7:45:00 AM 16.65 61.97 0.089 6.98 4.21 9.15
5/22/2021 8:00:00 AM 16.64 61.952 0.089 6.98 3.85 9.29
5/22/2021 8:15:00 AM 16.62 61.916 0.089 7 3.76 9.41
5/22/2021 8:30:00 AM 16.6 61.88 0.089 6.99 3.86 9.49
5/22/2021 8:45:00 AM 16.57 61.826 0.089 6.94 3.73 9.56
5/22/2021 9:00:00 AM 16.59 61.862 0.088 6.93 3.95 9.66
5/22/2021 9:15:00 AM 16.64 61.952 0.088 6.94 3.69 9.82
5/22/2021 9:30:00 AM 16.69 62.042 0.088 6.94 3.79 9.86
5/22/2021 9:45:00 AM 16.72 62.096 0.088 6.94 3.83 10.05
5/22/2021 10:00:00 AM 16.83 62.294 0.088 6.95 3.93 10.11
5/22/2021 10:15:00 AM 16.89 62.402 0.087 6.97 3.87 10.22
5/22/2021 10:30:00 AM 16.98 62.564 0.087 6.98 3.76 10.28
5/22/2021 10:45:00 AM 17.06 62.708 0.087 6.99 3.79 10.23
5/22/2021 11:00:00 AM 17.13 62.834 0.087 7 3.75 10.35
5/22/2021 11:15:00 AM 17.21 62.978 0.087 7 3.63 10.31
5/22/2021 11:30:00 AM 17.34 63.212 0.087 7.01 4.02 10.43
5/22/2021 11:45:00 AM 17.44 63.392 0.086 7.01 3.79 10.48
5/22/2021 12:00:00 PM 17.56 63.608 0.086 7.02 3.88 10.5
5/22/2021 12:15:00 PM 17.78 64.004 0.086 7.01 3.82 10.57
5/22/2021 12:30:00 PM 18 64.4 0.086 7.03 3.65 10.59
5/22/2021 12:45:00 PM 18.34 65.012 0.086 7.06 3.69 10.61
5/22/2021 1:00:00 PM 18.5 65.3 0.086 7.06 3.73 10.55
5/22/2021 1:15:00 PM 18.59 65.462 0.085 7.06 3.84 10.5
5/22/2021 1:30:00 PM 18.71 65.67799 0.085 7.03 3.62 10.5
5/22/2021 1:45:00 PM 18.86 65.948 0.085 7.04 3.62 10.48
5/22/2021 2:00:00 PM 19.06 66.308 0.085 7.05 3.6 10.46
5/22/2021 2:15:00 PM 19.18 66.524 0.085 7.05 3.61 10.4
5/22/2021 2:30:00 PM 19.37 66.866 0.085 7.04 4.06 10.39
5/22/2021 2:45:00 PM 19.54 67.172 0.085 7.04 3.71 10.37
5/22/2021 3:00:00 PM 19.6 67.28 0.085 7.04 3.7 10.27
5/22/2021 3:15:00 PM 19.68 67.424 0.085 7.04 3.82 10.2
5/22/2021 3:30:00 PM 19.79 67.622 0.085 7.02 3.78 10.05
5/22/2021 3:45:00 PM 19.87 67.766 0.085 7.03 3.62 10.07
5/22/2021 4:00:00 PM 19.95 67.91 0.084 7.02 3.62 10.04
5/22/2021 4:15:00 PM 19.97 67.946 0.084 7.02 3.69 9.93
5/22/2021 4:30:00 PM 19.99 67.982 0.084 7.03 3.99 9.86
5/22/2021 4:45:00 PM 19.98 67.964 0.084 7.01 3.72 9.7
5/22/2021 5:00:00 PM 20 68 0.084 6.98 3.61 9.6
5/22/2021 5:15:00 PM 20.05 68.09 0.084 7 3.65 9.53
5/22/2021 5:30:00 PM 20.08 68.144 0.084 6.99 3.72 9.49
5/22/2021 5:45:00 PM 20.09 68.162 0.084 7 3.91 9.46
5/22/2021 6:00:00 PM 20.09 68.162 0.084 7.01 3.73 9.4
5/22/2021 6:15:00 PM 20.07 68.126 0.084 7.02 3.67 9.37
5/22/2021 6:30:00 PM 20.03 68.054 0.084 7.01 4.13 9.24
5/22/2021 6:45:00 PM 20 68 0.084 6.98 3.77 9.24
5/22/2021 7:00:00 PM 19.97 67.946 0.084 6.97 3.68 9.18
5/22/2021 7:15:00 PM 19.92 67.856 0.085 6.97 3.64 9.1
5/22/2021 7:30:00 PM 19.85 67.73 0.085 6.96 3.73 8.97
5/22/2021 7:45:00 PM 19.8 67.64 0.085 6.96 3.7 8.84
5/22/2021 8:00:00 PM 19.77 67.586 0.085 6.95 3.9 8.74
5/22/2021 8:15:00 PM 19.73 67.514 0.085 6.95 5.53 8.59
5/22/2021 8:30:00 PM 19.68 67.424 0.086 6.94 4.05 8.52
5/22/2021 8:45:00 PM 19.64 67.352 0.086 6.94 3.77 8.44
5/22/2021 9:00:00 PM 19.6 67.28 0.086 6.95 3.79 8.36
5/22/2021 9:15:00 PM 19.56 67.208 0.086 6.96 3.74 8.33
5/22/2021 9:30:00 PM 19.52 67.136 0.086 6.95 3.8 8.25
5/22/2021 9:45:00 PM 19.47 67.046 0.086 6.95 3.78 8.26
5/22/2021 10:00:00 PM 19.42 66.956 0.087 6.95 3.96 8.17
5/22/2021 10:15:00 PM 19.37 66.866 0.087 6.95 3.94 8.18
5/22/2021 10:30:00 PM 19.32 66.776 0.087 6.96 3.74 8.15
5/22/2021 10:45:00 PM 19.28 66.704 0.087 6.95 3.86 8.12
5/22/2021 11:00:00 PM 19.22 66.596 0.087 6.95 4.16 8.12
5/22/2021 11:15:00 PM 19.17 66.506 0.088 6.95 3.9 8.14
5/22/2021 11:30:00 PM 19.13 66.434 0.088 6.96 3.67 8.12
5/22/2021 11:45:00 PM 19.08 66.344 0.088 6.95 5.02 8.11
5/23/2021 12:00:00 AM 19.03 66.254 0.088 6.96 3.75 8.09
5/23/2021 12:15:00 AM 18.99 66.182 0.088 6.95 3.8 8.13
5/23/2021 12:30:00 AM 18.93 66.074 0.089 6.96 4.13 8.12
5/23/2021 12:45:00 AM 18.88 65.984 0.089 6.95 4.12 8.15
5/23/2021 1:00:00 AM 18.83 65.894 0.089 6.94 4.01 8.14
5/23/2021 1:15:00 AM 18.78 65.804 0.089 6.93 3.95 8.15
5/23/2021 1:30:00 AM 18.73 65.714 0.089 6.93 3.91 8.15
5/23/2021 1:45:00 AM 18.66 65.588 0.089 6.94 3.88 8.16
5/23/2021 2:00:00 AM 18.6 65.48 0.089 6.95 3.93 8.16
5/23/2021 2:15:00 AM 18.53 65.354 0.089 6.95 3.7 8.17
5/23/2021 2:30:00 AM 18.46 65.228 0.09 6.94 3.78 8.2
5/23/2021 2:45:00 AM 18.39 65.102 0.089 6.94 3.88 8.23
5/23/2021 3:00:00 AM 18.32 64.976 0.089 6.94 4.04 8.2
5/23/2021 3:15:00 AM 18.25 64.85 0.09 6.95 3.9 8.23
5/23/2021 3:30:00 AM 18.17 64.706 0.09 6.95 3.91 8.28
5/23/2021 3:45:00 AM 18.1 64.58 0.09 6.95 3.98 8.28
5/23/2021 4:00:00 AM 18.02 64.436 0.09 6.96 3.67 8.28
5/23/2021 4:15:00 AM 17.95 64.31 0.09 6.95 3.81 8.33
5/23/2021 4:30:00 AM 17.87 64.166 0.09 6.96 3.96 8.34
5/23/2021 4:45:00 AM 17.8 64.04 0.09 6.96 4.09 8.36
5/23/2021 5:00:00 AM 17.71 63.878 0.09 6.95 4.02 8.35
5/23/2021 5:15:00 AM 17.62 63.716 0.09 6.95 4.12 8.39
5/23/2021 5:30:00 AM 17.54 63.572 0.09 6.96 4 8.4
5/23/2021 5:45:00 AM 17.46 63.428 0.091 6.96 4 8.42
5/23/2021 6:00:00 AM 17.38 63.284 0.091 6.96 4.28 8.45
5/23/2021 6:15:00 AM 17.3 63.14 0.091 6.96 4.03 8.49
5/23/2021 6:30:00 AM 17.24 63.032 0.09 6.96 3.94 8.57
5/23/2021 6:45:00 AM 17.18 62.924 0.091 6.98 3.83 8.57
5/23/2021 7:00:00 AM 17.13 62.834 0.091 6.99 4 8.67
5/23/2021 7:15:00 AM 17.1 62.78 0.091 6.99 4.11 8.72
5/23/2021 7:30:00 AM 17.07 62.726 0.091 7 3.83 8.81
5/23/2021 7:45:00 AM 17.05 62.69 0.091 7.01 4.11 8.94
5/23/2021 8:00:00 AM 17.05 62.69 0.09 7.01 3.81 9.03
5/23/2021 8:15:00 AM 17.05 62.69 0.091 7.01 3.72 9.05
5/23/2021 8:30:00 AM 17.06 62.708 0.09 7.01 3.94 9.14
5/23/2021 8:45:00 AM 17.09 62.762 0.09 7.01 3.56 9.26
5/23/2021 9:00:00 AM 17.13 62.834 0.091 7.02 3.87 9.29
5/23/2021 9:15:00 AM 17.21 62.978 0.09 7.03 3.83 9.45
5/23/2021 9:30:00 AM 17.29 63.122 0.09 7.03 3.96 9.52
5/23/2021 9:45:00 AM 17.39 63.302 0.09 7.04 3.71 9.57
5/23/2021 10:00:00 AM 17.53 63.554 0.09 7.04 3.8 9.67
5/23/2021 10:15:00 AM 17.69 63.842 0.09 7.05 3.87 9.75
5/23/2021 10:30:00 AM 17.87 64.166 0.089 7.04 3.68 9.83
5/23/2021 10:45:00 AM 18.09 64.562 0.089 7.07 3.65 9.91
5/23/2021 11:00:00 AM 18.27 64.886 0.089 7.07 3.64 9.97
5/23/2021 11:15:00 AM 18.49 65.282 0.089 7.08 3.72 10.03
5/23/2021 11:30:00 AM 18.72 65.696 0.089 7.07 3.65 10.02
5/23/2021 11:45:00 AM 18.91 66.038 0.089 7.08 3.58 10.06
5/23/2021 12:00:00 PM 19.16 66.488 0.088 7.08 3.62 10.07
5/23/2021 12:15:00 PM 19.3 66.74 0.088 7.08 3.55 10.07
5/23/2021 12:30:00 PM 19.43 66.974 0.088 7.08 3.66 10.01
5/23/2021 12:45:00 PM 19.63 67.334 0.088 7.08 3.64 9.98
5/23/2021 1:00:00 PM 19.9 67.82 0.088 7.08 3.81 9.95
5/23/2021 1:15:00 PM 20.11 68.198 0.087 7.09 3.61 9.98
5/23/2021 1:30:00 PM 20.31 68.558 0.088 7.08 3.71 9.91
5/23/2021 1:45:00 PM 20.49 68.882 0.087 7.09 3.68 9.86
5/23/2021 2:00:00 PM 20.7 69.26 0.087 7.08 3.87 9.76
5/23/2021 2:15:00 PM 20.81 69.458 0.087 7.08 3.6 9.72
5/23/2021 2:30:00 PM 20.86 69.548 0.087 7.07 3.58 9.59
5/23/2021 2:45:00 PM 20.97 69.746 0.087 7.06 3.59 9.53
5/23/2021 3:00:00 PM 21.13 70.034 0.087 7.07 3.51 9.47
5/23/2021 3:15:00 PM 21.27 70.286 0.087 7.06 3.57 9.53
5/23/2021 3:30:00 PM 21.35 70.43 0.087 7.06 3.66 9.5
5/23/2021 3:45:00 PM 21.5 70.7 0.087 7.07 3.66 9.53
5/23/2021 4:00:00 PM 21.58 70.844 0.087 7.06 3.71 9.48
5/23/2021 4:15:00 PM 21.6 70.88 0.087 7.05 3.72 9.46
5/23/2021 4:30:00 PM 21.61 70.898 0.086 7.04 3.61 9.46
5/23/2021 4:45:00 PM 21.64 70.952 0.086 7.02 3.65 9.44
5/23/2021 5:00:00 PM 21.7 71.06 0.087 7.04 3.61 9.42
5/23/2021 5:15:00 PM 21.73 71.114 0.086 7.03 3.89 9.4
5/23/2021 5:30:00 PM 21.73 71.114 0.086 7.03 3.84 9.31
5/23/2021 5:45:00 PM 21.73 71.114 0.086 7.03 3.72 9.15
5/23/2021 6:00:00 PM 21.69 71.042 0.086 7.04 3.67 9.13
5/23/2021 6:15:00 PM 21.67 71.006 0.086 7.02 3.83 8.98
5/23/2021 6:30:00 PM 21.68 71.024 0.086 7.01 3.68 8.85
5/23/2021 6:45:00 PM 21.71 71.078 0.086 7.01 3.81 8.79
5/23/2021 7:00:00 PM 21.7 71.06 0.087 7.01 3.84 8.68
5/23/2021 7:15:00 PM 21.7 71.06 0.087 7.01 3.82 8.53
5/23/2021 7:30:00 PM 21.71 71.078 0.087 7.01 4.08 8.47
5/23/2021 7:45:00 PM 21.72 71.096 0.087 7.01 3.86 8.4
5/23/2021 8:00:00 PM 21.66 70.988 0.087 7.01 3.86 8.25
5/23/2021 8:15:00 PM 21.62 70.916 0.087 7 3.97 8.14
5/23/2021 8:30:00 PM 21.56 70.808 0.087 7.01 3.93 8.04
5/23/2021 8:45:00 PM 21.49 70.682 0.088 7 3.93 7.99
5/23/2021 9:00:00 PM 21.43 70.574 0.088 6.99 3.81 7.89
5/23/2021 9:15:00 PM 21.36 70.448 0.088 6.99 3.88 7.87
5/23/2021 9:30:00 PM 21.28 70.304 0.088 6.98 4.08 7.85
5/23/2021 9:45:00 PM 21.21 70.17799 0.088 6.97 3.85 7.75
5/23/2021 10:00:00 PM 21.16 70.088 0.089 6.97 4.25 7.63
5/23/2021 10:15:00 PM 21.07 69.926 0.088 6.97 4.25 7.64
5/23/2021 10:30:00 PM 21.01 69.818 0.089 6.96 3.97 7.61
5/23/2021 10:45:00 PM 20.91 69.638 0.089 6.96 4.02 7.69
5/23/2021 11:00:00 PM 20.86 69.548 0.09 6.96 3.95 7.51
5/23/2021 11:15:00 PM 20.8 69.44 0.09 6.97 3.96 7.53
5/23/2021 11:30:00 PM 20.72 69.296 0.09 6.97 3.88 7.49
5/23/2021 11:45:00 PM 20.62 69.116 0.09 6.96 4.02 7.56
5/24/2021 12:00:00 AM 20.52 68.936 0.091 6.96 4.17 7.53
5/24/2021 12:15:00 AM 20.44 68.792 0.09 6.96 4.36 7.53
5/24/2021 12:30:00 AM 20.34 68.612 0.091 6.96 4.33 7.57
5/24/2021 12:45:00 AM 20.26 68.468 0.09 6.96 3.9 7.64
5/24/2021 1:00:00 AM 20.17 68.306 0.091 6.96 4.35 7.49
5/24/2021 1:15:00 AM 20.09 68.162 0.091 6.96 3.98 7.6
5/24/2021 1:30:00 AM 19.99 67.982 0.091 6.96 4.27 7.52
5/24/2021 1:45:00 AM 19.88 67.784 0.091 6.96 4.87 7.56
5/24/2021 2:00:00 AM 19.78 67.604 0.091 6.95 6.39 7.63
5/24/2021 2:15:00 AM 19.66 67.388 0.091 6.95 5.88 7.74
5/24/2021 2:30:00 AM 19.56 67.208 0.091 6.95 7.1 7.69
5/24/2021 2:45:00 AM 19.44 66.992 0.091 6.95 4.45 7.79
5/24/2021 3:00:00 AM 19.38 66.884 0.091 6.95 5.21 7.77
5/24/2021 3:15:00 AM 19.31 66.758 0.091 6.95 6.08 7.77
5/24/2021 3:30:00 AM 19.22 66.596 0.091 6.95 4.28 7.83
5/24/2021 3:45:00 AM 19.14 66.452 0.091 6.94 4.94 7.82
5/24/2021 4:00:00 AM 19.04 66.272 0.091 6.97 5.37 7.9
5/24/2021 4:15:00 AM 18.98 66.164 0.091 6.95 4.34 7.86
5/24/2021 4:30:00 AM 18.9 66.02 0.092 6.96 4.53 7.77
5/24/2021 4:45:00 AM 18.82 65.876 0.093 6.98 5.66 7.77
5/24/2021 5:00:00 AM 18.72 65.696 0.092 6.97 6.09 7.84
5/24/2021 5:15:00 AM 18.65 65.57 0.092 6.98 4.39 7.88
5/24/2021 5:30:00 AM 18.53 65.354 0.092 6.98 5.41 7.93
5/24/2021 5:45:00 AM 18.46 65.228 0.092 6.98 4.87 8.01
5/24/2021 6:00:00 AM 18.37 65.066 0.092 6.97 5.27 7.97
5/24/2021 6:15:00 AM 18.27 64.886 0.092 6.97 4.63 8.12
5/24/2021 6:30:00 AM 18.2 64.76 0.092 6.97 5.56 8.14
5/24/2021 6:45:00 AM 18.13 64.634 0.092 6.95 4.47 8.17
5/24/2021 7:00:00 AM 18.04 64.472 0.092 6.98 5.69 8.24
5/24/2021 7:15:00 AM 17.97 64.346 0.092 6.98 4.47 8.34
5/24/2021 7:30:00 AM 17.91 64.238 0.092 6.98 4.37 8.37
5/24/2021 7:45:00 AM 17.87 64.166 0.092 6.98 4.69 8.48
5/24/2021 8:00:00 AM 17.84 64.112 0.092 6.98 8.27 8.41
5/24/2021 8:15:00 AM 17.8 64.04 0.092 6.98 4.59 8.5
5/24/2021 8:30:00 AM 17.76 63.968 0.093 6.97 4.31 8.6
5/24/2021 8:45:00 AM 17.72 63.896 0.093 6.99 4.45 8.74
5/24/2021 9:00:00 AM 17.68 63.824 0.092 7 4.61 8.89
5/24/2021 9:15:00 AM 17.65 63.77 0.092 7 4.2 9.05
5/24/2021 9:30:00 AM 17.63 63.734 0.091 7 4.64 9.16
5/24/2021 9:45:00 AM 17.61 63.698 0.092 7 4.37 9.17
5/24/2021 10:00:00 AM 17.59 63.662 0.091 7.01 4.39 9.33
5/24/2021 10:15:00 AM 17.58 63.644 0.091 7.01 4.57 9.42
5/24/2021 10:30:00 AM 17.6 63.68 0.091 7.02 3.91 9.54
5/24/2021 10:45:00 AM 17.61 63.698 0.091 7.02 4.28 9.64
5/24/2021 11:00:00 AM 17.65 63.77 0.09 7.03 3.94 9.78
5/24/2021 11:15:00 AM 17.64 63.752 0.09 7.03 4.02 9.74
5/24/2021 11:30:00 AM 17.63 63.734 0.09 7.03 4.24 9.75
5/24/2021 11:45:00 AM 17.62 63.716 0.09 7.03 4.1 9.75
5/24/2021 12:00:00 PM 17.61 63.698 0.09 7.03 3.58 9.7
5/24/2021 12:15:00 PM 17.59 63.662 0.09 7.03 4.62 9.64
5/24/2021 12:30:00 PM 17.57 63.626 0.09 7.02 3.93 9.55
5/24/2021 12:45:00 PM 17.54 63.572 0.09 7.02 3.71 9.49
5/24/2021 1:00:00 PM 17.51 63.518 0.09 7.03 3.64 9.43
5/24/2021 1:15:00 PM 17.51 63.518 0.09 7.02 4.19 9.44
5/24/2021 1:30:00 PM 17.53 63.554 0.089 7.03 3.67 9.55
5/24/2021 1:45:00 PM 17.52 63.536 0.089 7.03 8.13 9.56
5/24/2021 2:00:00 PM 17.5 63.5 0.089 7.03 3.86 9.54
5/24/2021 2:15:00 PM 17.48 63.464 0.089 7.03 4.03 9.51
5/24/2021 2:30:00 PM 17.48 63.464 0.089 7.03 3.93 9.51
5/24/2021 2:45:00 PM 17.48 63.464 0.089 7.03 3.59 9.55
5/24/2021 3:00:00 PM 17.48 63.464 0.089 7.02 4.69 9.59
5/24/2021 3:15:00 PM 17.46 63.428 0.089 7.02 3.59 9.59
5/24/2021 3:30:00 PM 17.45 63.41 0.089 7.02 3.71 9.6
5/24/2021 3:45:00 PM 17.44 63.392 0.089 7.03 3.82 9.66
5/24/2021 4:00:00 PM 17.42 63.356 0.089 7.03 4.1 9.65
5/24/2021 4:15:00 PM 17.39 63.302 0.088 7.03 3.94 9.57
5/24/2021 4:30:00 PM 17.36 63.248 0.088 7.02 3.78 9.5
5/24/2021 4:45:00 PM 17.34 63.212 0.088 7.02 3.93 9.5
5/24/2021 5:00:00 PM 17.31 63.158 0.088 7.02 3.9 9.44
5/24/2021 5:15:00 PM 17.3 63.14 0.088 7.02 3.89 9.44
5/24/2021 5:30:00 PM 17.28 63.104 0.088 7.02 4.19 9.35
5/24/2021 5:45:00 PM 17.26 63.068 0.088 7.02 3.49 9.3
5/24/2021 6:00:00 PM 17.24 63.032 0.088 7.02 4.24 9.31
5/24/2021 6:15:00 PM 17.21 62.978 0.088 7.02 4.17 9.25
5/24/2021 6:30:00 PM 17.18 62.924 0.088 7.02 4.4 9.2
5/24/2021 6:45:00 PM 17.14 62.852 0.088 7.02 3.75 9.12
5/24/2021 7:00:00 PM 17.11 62.798 0.088 7.02 3.84 9
5/24/2021 7:15:00 PM 17.09 62.762 0.088 7.02 3.64 9.07
5/24/2021 7:30:00 PM 17.06 62.708 0.088 7.02 3.77 9.04
5/24/2021 7:45:00 PM 17.03 62.654 0.088 7.02 3.64 9
5/24/2021 8:00:00 PM 16.98 62.564 0.089 7.01 3.79 8.8
5/24/2021 8:15:00 PM 16.95 62.51 0.089 7.02 3.89 8.89
5/24/2021 8:30:00 PM 16.92 62.456 0.089 7.02 3.63 8.89
5/24/2021 8:45:00 PM 16.88 62.384 0.089 7.02 3.84 8.88
5/24/2021 9:00:00 PM 16.84 62.312 0.089 7.02 4.72 8.84
5/24/2021 9:15:00 PM 16.8 62.24 0.089 7.01 3.95 8.81
5/24/2021 9:30:00 PM 16.76 62.168 0.089 7.01 4.06 8.83
5/24/2021 9:45:00 PM 16.72 62.096 0.089 7.01 3.84 8.81
5/24/2021 10:00:00 PM 16.68 62.024 0.089 7.01 3.82 8.77
5/24/2021 10:15:00 PM 16.64 61.952 0.09 7.01 3.96 8.79
5/24/2021 10:30:00 PM 16.59 61.862 0.09 7.01 4.23 8.76
5/24/2021 10:45:00 PM 16.55 61.79 0.09 7 3.95 8.73
5/24/2021 11:00:00 PM 16.52 61.736 0.09 7.01 4.27 8.77
5/24/2021 11:15:00 PM 16.48 61.664 0.09 6.99 4.09 8.8
5/24/2021 11:30:00 PM 16.44 61.592 0.09 7.02 4.23 8.79
5/24/2021 11:45:00 PM 16.41 61.538 0.09 7.02 4 8.79
5/25/2021 12:00:00 AM 16.37 61.466 0.09 7.01 4.08 8.75
5/25/2021 12:15:00 AM 16.33 61.394 0.09 7.02 4.06 8.8
5/25/2021 12:30:00 AM 16.29 61.322 0.091 7.02 4.05 8.77
5/25/2021 12:45:00 AM 16.26 61.268 0.09 7.02 3.93 8.83
5/25/2021 1:00:00 AM 16.22 61.196 0.09 7.01 3.91 8.81
5/25/2021 1:15:00 AM 16.18 61.124 0.09 7.01 4.06 8.86
5/25/2021 1:30:00 AM 16.14 61.052 0.091 7.02 3.87 8.83
5/25/2021 1:45:00 AM 16.1 60.98 0.091 7.01 4.34 8.86
5/25/2021 2:00:00 AM 16.07 60.926 0.091 7.01 3.98 8.89
5/25/2021 2:15:00 AM 16.04 60.872 0.091 7.01 4.24 8.88
5/25/2021 2:30:00 AM 16 60.8 0.091 7.02 4.03 8.86
5/25/2021 2:45:00 AM 15.97 60.746 0.091 7.02 3.75 8.78
5/25/2021 3:00:00 AM 15.94 60.692 0.091 7.01 4.14 8.9
5/25/2021 3:15:00 AM 15.9 60.62 0.091 7 4.13 8.89
5/25/2021 3:30:00 AM 15.87 60.566 0.091 7.01 3.84 8.91
5/25/2021 3:45:00 AM 15.85 60.53 0.091 7.02 3.69 8.9
5/25/2021 4:00:00 AM 15.82 60.476 0.091 7.01 3.69 8.93
5/25/2021 4:15:00 AM 15.79 60.422 0.091 7.01 4.03 8.95
5/25/2021 4:30:00 AM 15.76 60.368 0.091 7.01 3.93 8.96
5/25/2021 4:45:00 AM 15.74 60.332 0.091 7.02 4.44 8.95
5/25/2021 5:00:00 AM 15.7 60.26 0.091 7.01 3.68 8.96
5/25/2021 5:15:00 AM 15.67 60.206 0.091 7.01 3.79 8.93
5/25/2021 5:30:00 AM 15.64 60.152 0.092 7.02 3.85 8.96
5/25/2021 5:45:00 AM 15.62 60.116 0.091 7.01 3.88 8.99
5/25/2021 6:00:00 AM 15.59 60.062 0.091 7.02 3.78 9.01
5/25/2021 6:15:00 AM 15.56 60.008 0.092 7.02 3.88 9.03
5/25/2021 6:30:00 AM 15.54 59.972 0.092 7.02 3.88 9.03
5/25/2021 6:45:00 AM 15.52 59.936 0.091 7.02 3.74 9.08
5/25/2021 7:00:00 AM 15.5 59.9 0.091 7.02 3.69 9.09
5/25/2021 7:15:00 AM 15.49 59.882 0.091 7.02 4.19 9.14
5/25/2021 7:30:00 AM 15.48 59.864 0.092 7.02 3.52 9.16
5/25/2021 7:45:00 AM 15.47 59.846 0.092 7.02 3.69 9.22
5/25/2021 8:00:00 AM 15.47 59.846 0.092 7.03 3.94 9.32
5/25/2021 8:15:00 AM 15.48 59.864 0.092 7.03 3.53 9.35
5/25/2021 8:30:00 AM 15.49 59.882 0.091 7.03 5.44 9.44
5/25/2021 8:45:00 AM 15.51 59.918 0.091 7.03 3.54 9.56
5/25/2021 9:00:00 AM 15.53 59.954 0.091 7.03 3.71 9.64
5/25/2021 9:15:00 AM 15.56 60.008 0.091 7.03 3.84 9.63
5/25/2021 9:30:00 AM 15.6 60.08 0.091 7.04 3.56 9.73
5/25/2021 9:45:00 AM 15.64 60.152 0.091 7.05 3.58 9.87
5/25/2021 10:00:00 AM 15.68 60.224 0.091 7.05 3.5 9.95
5/25/2021 10:15:00 AM 15.76 60.368 0.091 7.05 3.57 10.08
5/25/2021 10:30:00 AM 15.82 60.476 0.09 7.06 3.64 10.17
5/25/2021 10:45:00 AM 15.87 60.566 0.091 7.05 3.63 10.17
5/25/2021 11:00:00 AM 15.96 60.728 0.09 7.06 3.61 10.29
5/25/2021 11:15:00 AM 16.02 60.836 0.09 7.06 3.5 10.31
5/25/2021 11:30:00 AM 16.11 60.998 0.09 7.07 3.55 10.4
5/25/2021 11:45:00 AM 16.2 61.16 0.09 7.07 3.45 10.42
5/25/2021 12:00:00 PM 16.3 61.34 0.089 7.07 4.48 10.45
5/25/2021 12:15:00 PM 16.39 61.502 0.089 7.06 3.54 10.46
5/25/2021 12:30:00 PM 16.5 61.7 0.089 7.07 3.57 10.48
5/25/2021 12:45:00 PM 16.6 61.88 0.089 7.07 3.59 10.48
5/25/2021 1:00:00 PM 16.72 62.096 0.089 7.08 3.39 10.5
5/25/2021 1:15:00 PM 16.88 62.384 0.089 7.08 3.51 10.52
5/25/2021 1:30:00 PM 17 62.6 0.089 7.08 3.47 10.53
5/25/2021 1:45:00 PM 17.22 62.996 0.089 7.09 3.49 10.56
5/25/2021 2:00:00 PM 17.35 63.23 0.088 7.09 3.45 10.49
5/25/2021 2:15:00 PM 17.48 63.464 0.088 7.08 3.6 10.52
5/25/2021 2:30:00 PM 17.73 63.914 0.088 7.08 3.73 10.51
5/25/2021 2:45:00 PM 17.97 64.346 0.088 7.09 3.71 10.44
5/25/2021 3:00:00 PM 18.17 64.706 0.088 7.1 3.83 10.45
5/25/2021 3:15:00 PM 18.4 65.12 0.088 7.1 3.48 10.39
5/25/2021 3:30:00 PM 18.65 65.57 0.088 7.11 3.57 10.38
5/25/2021 3:45:00 PM 18.85 65.93 0.088 7.11 3.55 10.29
5/25/2021 4:00:00 PM 19 66.2 0.087 7.1 3.54 10.15
5/25/2021 4:15:00 PM 19.18 66.524 0.087 7.1 3.52 10.16
5/25/2021 4:30:00 PM 19.31 66.758 0.087 7.09 3.7 10.09
5/25/2021 4:45:00 PM 19.4 66.92 0.087 7.09 3.55 9.98
5/25/2021 5:00:00 PM 19.5 67.1 0.087 7.09 3.56 9.92
5/25/2021 5:15:00 PM 19.54 67.172 0.087 7.08 3.65 9.78
5/25/2021 5:30:00 PM 19.62 67.316 0.087 7.07 4.11 9.71
5/25/2021 5:45:00 PM 19.72 67.496 0.087 7.07 3.57 9.57
5/25/2021 6:00:00 PM 19.77 67.586 0.087 7.07 3.68 9.57
5/25/2021 6:15:00 PM 19.79 67.622 0.087 7.06 3.8 9.47
5/25/2021 6:30:00 PM 19.73 67.514 0.087 7.05 3.68 9.33
5/25/2021 6:45:00 PM 19.68 67.424 0.087 7.05 3.73 9.18
5/25/2021 7:00:00 PM 19.67 67.406 0.087 7.03 4.08 9.13
5/25/2021 7:15:00 PM 19.61 67.298 0.087 7.03 3.82 9
5/25/2021 7:30:00 PM 19.57 67.226 0.087 7.03 3.92 8.9
5/25/2021 7:45:00 PM 19.52 67.136 0.088 7.02 3.83 8.76
5/25/2021 8:00:00 PM 19.49 67.082 0.088 7.02 4.2 8.68
5/25/2021 8:15:00 PM 19.46 67.028 0.088 7.02 3.86 8.53
5/25/2021 8:30:00 PM 19.43 66.974 0.088 7.02 4.02 8.53
5/25/2021 8:45:00 PM 19.39 66.902 0.088 7.02 4.07 8.43
5/25/2021 9:00:00 PM 19.34 66.812 0.088 7.02 3.81 8.35
5/25/2021 9:15:00 PM 19.29 66.722 0.088 7.02 3.83 8.33
5/25/2021 9:30:00 PM 19.22 66.596 0.089 7.01 4.07 8.23
5/25/2021 9:45:00 PM 19.13 66.434 0.089 7 3.92 8.21
5/25/2021 10:00:00 PM 19.04 66.272 0.089 7 3.84 8.21
5/25/2021 10:15:00 PM 18.94 66.092 0.089 7 3.98 8.16
5/25/2021 10:30:00 PM 18.86 65.948 0.089 6.99 4.01 8.14
5/25/2021 10:45:00 PM 18.78 65.804 0.089 6.98 4.51 8.17
5/25/2021 11:00:00 PM 18.71 65.67799 0.09 6.98 3.94 8.09
5/25/2021 11:15:00 PM 18.63 65.534 0.09 6.97 3.97 8.14
5/25/2021 11:30:00 PM 18.57 65.426 0.09 6.98 4.09 8.12
5/25/2021 11:45:00 PM 18.51 65.318 0.09 6.98 4.28 8.13
5/26/2021 12:00:00 AM 18.45 65.21 0.09 6.98 4.4 8.11
5/26/2021 12:15:00 AM 18.38 65.084 0.09 6.98 4.25 8.14
5/26/2021 12:30:00 AM 18.33 64.994 0.09 6.99 3.98 8.16
5/26/2021 12:45:00 AM 18.26 64.868 0.091 6.99 3.83 8.16
5/26/2021 1:00:00 AM 18.2 64.76 0.091 6.99 4.23 8.17
5/26/2021 1:15:00 AM 18.13 64.634 0.091 6.99 4.23 8.17
5/26/2021 1:30:00 AM 18.07 64.526 0.091 6.97 4.34 8.17
5/26/2021 1:45:00 AM 18 64.4 0.091 6.98 4.61 8.17
5/26/2021 2:00:00 AM 17.94 64.292 0.091 6.98 4.25 8.18
5/26/2021 2:15:00 AM 17.87 64.166 0.092 6.99 4.19 8.17
5/26/2021 2:30:00 AM 17.81 64.058 0.092 7 3.95 8.2
5/26/2021 2:45:00 AM 17.74 63.932 0.092 7 4.01 8.26
5/26/2021 3:00:00 AM 17.68 63.824 0.092 7 3.97 8.3
5/26/2021 3:15:00 AM 17.61 63.698 0.092 7.01 4.19 8.25
5/26/2021 3:30:00 AM 17.55 63.59 0.092 7 4.3 8.28
5/26/2021 3:45:00 AM 17.49 63.482 0.092 6.99 4.25 8.33
5/26/2021 4:00:00 AM 17.43 63.374 0.092 7 6.41 8.35
5/26/2021 4:15:00 AM 17.37 63.266 0.092 7 4.3 8.36
5/26/2021 4:30:00 AM 17.31 63.158 0.092 7 4.22 8.37
5/26/2021 4:45:00 AM 17.26 63.068 0.092 7 4.17 8.4
5/26/2021 5:00:00 AM 17.21 62.978 0.092 7 4.06 8.43
5/26/2021 5:15:00 AM 17.17 62.906 0.093 7.01 4.13 8.45
5/26/2021 5:30:00 AM 17.12 62.816 0.093 7 4.13 8.44
5/26/2021 5:45:00 AM 17.07 62.726 0.093 7.01 4.49 8.46
5/26/2021 6:00:00 AM 17.02 62.636 0.093 7.01 4.06 8.5
5/26/2021 6:15:00 AM 16.98 62.564 0.093 7.02 4.23 8.52
5/26/2021 6:30:00 AM 16.94 62.492 0.093 7.02 4.06 8.52
5/26/2021 6:45:00 AM 16.91 62.438 0.093 7.01 3.95 8.59
5/26/2021 7:00:00 AM 16.88 62.384 0.093 7.01 4.29 8.65
5/26/2021 7:15:00 AM 16.87 62.366 0.093 7.02 4.02 8.69
5/26/2021 7:30:00 AM 16.85 62.33 0.093 7.03 4.73 8.74
5/26/2021 7:45:00 AM 16.84 62.312 0.093 7.03 5.07 8.77
5/26/2021 8:00:00 AM 16.84 62.312 0.093 7.02 4.6 8.86
5/26/2021 8:15:00 AM 16.84 62.312 0.093 7.03 6.54 8.94
5/26/2021 8:30:00 AM 16.85 62.33 0.093 7.03 4.05 8.97
5/26/2021 8:45:00 AM 16.88 62.384 0.093 7.03 4.6 9.1
5/26/2021 9:00:00 AM 16.91 62.438 0.093 7.04 3.88 9.2
5/26/2021 9:15:00 AM 16.96 62.528 0.093 7.04 3.8 9.29
5/26/2021 9:30:00 AM 16.97 62.546 0.093 7.04 3.94 9.32
5/26/2021 9:45:00 AM 17.03 62.654 0.093 7.05 4.13 9.45
5/26/2021 10:00:00 AM 17.13 62.834 0.092 7.06 3.85 9.58
5/26/2021 10:15:00 AM 17.33 63.194 0.092 7.07 3.83 9.7
5/26/2021 10:30:00 AM 17.5 63.5 0.092 7.08 4.05 9.78
5/26/2021 10:45:00 AM 17.7 63.86 0.092 7.08 3.87 9.85
5/26/2021 11:00:00 AM 17.87 64.166 0.092 7.08 4.91 9.9
5/26/2021 11:15:00 AM 18.08 64.544 0.091 7.09 4 9.95
5/26/2021 11:30:00 AM 18.3 64.94 0.091 7.09 3.72 10
5/26/2021 11:45:00 AM 18.53 65.354 0.091 7.1 3.7 10.03
5/26/2021 12:00:00 PM 18.76 65.768 0.091 7.09 3.42 10.04
5/26/2021 12:15:00 PM 18.91 66.038 0.091 7.09 3.58 10.01
5/26/2021 12:30:00 PM 18.99 66.182 0.091 7.09 3.7 10.01
5/26/2021 12:45:00 PM 19.09 66.362 0.091 7.09 3.85 9.89
5/26/2021 1:00:00 PM 19.22 66.596 0.091 7.08 3.71 9.69
5/26/2021 1:15:00 PM 19.6 67.28 0.091 7.1 3.77 9.8
5/26/2021 1:30:00 PM 19.97 67.946 0.091 7.11 3.79 9.85
5/26/2021 1:45:00 PM 20.27 68.486 0.09 7.12 3.57 9.84
5/26/2021 2:00:00 PM 20.44 68.792 0.09 7.11 3.85 9.81
5/26/2021 2:15:00 PM 20.46 68.828 0.09 7.1 3.56 9.68
5/26/2021 2:30:00 PM 20.49 68.882 0.09 7.07 3.67 9.46
5/26/2021 2:45:00 PM 20.72 69.296 0.09 7.08 3.62 9.46
5/26/2021 3:00:00 PM 20.77 69.386 0.09 7.08 3.77 9.4
5/26/2021 3:15:00 PM 20.88 69.584 0.09 7.08 3.6 9.36
5/26/2021 3:30:00 PM 21.12 70.016 0.09 7.09 3.57 9.4
5/26/2021 3:45:00 PM 21.33 70.394 0.09 7.09 3.49 9.33
5/26/2021 4:00:00 PM 21.55 70.79 0.09 7.1 3.81 9.37
5/26/2021 4:15:00 PM 21.72 71.096 0.09 7.09 3.91 9.35
5/26/2021 4:30:00 PM 21.81 71.258 0.09 7.09 3.85 9.32
5/26/2021 4:45:00 PM 21.75 71.15 0.09 7.07 3.97 9.18
5/26/2021 5:00:00 PM 21.72 71.096 0.09 7.06 3.79 9.07
5/26/2021 5:15:00 PM 21.68 71.024 0.09 7.05 4.08 8.98
5/26/2021 5:30:00 PM 21.65 70.97 0.09 7.04 4.03 8.86
5/26/2021 5:45:00 PM 21.67 71.006 0.09 7.04 3.85 8.82
5/26/2021 6:00:00 PM 21.57 70.826 0.09 7.04 4.03 8.68
5/26/2021 6:15:00 PM 21.49 70.682 0.09 7.04 3.76 8.59
5/26/2021 6:30:00 PM 21.4 70.52 0.09 7.03 3.62 8.52
5/26/2021 6:45:00 PM 21.34 70.412 0.09 7.02 3.55 8.39
5/26/2021 7:00:00 PM 21.29 70.32201 0.09 7.02 3.81 8.25
5/26/2021 7:15:00 PM 21.26 70.268 0.09 7.01 3.73 8.19
5/26/2021 7:30:00 PM 21.23 70.214 0.09 7.01 3.81 8.11
5/26/2021 7:45:00 PM 21.19 70.142 0.09 7.01 3.87 8
5/26/2021 8:00:00 PM 21.13 70.034 0.09 7.02 4.41 7.91
5/26/2021 8:15:00 PM 21.07 69.926 0.09 7.02 4.43 7.87
5/26/2021 8:30:00 PM 21 69.8 0.09 7.02 3.88 7.78
5/26/2021 8:45:00 PM 20.91 69.638 0.09 7.01 4.1 7.75
5/26/2021 9:00:00 PM 20.83 69.494 0.09 7.01 3.91 7.7
5/26/2021 9:15:00 PM 20.71 69.278 0.091 6.99 3.99 7.65
5/26/2021 9:30:00 PM 20.62 69.116 0.091 6.98 4.15 7.63
5/26/2021 9:45:00 PM 20.52 68.936 0.091 6.98 4.15 7.61
5/26/2021 10:00:00 PM 20.42 68.756 0.091 6.97 4.09 7.63
5/26/2021 10:15:00 PM 20.33 68.594 0.091 6.99 4.06 7.6
5/26/2021 10:30:00 PM 20.25 68.45 0.091 6.99 4.06 7.63
5/26/2021 10:45:00 PM 20.16 68.288 0.091 6.99 4.2 7.64
5/26/2021 11:00:00 PM 20.08 68.144 0.091 6.99 3.99 7.64
5/26/2021 11:15:00 PM 20 68 0.092 6.99 3.89 7.61
5/26/2021 11:30:00 PM 19.93 67.874 0.092 6.99 3.91 7.63
5/26/2021 11:45:00 PM 19.86 67.748 0.092 6.99 3.89 7.67
5/27/2021 12:00:00 AM 19.78 67.604 0.092 6.99 4.1 7.7
5/27/2021 12:15:00 AM 19.7 67.46 0.092 6.99 4.1 7.7
5/27/2021 12:30:00 AM 19.62 67.316 0.092 6.99 4 7.69
5/27/2021 12:45:00 AM 19.54 67.172 0.092 6.99 4.18 7.75
5/27/2021 1:00:00 AM 19.46 67.028 0.092 6.99 4.33 7.8
5/27/2021 1:15:00 AM 19.38 66.884 0.092 7 3.98 7.76
5/27/2021 1:30:00 AM 19.31 66.758 0.092 7 4.07 7.79
5/27/2021 1:45:00 AM 19.24 66.632 0.092 7 4.01 7.8
5/27/2021 2:00:00 AM 19.17 66.506 0.092 6.99 4.06 7.84
5/27/2021 2:15:00 AM 19.09 66.362 0.093 6.98 4.43 7.85
5/27/2021 2:30:00 AM 19.03 66.254 0.093 6.98 4.27 7.87
5/27/2021 2:45:00 AM 18.95 66.11 0.093 6.99 4.29 7.88
5/27/2021 3:00:00 AM 18.87 65.966 0.093 6.97 4.4 7.91
5/27/2021 3:15:00 AM 18.8 65.84 0.093 6.97 4.42 7.91
5/27/2021 3:30:00 AM 18.73 65.714 0.093 6.96 4.73 7.98
5/27/2021 3:45:00 AM 18.65 65.57 0.093 6.97 4.97 7.97
5/27/2021 4:00:00 AM 18.57 65.426 0.094 6.96 5.28 8.01
5/27/2021 4:15:00 AM 18.5 65.3 0.094 6.95 5.38 8.03
5/27/2021 4:30:00 AM 18.43 65.174 0.094 6.95 5.43 8.05
5/27/2021 4:45:00 AM 18.35 65.03 0.094 6.96 5.64 8.04
5/27/2021 5:00:00 AM 18.29 64.922 0.094 6.97 5.33 8.1
5/27/2021 5:15:00 AM 18.22 64.796 0.094 6.93 8.27 8.11
5/27/2021 5:30:00 AM 18.16 64.688 0.094 6.96 4.79 8.14
5/27/2021 5:45:00 AM 18.1 64.58 0.094 6.94 4.94 8.18
5/27/2021 6:00:00 AM 18.02 64.436 0.094 6.97 4.6 8.17
5/27/2021 6:15:00 AM 17.95 64.31 0.094 6.96 4.66 8.19
5/27/2021 6:30:00 AM 17.89 64.202 0.094 6.95 4.69 8.27
5/27/2021 6:45:00 AM 17.83 64.094 0.094 6.97 4.37 8.34
5/27/2021 7:00:00 AM 17.79 64.022 0.094 6.97 4.49 8.41
5/27/2021 7:15:00 AM 17.75 63.95 0.094 6.96 4.57 8.48
5/27/2021 7:30:00 AM 17.71 63.878 0.094 6.97 4.39 8.57
5/27/2021 7:45:00 AM 17.68 63.824 0.094 6.97 4.04 8.64
5/27/2021 8:00:00 AM 17.66 63.788 0.094 6.99 4.1 8.64
5/27/2021 8:15:00 AM 17.63 63.734 0.094 7.01 3.97 8.69
5/27/2021 8:30:00 AM 17.61 63.698 0.094 7 4.68 8.81
5/27/2021 8:45:00 AM 17.6 63.68 0.095 7.01 4.25 8.83
5/27/2021 9:00:00 AM 17.61 63.698 0.094 7.01 3.99 8.93
5/27/2021 9:15:00 AM 17.63 63.734 0.094 7.02 3.92 9.02
5/27/2021 9:30:00 AM 17.68 63.824 0.094 7.01 3.96 9.1
5/27/2021 9:45:00 AM 17.73 63.914 0.094 7.01 3.88 9.18
5/27/2021 10:00:00 AM 17.81 64.058 0.094 7.03 3.99 9.25
5/27/2021 10:15:00 AM 17.92 64.256 0.094 7.05 4.32 9.34
5/27/2021 10:30:00 AM 18.04 64.472 0.094 7.07 3.93 9.38
5/27/2021 10:45:00 AM 18.2 64.76 0.094 7.09 3.87 9.47
5/27/2021 11:00:00 AM 18.34 65.012 0.093 7.11 3.98 9.55
5/27/2021 11:15:00 AM 18.52 65.336 0.093 7.11 4.19 9.6
5/27/2021 11:30:00 AM 18.67 65.606 0.093 7.1 3.87 9.6
5/27/2021 11:45:00 AM 18.86 65.948 0.093 7.11 3.94 9.65
5/27/2021 12:00:00 PM 19.05 66.29 0.093 7.1 3.79 9.68
5/27/2021 12:15:00 PM 19.25 66.65 0.093 7.11 3.83 9.69
5/27/2021 12:30:00 PM 19.49 67.082 0.093 7.11 4.03 9.71
5/27/2021 12:45:00 PM 19.7 67.46 0.093 7.11 4.21 9.68
5/27/2021 1:00:00 PM 19.94 67.892 0.093 7.11 4.53 9.69
5/27/2021 1:15:00 PM 20.19 68.342 0.093 7.11 3.82 9.64
5/27/2021 1:30:00 PM 20.43 68.774 0.092 7.12 4.69 9.64
5/27/2021 1:45:00 PM 20.69 69.242 0.092 7.11 4.36 9.64
5/27/2021 2:00:00 PM 20.93 69.674 0.092 7.11 3.73 9.58
5/27/2021 2:15:00 PM 21.17 70.106 0.092 7.12 3.67 9.54
5/27/2021 2:30:00 PM 21.41 70.538 0.092 7.12 3.79 9.5
5/27/2021 2:45:00 PM 21.62 70.916 0.092 7.11 3.73 9.47
5/27/2021 3:00:00 PM 21.84 71.312 0.092 7.12 3.84 9.42
5/27/2021 3:15:00 PM 21.94 71.492 0.092 7.11 3.73 9.35
5/27/2021 3:30:00 PM 22.11 71.798 0.092 7.1 3.76 9.31
5/27/2021 3:45:00 PM 22.27 72.086 0.092 7.1 3.7 9.29
5/27/2021 4:00:00 PM 22.41 72.338 0.092 7.1 3.95 9.22
5/27/2021 4:15:00 PM 22.48 72.464 0.092 7.09 3.82 9.13
5/27/2021 4:30:00 PM 22.46 72.42799 0.092 7.08 4.23 9.02
5/27/2021 4:45:00 PM 22.49 72.482 0.092 7.07 3.95 8.98
5/27/2021 5:00:00 PM 22.47 72.446 0.092 7.07 3.66 8.96
5/27/2021 5:15:00 PM 22.52 72.536 0.092 7.06 3.78 8.9
5/27/2021 5:30:00 PM 22.49 72.482 0.092 7.07 3.7 8.84
5/27/2021 5:45:00 PM 22.42 72.356 0.092 7.06 3.98 8.72
5/27/2021 6:00:00 PM 22.33 72.194 0.092 7.05 3.76 8.66
5/27/2021 6:15:00 PM 22.23 72.014 0.092 7.03 3.85 8.59
5/27/2021 6:30:00 PM 22.13 71.834 0.092 7.03 3.95 8.46
5/27/2021 6:45:00 PM 22.01 71.618 0.092 7.02 5.1 8.39
5/27/2021 7:00:00 PM 21.89 71.402 0.092 7.01 4.05 8.29
5/27/2021 7:15:00 PM 21.8 71.24 0.092 7 3.93 8.22
5/27/2021 7:30:00 PM 21.67 71.006 0.092 7 4.01 8.15
5/27/2021 7:45:00 PM 21.56 70.808 0.092 7 3.97 8.1
5/27/2021 8:00:00 PM 21.47 70.646 0.092 7 3.85 8.02
5/27/2021 8:15:00 PM 21.37 70.466 0.093 7 4.02 7.97
5/27/2021 8:30:00 PM 21.26 70.268 0.093 6.98 4.02 7.94
5/27/2021 8:45:00 PM 21.13 70.034 0.093 6.97 3.74 7.85
5/27/2021 9:00:00 PM 21.01 69.818 0.093 6.97 3.83 7.78
5/27/2021 9:15:00 PM 20.92 69.656 0.093 6.95 4.01 7.72
5/27/2021 9:30:00 PM 20.81 69.458 0.093 6.96 3.8 7.71
5/27/2021 9:45:00 PM 20.69 69.242 0.093 6.96 3.86 7.72
5/27/2021 10:00:00 PM 20.56 69.008 0.093 6.97 3.87 7.71
5/27/2021 10:15:00 PM 20.42 68.756 0.093 6.96 3.85 7.69
5/27/2021 10:30:00 PM 20.25 68.45 0.093 6.96 4.34 7.71
5/27/2021 10:45:00 PM 20.08 68.144 0.094 6.95 3.89 7.7
5/27/2021 11:00:00 PM 19.93 67.874 0.094 6.92 3.84 7.73
5/27/2021 11:15:00 PM 19.78 67.604 0.094 6.9 3.76 7.75
5/27/2021 11:30:00 PM 19.62 67.316 0.094 6.9 3.84 7.73
5/27/2021 11:45:00 PM 19.47 67.046 0.094 6.91 3.74 7.77
5/28/2021 12:00:00 AM 19.34 66.812 0.094 6.89 4.06 7.82
5/28/2021 12:15:00 AM 19.22 66.596 0.094 6.89 4.29 7.83
5/28/2021 12:30:00 AM 19.11 66.398 0.094 6.89 4.13 7.87
5/28/2021 12:45:00 AM 19 66.2 0.094 6.91 4.12 7.88
5/28/2021 1:00:00 AM 18.89 66.002 0.094 6.91 4.07 7.92
5/28/2021 1:15:00 AM 18.77 65.786 0.095 6.92 3.95 7.92
5/28/2021 1:30:00 AM 18.67 65.606 0.095 6.93 3.99 7.92
5/28/2021 1:45:00 AM 18.56 65.408 0.095 6.95 4.04 7.97
5/28/2021 2:00:00 AM 18.45 65.21 0.095 6.94 4.11 8
5/28/2021 2:15:00 AM 18.35 65.03 0.095 6.95 4.25 8.04
5/28/2021 2:30:00 AM 18.25 64.85 0.095 6.95 4.08 8.04
5/28/2021 2:45:00 AM 18.16 64.688 0.095 6.93 4.12 8.04
5/28/2021 3:00:00 AM 18.06 64.508 0.096 6.93 4.12 8.06
5/28/2021 3:15:00 AM 17.96 64.328 0.096 6.94 4.26 8.08
5/28/2021 3:30:00 AM 17.86 64.148 0.096 6.94 4.13 8.11
5/28/2021 3:45:00 AM 17.75 63.95 0.096 6.91 4.26 8.08
5/28/2021 4:00:00 AM 17.64 63.752 0.096 6.91 4.67 8.19
5/28/2021 4:15:00 AM 17.53 63.554 0.096 6.92 3.98 8.22
5/28/2021 4:30:00 AM 17.4 63.32 0.096 6.93 4.23 8.24
5/28/2021 4:45:00 AM 17.28 63.104 0.096 6.93 3.98 8.26
5/28/2021 5:00:00 AM 17.15 62.87 0.096 6.92 4.08 8.3
5/28/2021 5:15:00 AM 17.05 62.69 0.096 6.94 3.89 8.32
5/28/2021 5:30:00 AM 16.93 62.474 0.096 6.93 4.07 8.37
5/28/2021 5:45:00 AM 16.82 62.276 0.096 6.92 4.19 8.42
5/28/2021 6:00:00 AM 16.7 62.06 0.097 6.95 4.31 8.42
5/28/2021 6:15:00 AM 16.6 61.88 0.097 6.94 4.07 8.5
5/28/2021 6:30:00 AM 16.51 61.718 0.097 6.94 3.81 8.54
5/28/2021 6:45:00 AM 16.43 61.574 0.097 6.95 3.73 8.57
5/28/2021 7:00:00 AM 16.34 61.412 0.097 6.94 4.11 8.65
5/28/2021 7:15:00 AM 16.25 61.25 0.097 6.95 4.24 8.69
5/28/2021 7:30:00 AM 16.18 61.124 0.097 6.96 4.08 8.73
5/28/2021 7:45:00 AM 16.1 60.98 0.097 6.96 3.92 8.84
5/28/2021 8:00:00 AM 16 60.8 0.097 6.99 3.85 8.86
5/28/2021 8:15:00 AM 15.92 60.656 0.097 6.99 4.06 8.95
5/28/2021 8:30:00 AM 15.84 60.512 0.097 6.97 4.01 9.04
5/28/2021 8:45:00 AM 15.77 60.386 0.097 6.97 3.79 9.04
5/28/2021 9:00:00 AM 15.72 60.296 0.096 7 4.03 9.2
5/28/2021 9:15:00 AM 15.67 60.206 0.097 6.98 4.06 9.28
5/28/2021 9:30:00 AM 15.63 60.134 0.096 6.98 3.84 9.39
5/28/2021 9:45:00 AM 15.58 60.044 0.096 6.99 3.78 9.46
5/28/2021 10:00:00 AM 15.55 59.99 0.096 7.03 3.58 9.5
5/28/2021 10:15:00 AM 15.53 59.954 0.096 7.03 4.08 9.65